Check out our new PWSWeather beta!
PWSweather.com
Personal Weather Stations
Station Observations
98619
Glenwood, WA 98619

Glenwood, WA 98619

Lat: 46.016, Lon: -121.275

Elevation: 1885

Station Type: Davis Vantage Pro2

www.glenwoodwashingtonweather.info

High Low Average
Temperature 33.1°F0.6°C 25.9°F-3.4°C 29.5°F-1.4°C
Dew Point 22.5°F-5.3°C 15.1°F-9.4°C 19.4°F-7.0°C
Winds 16.0 mph 25.7 kmh Calm Calm 5.0 mph NE8.0 kmh NE
Wind Gusts 23.0 mph37.0 kmh -- 12.0 mph19.3 kmh
Humidity 80% 54% 66%
Pressure 29.99 in1015.6 mb 29.78 in1008.5 mb -
Precipitation 0.00 in0.0 mm - -
Hour Temp Dew Point Humidity Winds Wind Gusts Pressure Precip Precip Rate Daily Precip Total
12:00 AM 29.3°F-1.5°C 21.7°F-5.7°C 73% 11.0 mph NE17.7 kmh NE 23.0 mph37.0 kmh 29.78 in1008.5 mb 0.00 in0.0 mm 0.00 in0.0 mm 0.00 in0.0 mm
12:01 AM 29.3°F-1.5°C 21.7°F-5.7°C 73% 8.0 mph NNE12.9 kmh NNE 23.0 mph37.0 kmh 29.78 in1008.5 mb 0.00 in0.0 mm 0.00 in0.0 mm 0.00 in0.0 mm
12:02 AM 29.3°F-1.5°C 21.7°F-5.7°C 73% 7.0 mph NE11.3 kmh NE 23.0 mph37.0 kmh 29.78 in1008.5 mb 0.00 in0.0 mm 0.00 in0.0 mm 0.00 in0.0 mm
12:03 AM 29.3°F-1.5°C 21.7°F-5.7°C 73% 6.0 mph NE9.7 kmh NE 23.0 mph37.0 kmh 29.78 in1008.5 mb 0.00 in0.0 mm 0.00 in0.0 mm 0.00 in0.0 mm
12:04 AM 29.3°F-1.5°C 21.7°F-5.7°C 73% 8.0 mph NNE12.9 kmh NNE 23.0 mph37.0 kmh 29.78 in1008.5 mb 0.00 in0.0 mm 0.00 in0.0 mm 0.00 in0.0 mm
12:05 AM 29.3°F-1.5°C 21.7°F-5.7°C 73% 8.0 mph ENE12.9 kmh ENE 23.0 mph37.0 kmh 29.78 in1008.5 mb 0.00 in0.0 mm 0.00 in0.0 mm 0.00 in0.0 mm
12:06 AM 29.3°F-1.5°C 21.7°F-5.7°C 73% 5.0 mph NNE8.0 kmh NNE 23.0 mph37.0 kmh 29.78 in1008.5 mb 0.00 in0.0 mm 0.00 in0.0 mm 0.00 in0.0 mm
12:07 AM 29.3°F-1.5°C 21.7°F-5.7°C 73% 7.0 mph NE11.3 kmh NE 23.0 mph37.0 kmh 29.78 in1008.5 mb 0.00 in0.0 mm 0.00 in0.0 mm 0.00 in0.0 mm
12:08 AM 29.3°F-1.5°C 21.7°F-5.7°C 73% 13.0 mph NE20.9 kmh NE 23.0 mph37.0 kmh 29.79 in1008.8 mb 0.00 in0.0 mm 0.00 in0.0 mm 0.00 in0.0 mm
12:09 AM 29.3°F-1.5°C 21.7°F-5.7°C 73% 8.0 mph N12.9 kmh N 23.0 mph37.0 kmh 29.78 in1008.5 mb 0.00 in0.0 mm 0.00 in0.0 mm 0.00 in0.0 mm
12:10 AM 29.3°F-1.5°C 21.7°F-5.7°C 73% 6.0 mph NNE9.7 kmh NNE 23.0 mph37.0 kmh 29.78 in1008.5 mb 0.00 in0.0 mm 0.00 in0.0 mm 0.00 in0.0 mm
12:11 AM 29.3°F-1.5°C 21.7°F-5.7°C 73% 6.0 mph NNE9.7 kmh NNE 16.0 mph25.7 kmh 29.78 in1008.5 mb 0.00 in0.0 mm 0.00 in0.0 mm 0.00 in0.0 mm
12:12 AM 29.3°F-1.5°C 21.7°F-5.7°C 73% 5.0 mph NE8.0 kmh NE 16.0 mph25.7 kmh 29.78 in1008.5 mb 0.00 in0.0 mm 0.00 in0.0 mm 0.00 in0.0 mm
12:13 AM 29.3°F-1.5°C 21.7°F-5.7°C 73% 7.0 mph NNE11.3 kmh NNE 16.0 mph25.7 kmh 29.78 in1008.5 mb 0.00 in0.0 mm 0.00 in0.0 mm 0.00 in0.0 mm
12:14 AM 29.3°F-1.5°C 21.7°F-5.7°C 73% 6.0 mph NNE9.7 kmh NNE 16.0 mph25.7 kmh 29.78 in1008.5 mb 0.00 in0.0 mm 0.00 in0.0 mm 0.00 in0.0 mm
12:15 AM 29.2°F-1.6°C 21.6°F-5.8°C 73% 6.0 mph NNE9.7 kmh NNE 16.0 mph25.7 kmh 29.78 in1008.5 mb 0.00 in0.0 mm 0.00 in0.0 mm 0.00 in0.0 mm
12:16 AM 29.2°F-1.6°C 21.6°F-5.8°C 73% 4.0 mph NNE6.4 kmh NNE 16.0 mph25.7 kmh 29.78 in1008.5 mb 0.00 in0.0 mm 0.00 in0.0 mm 0.00 in0.0 mm
12:17 AM 29.2°F-1.6°C 21.6°F-5.8°C 73% 10.0 mph N16.1 kmh N 16.0 mph25.7 kmh 29.78 in1008.5 mb 0.00 in0.0 mm 0.00 in0.0 mm 0.00 in0.0 mm
12:18 AM 29.2°F-1.6°C 21.6°F-5.8°C 73% 10.0 mph NE16.1 kmh NE 16.0 mph25.7 kmh 29.78 in1008.5 mb 0.00 in0.0 mm 0.00 in0.0 mm 0.00 in0.0 mm
12:19 AM 29.2°F-1.6°C 21.6°F-5.8°C 73% 7.0 mph NE11.3 kmh NE 16.0 mph25.7 kmh 29.78 in1008.5 mb 0.00 in0.0 mm 0.00 in0.0 mm 0.00 in0.0 mm
12:20 AM 29.2°F-1.6°C 21.6°F-5.8°C 73% 9.0 mph NNE14.5 kmh NNE 16.0 mph25.7 kmh 29.78 in1008.5 mb 0.00 in0.0 mm 0.00 in0.0 mm 0.00 in0.0 mm
12:21 AM 29.2°F-1.6°C 21.6°F-5.8°C 73% 13.0 mph NE20.9 kmh NE 16.0 mph25.7 kmh 29.78 in1008.5 mb 0.00 in0.0 mm 0.00 in0.0 mm 0.00 in0.0 mm
12:22 AM 29.2°F-1.6°C 21.6°F-5.8°C 73% 6.0 mph NNE9.7 kmh NNE 17.0 mph27.4 kmh 29.78 in1008.5 mb 0.00 in0.0 mm 0.00 in0.0 mm 0.00 in0.0 mm
12:23 AM 29.2°F-1.6°C 21.6°F-5.8°C 73% 6.0 mph NNE9.7 kmh NNE 17.0 mph27.4 kmh 29.78 in1008.5 mb 0.00 in0.0 mm 0.00 in0.0 mm 0.00 in0.0 mm
12:24 AM 29.2°F-1.6°C 22.0°F-5.6°C 74% 4.0 mph NE6.4 kmh NE 17.0 mph27.4 kmh 29.78 in1008.5 mb 0.00 in0.0 mm 0.00 in0.0 mm 0.00 in0.0 mm
12:25 AM 29.2°F-1.6°C 22.0°F-5.6°C 74% 8.0 mph N12.9 kmh N 17.0 mph27.4 kmh 29.78 in1008.5 mb 0.00 in0.0 mm 0.00 in0.0 mm 0.00 in0.0 mm
12:26 AM 29.1°F-1.6°C 21.9°F-5.6°C 74% 5.0 mph NE8.0 kmh NE 17.0 mph27.4 kmh 29.78 in1008.5 mb 0.00 in0.0 mm 0.00 in0.0 mm 0.00 in0.0 mm
12:27 AM 29.1°F-1.6°C 21.5°F-5.8°C 73% 10.0 mph NE16.1 kmh NE 17.0 mph27.4 kmh 29.78 in1008.5 mb 0.00 in0.0 mm 0.00 in0.0 mm 0.00 in0.0 mm
12:28 AM 29.1°F-1.6°C 21.9°F-5.6°C 74% 6.0 mph NE9.7 kmh NE 17.0 mph27.4 kmh 29.78 in1008.5 mb 0.00 in0.0 mm 0.00 in0.0 mm 0.00 in0.0 mm
12:29 AM 29.1°F-1.6°C 21.9°F-5.6°C 74% 5.0 mph NE8.0 kmh NE 17.0 mph27.4 kmh 29.78 in1008.5 mb 0.00 in0.0 mm 0.00 in0.0 mm 0.00 in0.0 mm
12:30 AM 29.1°F-1.6°C 21.9°F-5.6°C 74% 8.0 mph ENE12.9 kmh ENE 17.0 mph27.4 kmh 29.78 in1008.5 mb 0.00 in0.0 mm 0.00 in0.0 mm 0.00 in0.0 mm
12:31 AM 29.1°F-1.6°C 21.9°F-5.6°C 74% 8.0 mph NE12.9 kmh NE 17.0 mph27.4 kmh 29.78 in1008.5 mb 0.00 in0.0 mm 0.00 in0.0 mm 0.00 in0.0 mm
12:32 AM 29.0°F-1.7°C 21.8°F-5.7°C 74% 9.0 mph N14.5 kmh N 17.0 mph27.4 kmh 29.78 in1008.5 mb 0.00 in0.0 mm 0.00 in0.0 mm 0.00 in0.0 mm
12:33 AM 29.0°F-1.7°C 21.8°F-5.7°C 74% 8.0 mph NE12.9 kmh NE 20.0 mph32.2 kmh 29.79 in1008.8 mb 0.00 in0.0 mm 0.00 in0.0 mm 0.00 in0.0 mm
12:34 AM 29.0°F-1.7°C 21.8°F-5.7°C 74% 10.0 mph N16.1 kmh N 20.0 mph32.2 kmh 29.78 in1008.5 mb 0.00 in0.0 mm 0.00 in0.0 mm 0.00 in0.0 mm
12:35 AM 29.0°F-1.7°C 21.8°F-5.7°C 74% 6.0 mph NNE9.7 kmh NNE 20.0 mph32.2 kmh 29.78 in1008.5 mb 0.00 in0.0 mm 0.00 in0.0 mm 0.00 in0.0 mm
12:36 AM 29.0°F-1.7°C 21.8°F-5.7°C 74% 5.0 mph N8.0 kmh N 20.0 mph32.2 kmh 29.78 in1008.5 mb 0.00 in0.0 mm 0.00 in0.0 mm 0.00 in0.0 mm
12:37 AM 29.0°F-1.7°C 21.8°F-5.7°C 74% 8.0 mph NE12.9 kmh NE 20.0 mph32.2 kmh 29.78 in1008.5 mb 0.00 in0.0 mm 0.00 in0.0 mm 0.00 in0.0 mm
12:38 AM 29.0°F-1.7°C 21.8°F-5.7°C 74% 9.0 mph ENE14.5 kmh ENE 20.0 mph32.2 kmh 29.78 in1008.5 mb 0.00 in0.0 mm 0.00 in0.0 mm 0.00 in0.0 mm
12:39 AM 29.0°F-1.7°C 21.8°F-5.7°C 74% 7.0 mph N11.3 kmh N 20.0 mph32.2 kmh 29.78 in1008.5 mb 0.00 in0.0 mm 0.00 in0.0 mm 0.00 in0.0 mm
12:40 AM 29.0°F-1.7°C 21.8°F-5.7°C 74% 4.0 mph N6.4 kmh N 20.0 mph32.2 kmh 29.78 in1008.5 mb 0.00 in0.0 mm 0.00 in0.0 mm 0.00 in0.0 mm
12:41 AM 29.0°F-1.7°C 21.8°F-5.7°C 74% 7.0 mph NE11.3 kmh NE 20.0 mph32.2 kmh 29.78 in1008.5 mb 0.00 in0.0 mm 0.00 in0.0 mm 0.00 in0.0 mm
12:42 AM 29.0°F-1.7°C 21.8°F-5.7°C 74% 6.0 mph NE9.7 kmh NE 20.0 mph32.2 kmh 29.78 in1008.5 mb 0.00 in0.0 mm 0.00 in0.0 mm 0.00 in0.0 mm
12:43 AM 28.9°F-1.7°C 21.7°F-5.7°C 74% 7.0 mph NE11.3 kmh NE 20.0 mph32.2 kmh 29.79 in1008.8 mb 0.00 in0.0 mm 0.00 in0.0 mm 0.00 in0.0 mm
12:44 AM 28.9°F-1.7°C 21.7°F-5.7°C 74% 7.0 mph NE11.3 kmh NE 20.0 mph32.2 kmh 29.79 in1008.8 mb 0.00 in0.0 mm 0.00 in0.0 mm 0.00 in0.0 mm
12:45 AM 28.9°F-1.7°C 22.0°F-5.6°C 75% 5.0 mph NE8.0 kmh NE 20.0 mph32.2 kmh 29.79 in1008.8 mb 0.00 in0.0 mm 0.00 in0.0 mm 0.00 in0.0 mm
12:46 AM 28.9°F-1.7°C 22.0°F-5.6°C 75% 4.0 mph NNE6.4 kmh NNE 20.0 mph32.2 kmh 29.79 in1008.8 mb 0.00 in0.0 mm 0.00 in0.0 mm 0.00 in0.0 mm
12:47 AM 28.9°F-1.7°C 22.0°F-5.6°C 75% 8.0 mph NNE12.9 kmh NNE 20.0 mph32.2 kmh 29.79 in1008.8 mb 0.00 in0.0 mm 0.00 in0.0 mm 0.00 in0.0 mm
12:48 AM 28.9°F-1.7°C 22.0°F-5.6°C 75% 7.0 mph NE11.3 kmh NE 20.0 mph32.2 kmh 29.79 in1008.8 mb 0.00 in0.0 mm 0.00 in0.0 mm 0.00 in0.0 mm
12:49 AM 28.9°F-1.7°C 22.0°F-5.6°C 75% 6.0 mph NNE9.7 kmh NNE 20.0 mph32.2 kmh 29.79 in1008.8 mb 0.00 in0.0 mm 0.00 in0.0 mm 0.00 in0.0 mm
12:50 AM 28.8°F-1.8°C 21.9°F-5.6°C 75% 5.0 mph N8.0 kmh N 20.0 mph32.2 kmh 29.79 in1008.8 mb 0.00 in0.0 mm 0.00 in0.0 mm 0.00 in0.0 mm
12:51 AM 28.8°F-1.8°C 21.9°F-5.6°C 75% 6.0 mph N9.7 kmh N 20.0 mph32.2 kmh 29.79 in1008.8 mb 0.00 in0.0 mm 0.00 in0.0 mm 0.00 in0.0 mm
12:52 AM 28.8°F-1.8°C 21.9°F-5.6°C 75% 6.0 mph NE9.7 kmh NE 20.0 mph32.2 kmh 29.79 in1008.8 mb 0.00 in0.0 mm 0.00 in0.0 mm 0.00 in0.0 mm
12:53 AM 28.8°F-1.8°C 21.9°F-5.6°C 75% 16.0 mph NE25.7 kmh NE 16.0 mph25.7 kmh 29.79 in1008.8 mb 0.00 in0.0 mm 0.00 in0.0 mm 0.00 in0.0 mm
12:54 AM 28.8°F-1.8°C 21.9°F-5.6°C 75% 12.0 mph 19.3 kmh 17.0 mph27.4 kmh 29.79 in1008.8 mb 0.00 in0.0 mm 0.00 in0.0 mm 0.00 in0.0 mm
12:55 AM 28.8°F-1.8°C 21.9°F-5.6°C 75% 12.0 mph NE19.3 kmh NE 17.0 mph27.4 kmh 29.79 in1008.8 mb 0.00 in0.0 mm 0.00 in0.0 mm 0.00 in0.0 mm
12:56 AM 28.8°F-1.8°C 21.9°F-5.6°C 75% 11.0 mph NNW17.7 kmh NNW 17.0 mph27.4 kmh 29.79 in1008.8 mb 0.00 in0.0 mm 0.00 in0.0 mm 0.00 in0.0 mm
12:57 AM 28.8°F-1.8°C 21.9°F-5.6°C 75% 7.0 mph NNE11.3 kmh NNE 17.0 mph27.4 kmh 29.79 in1008.8 mb 0.00 in0.0 mm 0.00 in0.0 mm 0.00 in0.0 mm
12:58 AM 28.8°F-1.8°C 21.9°F-5.6°C 75% 9.0 mph NE14.5 kmh NE 17.0 mph27.4 kmh 29.79 in1008.8 mb 0.00 in0.0 mm 0.00 in0.0 mm 0.00 in0.0 mm
12:59 AM 28.8°F-1.8°C 21.9°F-5.6°C 75% 9.0 mph NNE14.5 kmh NNE 17.0 mph27.4 kmh 29.79 in1008.8 mb 0.00 in0.0 mm 0.00 in0.0 mm 0.00 in0.0 mm
01:00 AM 28.8°F-1.8°C 21.9°F-5.6°C 75% 12.0 mph NNE19.3 kmh NNE 17.0 mph27.4 kmh 29.79 in1008.8 mb 0.00 in0.0 mm 0.00 in0.0 mm 0.00 in0.0 mm
01:01 AM 28.8°F-1.8°C 21.9°F-5.6°C 75% 5.0 mph NE8.0 kmh NE 17.0 mph27.4 kmh 29.80 in1009.1 mb 0.00 in0.0 mm 0.00 in0.0 mm 0.00 in0.0 mm
01:02 AM 28.8°F-1.8°C 21.9°F-5.6°C 75% 9.0 mph NNE14.5 kmh NNE 17.0 mph27.4 kmh 29.79 in1008.8 mb 0.00 in0.0 mm 0.00 in0.0 mm 0.00 in0.0 mm
01:03 AM 28.8°F-1.8°C 21.9°F-5.6°C 75% 9.0 mph NE14.5 kmh NE 17.0 mph27.4 kmh 29.80 in1009.1 mb 0.00 in0.0 mm 0.00 in0.0 mm 0.00 in0.0 mm
01:04 AM 28.8°F-1.8°C 21.9°F-5.6°C 75% 10.0 mph N16.1 kmh N 17.0 mph27.4 kmh 29.80 in1009.1 mb 0.00 in0.0 mm 0.00 in0.0 mm 0.00 in0.0 mm
01:05 AM 28.8°F-1.8°C 21.9°F-5.6°C 75% 3.0 mph NNE4.8 kmh NNE 17.0 mph27.4 kmh 29.80 in1009.1 mb 0.00 in0.0 mm 0.00 in0.0 mm 0.00 in0.0 mm
01:06 AM 28.8°F-1.8°C 21.9°F-5.6°C 75% 8.0 mph NE12.9 kmh NE 19.0 mph30.6 kmh 29.79 in1008.8 mb 0.00 in0.0 mm 0.00 in0.0 mm 0.00 in0.0 mm
01:07 AM 28.8°F-1.8°C 21.9°F-5.6°C 75% 5.0 mph NE8.0 kmh NE 19.0 mph30.6 kmh 29.79 in1008.8 mb 0.00 in0.0 mm 0.00 in0.0 mm 0.00 in0.0 mm
01:08 AM 28.8°F-1.8°C 21.9°F-5.6°C 75% 7.0 mph NNE11.3 kmh NNE 19.0 mph30.6 kmh 29.80 in1009.1 mb 0.00 in0.0 mm 0.00 in0.0 mm 0.00 in0.0 mm
01:09 AM 28.8°F-1.8°C 21.9°F-5.6°C 75% 5.0 mph NNE8.0 kmh NNE 19.0 mph30.6 kmh 29.80 in1009.1 mb 0.00 in0.0 mm 0.00 in0.0 mm 0.00 in0.0 mm
01:10 AM 28.8°F-1.8°C 21.9°F-5.6°C 75% 6.0 mph N9.7 kmh N 19.0 mph30.6 kmh 29.79 in1008.8 mb 0.00 in0.0 mm 0.00 in0.0 mm 0.00 in0.0 mm
01:11 AM 28.8°F-1.8°C 21.9°F-5.6°C 75% 6.0 mph N9.7 kmh N 19.0 mph30.6 kmh 29.80 in1009.1 mb 0.00 in0.0 mm 0.00 in0.0 mm 0.00 in0.0 mm
01:12 AM 28.8°F-1.8°C 21.6°F-5.8°C 74% 10.0 mph NE16.1 kmh NE 19.0 mph30.6 kmh 29.79 in1008.8 mb 0.00 in0.0 mm 0.00 in0.0 mm 0.00 in0.0 mm
01:13 AM 28.8°F-1.8°C 21.6°F-5.8°C 74% 9.0 mph NNE14.5 kmh NNE 19.0 mph30.6 kmh 29.79 in1008.8 mb 0.00 in0.0 mm 0.00 in0.0 mm 0.00 in0.0 mm
01:14 AM 28.8°F-1.8°C 21.6°F-5.8°C 74% 8.0 mph ENE12.9 kmh ENE 19.0 mph30.6 kmh 29.79 in1008.8 mb 0.00 in0.0 mm 0.00 in0.0 mm 0.00 in0.0 mm
01:15 AM 28.8°F-1.8°C 21.6°F-5.8°C 74% 10.0 mph NE16.1 kmh NE 19.0 mph30.6 kmh 29.79 in1008.8 mb 0.00 in0.0 mm 0.00 in0.0 mm 0.00 in0.0 mm
01:16 AM 28.8°F-1.8°C 21.6°F-5.8°C 74% 10.0 mph NNE16.1 kmh NNE 19.0 mph30.6 kmh 29.79 in1008.8 mb 0.00 in0.0 mm 0.00 in0.0 mm 0.00 in0.0 mm
01:17 AM 28.8°F-1.8°C 21.6°F-5.8°C 74% 7.0 mph NNE11.3 kmh NNE 19.0 mph30.6 kmh 29.79 in1008.8 mb 0.00 in0.0 mm 0.00 in0.0 mm 0.00 in0.0 mm
01:18 AM 28.8°F-1.8°C 21.6°F-5.8°C 74% 4.0 mph NNE6.4 kmh NNE 19.0 mph30.6 kmh 29.80 in1009.1 mb 0.00 in0.0 mm 0.00 in0.0 mm 0.00 in0.0 mm
01:19 AM 28.8°F-1.8°C 21.9°F-5.6°C 75% 11.0 mph NE17.7 kmh NE 19.0 mph30.6 kmh 29.80 in1009.1 mb 0.00 in0.0 mm 0.00 in0.0 mm 0.00 in0.0 mm
01:20 AM 28.8°F-1.8°C 21.6°F-5.8°C 74% 5.0 mph 8.0 kmh 19.0 mph30.6 kmh 29.80 in1009.1 mb 0.00 in0.0 mm 0.00 in0.0 mm 0.00 in0.0 mm
01:21 AM 28.8°F-1.8°C 21.6°F-5.8°C 74% 13.0 mph ENE20.9 kmh ENE 19.0 mph30.6 kmh 29.80 in1009.1 mb 0.00 in0.0 mm 0.00 in0.0 mm 0.00 in0.0 mm
01:22 AM 28.8°F-1.8°C 21.9°F-5.6°C 75% 8.0 mph NNE12.9 kmh NNE 19.0 mph30.6 kmh 29.80 in1009.1 mb 0.00 in0.0 mm 0.00 in0.0 mm 0.00 in0.0 mm
01:23 AM 28.8°F-1.8°C 21.6°F-5.8°C 74% 9.0 mph NE14.5 kmh NE 19.0 mph30.6 kmh 29.80 in1009.1 mb 0.00 in0.0 mm 0.00 in0.0 mm 0.00 in0.0 mm
01:24 AM 28.8°F-1.8°C 21.6°F-5.8°C 74% 10.0 mph N16.1 kmh N 19.0 mph30.6 kmh 29.80 in1009.1 mb 0.00 in0.0 mm 0.00 in0.0 mm 0.00 in0.0 mm
01:25 AM 28.8°F-1.8°C 21.6°F-5.8°C 74% 7.0 mph N11.3 kmh N 19.0 mph30.6 kmh 29.80 in1009.1 mb 0.00 in0.0 mm 0.00 in0.0 mm 0.00 in0.0 mm
01:26 AM 28.8°F-1.8°C 21.9°F-5.6°C 75% 9.0 mph N14.5 kmh N 16.0 mph25.7 kmh 29.80 in1009.1 mb 0.00 in0.0 mm 0.00 in0.0 mm 0.00 in0.0 mm
01:27 AM 28.8°F-1.8°C 21.6°F-5.8°C 74% 8.0 mph NE12.9 kmh NE 16.0 mph25.7 kmh 29.80 in1009.1 mb 0.00 in0.0 mm 0.00 in0.0 mm 0.00 in0.0 mm
01:28 AM 28.8°F-1.8°C 21.6°F-5.8°C 74% 6.0 mph N9.7 kmh N 16.0 mph25.7 kmh 29.80 in1009.1 mb 0.00 in0.0 mm 0.00 in0.0 mm 0.00 in0.0 mm
01:29 AM 28.8°F-1.8°C 21.9°F-5.6°C 75% 12.0 mph NNE19.3 kmh NNE 16.0 mph25.7 kmh 29.80 in1009.1 mb 0.00 in0.0 mm 0.00 in0.0 mm 0.00 in0.0 mm
01:30 AM 28.8°F-1.8°C 21.6°F-5.8°C 74% 7.0 mph NE11.3 kmh NE 16.0 mph25.7 kmh 29.80 in1009.1 mb 0.00 in0.0 mm 0.00 in0.0 mm 0.00 in0.0 mm
01:31 AM 28.8°F-1.8°C 21.9°F-5.6°C 75% 9.0 mph NE14.5 kmh NE 20.0 mph32.2 kmh 29.80 in1009.1 mb 0.00 in0.0 mm 0.00 in0.0 mm 0.00 in0.0 mm
01:32 AM 28.8°F-1.8°C 21.9°F-5.6°C 75% 7.0 mph NE11.3 kmh NE 20.0 mph32.2 kmh 29.80 in1009.1 mb 0.00 in0.0 mm 0.00 in0.0 mm 0.00 in0.0 mm
01:33 AM 28.8°F-1.8°C 21.6°F-5.8°C 74% 7.0 mph N11.3 kmh N 20.0 mph32.2 kmh 29.81 in1009.5 mb 0.00 in0.0 mm 0.00 in0.0 mm 0.00 in0.0 mm
01:34 AM 28.8°F-1.8°C 21.6°F-5.8°C 74% 11.0 mph NNE17.7 kmh NNE 20.0 mph32.2 kmh 29.81 in1009.5 mb 0.00 in0.0 mm 0.00 in0.0 mm 0.00 in0.0 mm
01:35 AM 28.8°F-1.8°C 21.6°F-5.8°C 74% 13.0 mph NE20.9 kmh NE 20.0 mph32.2 kmh 29.81 in1009.5 mb 0.00 in0.0 mm 0.00 in0.0 mm 0.00 in0.0 mm
01:36 AM 28.8°F-1.8°C 21.6°F-5.8°C 74% 9.0 mph ENE14.5 kmh ENE 20.0 mph32.2 kmh 29.81 in1009.5 mb 0.00 in0.0 mm 0.00 in0.0 mm 0.00 in0.0 mm
01:37 AM 28.8°F-1.8°C 21.9°F-5.6°C 75% 6.0 mph N9.7 kmh N 20.0 mph32.2 kmh 29.81 in1009.5 mb 0.00 in0.0 mm 0.00 in0.0 mm 0.00 in0.0 mm
01:38 AM 28.8°F-1.8°C 21.9°F-5.6°C 75% 11.0 mph N17.7 kmh N 20.0 mph32.2 kmh 29.81 in1009.5 mb 0.00 in0.0 mm 0.00 in0.0 mm 0.00 in0.0 mm
01:39 AM 28.8°F-1.8°C 21.9°F-5.6°C 75% 8.0 mph NNE12.9 kmh NNE 20.0 mph32.2 kmh 29.81 in1009.5 mb 0.00 in0.0 mm 0.00 in0.0 mm 0.00 in0.0 mm
01:40 AM 28.8°F-1.8°C 21.9°F-5.6°C 75% 7.0 mph NE11.3 kmh NE 20.0 mph32.2 kmh 29.81 in1009.5 mb 0.00 in0.0 mm 0.00 in0.0 mm 0.00 in0.0 mm
01:41 AM 28.8°F-1.8°C 21.9°F-5.6°C 75% 8.0 mph NNE12.9 kmh NNE 20.0 mph32.2 kmh 29.81 in1009.5 mb 0.00 in0.0 mm 0.00 in0.0 mm 0.00 in0.0 mm
01:42 AM 28.8°F-1.8°C 21.9°F-5.6°C 75% 11.0 mph NE17.7 kmh NE 20.0 mph32.2 kmh 29.81 in1009.5 mb 0.00 in0.0 mm 0.00 in0.0 mm 0.00 in0.0 mm
01:43 AM 28.8°F-1.8°C 21.6°F-5.8°C 74% 9.0 mph N14.5 kmh N 20.0 mph32.2 kmh 29.81 in1009.5 mb 0.00 in0.0 mm 0.00 in0.0 mm 0.00 in0.0 mm
01:44 AM 28.8°F-1.8°C 21.9°F-5.6°C 75% 7.0 mph NNE11.3 kmh NNE 20.0 mph32.2 kmh 29.81 in1009.5 mb 0.00 in0.0 mm 0.00 in0.0 mm 0.00 in0.0 mm
01:45 AM 28.8°F-1.8°C 21.9°F-5.6°C 75% 4.0 mph NNE6.4 kmh NNE 20.0 mph32.2 kmh 29.81 in1009.5 mb 0.00 in0.0 mm 0.00 in0.0 mm 0.00 in0.0 mm
01:46 AM 28.8°F-1.8°C 21.9°F-5.6°C 75% 11.0 mph NNE17.7 kmh NNE 20.0 mph32.2 kmh 29.81 in1009.5 mb 0.00 in0.0 mm 0.00 in0.0 mm 0.00 in0.0 mm
01:47 AM 28.8°F-1.8°C 21.6°F-5.8°C 74% 7.0 mph NNE11.3 kmh NNE 20.0 mph32.2 kmh 29.81 in1009.5 mb 0.00 in0.0 mm 0.00 in0.0 mm 0.00 in0.0 mm
01:48 AM 28.8°F-1.8°C 21.9°F-5.6°C 75% 7.0 mph ENE11.3 kmh ENE 20.0 mph32.2 kmh 29.82 in1009.8 mb 0.00 in0.0 mm 0.00 in0.0 mm 0.00 in0.0 mm
01:49 AM 28.8°F-1.8°C 21.9°F-5.6°C 75% 8.0 mph NE12.9 kmh NE 20.0 mph32.2 kmh 29.82 in1009.8 mb 0.00 in0.0 mm 0.00 in0.0 mm 0.00 in0.0 mm
01:50 AM 28.8°F-1.8°C 21.9°F-5.6°C 75% 9.0 mph NNE14.5 kmh NNE 20.0 mph32.2 kmh 29.82 in1009.8 mb 0.00 in0.0 mm 0.00 in0.0 mm 0.00 in0.0 mm
01:51 AM 28.8°F-1.8°C 21.9°F-5.6°C 75% 5.0 mph NE8.0 kmh NE 17.0 mph27.4 kmh 29.82 in1009.8 mb 0.00 in0.0 mm 0.00 in0.0 mm 0.00 in0.0 mm
01:52 AM 28.8°F-1.8°C 21.9°F-5.6°C 75% 9.0 mph NNW14.5 kmh NNW 17.0 mph27.4 kmh 29.82 in1009.8 mb 0.00 in0.0 mm 0.00 in0.0 mm 0.00 in0.0 mm
01:53 AM 28.8°F-1.8°C 21.9°F-5.6°C 75% 9.0 mph NNE14.5 kmh NNE 17.0 mph27.4 kmh 29.82 in1009.8 mb 0.00 in0.0 mm 0.00 in0.0 mm 0.00 in0.0 mm
01:54 AM 28.8°F-1.8°C 21.9°F-5.6°C 75% 7.0 mph N11.3 kmh N 17.0 mph27.4 kmh 29.82 in1009.8 mb 0.00 in0.0 mm 0.00 in0.0 mm 0.00 in0.0 mm
01:55 AM 28.8°F-1.8°C 21.9°F-5.6°C 75% 12.0 mph ENE19.3 kmh ENE 17.0 mph27.4 kmh 29.82 in1009.8 mb 0.00 in0.0 mm 0.00 in0.0 mm 0.00 in0.0 mm
01:56 AM 28.8°F-1.8°C 21.9°F-5.6°C 75% 9.0 mph N14.5 kmh N 17.0 mph27.4 kmh 29.82 in1009.8 mb 0.00 in0.0 mm 0.00 in0.0 mm 0.00 in0.0 mm
01:57 AM 28.8°F-1.8°C 21.9°F-5.6°C 75% 11.0 mph N17.7 kmh N 17.0 mph27.4 kmh 29.82 in1009.8 mb 0.00 in0.0 mm 0.00 in0.0 mm 0.00 in0.0 mm
01:58 AM 28.8°F-1.8°C 21.9°F-5.6°C 75% 8.0 mph NNE12.9 kmh NNE 17.0 mph27.4 kmh 29.82 in1009.8 mb 0.00 in0.0 mm 0.00 in0.0 mm 0.00 in0.0 mm
01:59 AM 28.8°F-1.8°C 21.9°F-5.6°C 75% 8.0 mph NNE12.9 kmh NNE 17.0 mph27.4 kmh 29.82 in1009.8 mb 0.00 in0.0 mm 0.00 in0.0 mm 0.00 in0.0 mm
02:00 AM 28.8°F-1.8°C 21.9°F-5.6°C 75% 6.0 mph N9.7 kmh N 17.0 mph27.4 kmh 29.82 in1009.8 mb 0.00 in0.0 mm 0.00 in0.0 mm 0.00 in0.0 mm
02:01 AM 28.8°F-1.8°C 21.9°F-5.6°C 75% 7.0 mph NNE11.3 kmh NNE 17.0 mph27.4 kmh 29.82 in1009.8 mb 0.00 in0.0 mm 0.00 in0.0 mm 0.00 in0.0 mm
02:02 AM 28.8°F-1.8°C 21.9°F-5.6°C 75% 7.0 mph NNE11.3 kmh NNE 17.0 mph27.4 kmh 29.82 in1009.8 mb 0.00 in0.0 mm 0.00 in0.0 mm 0.00 in0.0 mm
02:03 AM 28.8°F-1.8°C 21.9°F-5.6°C 75% 9.0 mph N14.5 kmh N 17.0 mph27.4 kmh 29.82 in1009.8 mb 0.00 in0.0 mm 0.00 in0.0 mm 0.00 in0.0 mm
02:04 AM 28.8°F-1.8°C 21.9°F-5.6°C 75% 11.0 mph NE17.7 kmh NE 17.0 mph27.4 kmh 29.82 in1009.8 mb 0.00 in0.0 mm 0.00 in0.0 mm 0.00 in0.0 mm
02:05 AM 28.8°F-1.8°C 21.9°F-5.6°C 75% 8.0 mph NE12.9 kmh NE 17.0 mph27.4 kmh 29.82 in1009.8 mb 0.00 in0.0 mm 0.00 in0.0 mm 0.00 in0.0 mm
02:06 AM 28.8°F-1.8°C 21.9°F-5.6°C 75% 5.0 mph NE8.0 kmh NE 17.0 mph27.4 kmh 29.83 in1010.2 mb 0.00 in0.0 mm 0.00 in0.0 mm 0.00 in0.0 mm
02:07 AM 28.8°F-1.8°C 21.9°F-5.6°C 75% 9.0 mph ENE14.5 kmh ENE 17.0 mph27.4 kmh 29.82 in1009.8 mb 0.00 in0.0 mm 0.00 in0.0 mm 0.00 in0.0 mm
02:08 AM 28.8°F-1.8°C 21.9°F-5.6°C 75% 7.0 mph ENE11.3 kmh ENE 17.0 mph27.4 kmh 29.82 in1009.8 mb 0.00 in0.0 mm 0.00 in0.0 mm 0.00 in0.0 mm
02:09 AM 28.8°F-1.8°C 21.9°F-5.6°C 75% 8.0 mph NNE12.9 kmh NNE 17.0 mph27.4 kmh 29.82 in1009.8 mb 0.00 in0.0 mm 0.00 in0.0 mm 0.00 in0.0 mm
02:10 AM 28.8°F-1.8°C 21.9°F-5.6°C 75% 9.0 mph NNE14.5 kmh NNE 17.0 mph27.4 kmh 29.83 in1010.2 mb 0.00 in0.0 mm 0.00 in0.0 mm 0.00 in0.0 mm
02:11 AM 28.8°F-1.8°C 21.9°F-5.6°C 75% 8.0 mph NNE12.9 kmh NNE 17.0 mph27.4 kmh 29.83 in1010.2 mb 0.00 in0.0 mm 0.00 in0.0 mm 0.00 in0.0 mm
02:12 AM 28.8°F-1.8°C 21.9°F-5.6°C 75% 9.0 mph NE14.5 kmh NE 17.0 mph27.4 kmh 29.83 in1010.2 mb 0.00 in0.0 mm 0.00 in0.0 mm 0.00 in0.0 mm
02:13 AM 28.8°F-1.8°C 21.9°F-5.6°C 75% 12.0 mph NE19.3 kmh NE 17.0 mph27.4 kmh 29.83 in1010.2 mb 0.00 in0.0 mm 0.00 in0.0 mm 0.00 in0.0 mm
02:14 AM 28.8°F-1.8°C 21.9°F-5.6°C 75% 9.0 mph NNE14.5 kmh NNE 19.0 mph30.6 kmh 29.83 in1010.2 mb 0.00 in0.0 mm 0.00 in0.0 mm 0.00 in0.0 mm
02:15 AM 28.8°F-1.8°C 21.9°F-5.6°C 75% 8.0 mph NE12.9 kmh NE 19.0 mph30.6 kmh 29.83 in1010.2 mb 0.00 in0.0 mm 0.00 in0.0 mm 0.00 in0.0 mm
02:16 AM 28.8°F-1.8°C 21.9°F-5.6°C 75% 12.0 mph NE19.3 kmh NE 19.0 mph30.6 kmh 29.82 in1009.8 mb 0.00 in0.0 mm 0.00 in0.0 mm 0.00 in0.0 mm
02:17 AM 28.8°F-1.8°C 21.9°F-5.6°C 75% 11.0 mph NE17.7 kmh NE 19.0 mph30.6 kmh 29.83 in1010.2 mb 0.00 in0.0 mm 0.00 in0.0 mm 0.00 in0.0 mm
02:18 AM 28.8°F-1.8°C 21.9°F-5.6°C 75% 9.0 mph NNE14.5 kmh NNE 19.0 mph30.6 kmh 29.83 in1010.2 mb 0.00 in0.0 mm 0.00 in0.0 mm 0.00 in0.0 mm
02:19 AM 28.8°F-1.8°C 21.9°F-5.6°C 75% 8.0 mph ENE12.9 kmh ENE 19.0 mph30.6 kmh 29.83 in1010.2 mb 0.00 in0.0 mm 0.00 in0.0 mm 0.00 in0.0 mm
02:20 AM 28.8°F-1.8°C 21.9°F-5.6°C 75% 6.0 mph NNE9.7 kmh NNE 19.0 mph30.6 kmh 29.83 in1010.2 mb 0.00 in0.0 mm 0.00 in0.0 mm 0.00 in0.0 mm
02:21 AM 28.8°F-1.8°C 21.9°F-5.6°C 75% 5.0 mph NE8.0 kmh NE 19.0 mph30.6 kmh 29.83 in1010.2 mb 0.00 in0.0 mm 0.00 in0.0 mm 0.00 in0.0 mm
02:22 AM 28.8°F-1.8°C 21.9°F-5.6°C 75% 8.0 mph ENE12.9 kmh ENE 19.0 mph30.6 kmh 29.83 in1010.2 mb 0.00 in0.0 mm 0.00 in0.0 mm 0.00 in0.0 mm
02:23 AM 28.8°F-1.8°C 21.9°F-5.6°C 75% 5.0 mph NE8.0 kmh NE 19.0 mph30.6 kmh 29.83 in1010.2 mb 0.00 in0.0 mm 0.00 in0.0 mm 0.00 in0.0 mm
02:24 AM 28.8°F-1.8°C 21.9°F-5.6°C 75% 6.0 mph NE9.7 kmh NE 19.0 mph30.6 kmh 29.83 in1010.2 mb 0.00 in0.0 mm 0.00 in0.0 mm 0.00 in0.0 mm
02:25 AM 28.8°F-1.8°C 21.9°F-5.6°C 75% 7.0 mph NE11.3 kmh NE 19.0 mph30.6 kmh 29.83 in1010.2 mb 0.00 in0.0 mm 0.00 in0.0 mm 0.00 in0.0 mm
02:26 AM 28.8°F-1.8°C 21.9°F-5.6°C 75% 4.0 mph ENE6.4 kmh ENE 19.0 mph30.6 kmh 29.83 in1010.2 mb 0.00 in0.0 mm 0.00 in0.0 mm 0.00 in0.0 mm
02:27 AM 28.8°F-1.8°C 21.9°F-5.6°C 75% 9.0 mph 14.5 kmh 19.0 mph30.6 kmh 29.83 in1010.2 mb 0.00 in0.0 mm 0.00 in0.0 mm 0.00 in0.0 mm
02:28 AM 28.7°F-1.8°C 21.8°F-5.7°C 75% 11.0 mph NNE17.7 kmh NNE 19.0 mph30.6 kmh 29.83 in1010.2 mb 0.00 in0.0 mm 0.00 in0.0 mm 0.00 in0.0 mm
02:29 AM 28.7°F-1.8°C 21.8°F-5.7°C 75% 5.0 mph NNE8.0 kmh NNE 19.0 mph30.6 kmh 29.83 in1010.2 mb 0.00 in0.0 mm 0.00 in0.0 mm 0.00 in0.0 mm
02:30 AM 28.7°F-1.8°C 21.8°F-5.7°C 75% 6.0 mph NNE9.7 kmh NNE 19.0 mph30.6 kmh 29.84 in1010.5 mb 0.00 in0.0 mm 0.00 in0.0 mm 0.00 in0.0 mm
02:31 AM 28.7°F-1.8°C 22.1°F-5.5°C 76% 7.0 mph N11.3 kmh N 19.0 mph30.6 kmh 29.84 in1010.5 mb 0.00 in0.0 mm 0.00 in0.0 mm 0.00 in0.0 mm
02:32 AM 28.7°F-1.8°C 21.8°F-5.7°C 75% 7.0 mph 11.3 kmh 19.0 mph30.6 kmh 29.84 in1010.5 mb 0.00 in0.0 mm 0.00 in0.0 mm 0.00 in0.0 mm
02:33 AM 28.7°F-1.8°C 22.1°F-5.5°C 76% 8.0 mph NE12.9 kmh NE 19.0 mph30.6 kmh 29.84 in1010.5 mb 0.00 in0.0 mm 0.00 in0.0 mm 0.00 in0.0 mm
02:34 AM 28.7°F-1.8°C 22.1°F-5.5°C 76% 7.0 mph 11.3 kmh 14.0 mph22.5 kmh 29.84 in1010.5 mb 0.00 in0.0 mm 0.00 in0.0 mm 0.00 in0.0 mm
02:35 AM 28.7°F-1.8°C 22.1°F-5.5°C 76% 9.0 mph NNE14.5 kmh NNE 14.0 mph22.5 kmh 29.84 in1010.5 mb 0.00 in0.0 mm 0.00 in0.0 mm 0.00 in0.0 mm
02:36 AM 28.7°F-1.8°C 22.1°F-5.5°C 76% 7.0 mph N11.3 kmh N 14.0 mph22.5 kmh 29.83 in1010.2 mb 0.00 in0.0 mm 0.00 in0.0 mm 0.00 in0.0 mm
02:37 AM 28.7°F-1.8°C 22.1°F-5.5°C 76% 6.0 mph N9.7 kmh N 14.0 mph22.5 kmh 29.84 in1010.5 mb 0.00 in0.0 mm 0.00 in0.0 mm 0.00 in0.0 mm
02:38 AM 28.7°F-1.8°C 21.8°F-5.7°C 75% 8.0 mph NNE12.9 kmh NNE 15.0 mph24.1 kmh 29.84 in1010.5 mb 0.00 in0.0 mm 0.00 in0.0 mm 0.00 in0.0 mm
02:39 AM 28.7°F-1.8°C 22.1°F-5.5°C 76% 6.0 mph NE9.7 kmh NE 15.0 mph24.1 kmh 29.84 in1010.5 mb 0.00 in0.0 mm 0.00 in0.0 mm 0.00 in0.0 mm
02:40 AM 28.7°F-1.8°C 22.1°F-5.5°C 76% 11.0 mph N17.7 kmh N 19.0 mph30.6 kmh 29.84 in1010.5 mb 0.00 in0.0 mm 0.00 in0.0 mm 0.00 in0.0 mm
02:41 AM 28.7°F-1.8°C 21.8°F-5.7°C 75% 8.0 mph NE12.9 kmh NE 19.0 mph30.6 kmh 29.84 in1010.5 mb 0.00 in0.0 mm 0.00 in0.0 mm 0.00 in0.0 mm
02:42 AM 28.7°F-1.8°C 22.1°F-5.5°C 76% 6.0 mph NE9.7 kmh NE 19.0 mph30.6 kmh 29.84 in1010.5 mb 0.00 in0.0 mm 0.00 in0.0 mm 0.00 in0.0 mm
02:43 AM 28.7°F-1.8°C 22.1°F-5.5°C 76% 8.0 mph NNE12.9 kmh NNE 19.0 mph30.6 kmh 29.84 in1010.5 mb 0.00 in0.0 mm 0.00 in0.0 mm 0.00 in0.0 mm
02:44 AM 28.7°F-1.8°C 22.1°F-5.5°C 76% 7.0 mph NE11.3 kmh NE 19.0 mph30.6 kmh 29.84 in1010.5 mb 0.00 in0.0 mm 0.00 in0.0 mm 0.00 in0.0 mm
02:45 AM 28.7°F-1.8°C 22.1°F-5.5°C 76% 7.0 mph NE11.3 kmh NE 19.0 mph30.6 kmh 29.84 in1010.5 mb 0.00 in0.0 mm 0.00 in0.0 mm 0.00 in0.0 mm
02:46 AM 28.7°F-1.8°C 22.1°F-5.5°C 76% 7.0 mph N11.3 kmh N 19.0 mph30.6 kmh 29.84 in1010.5 mb 0.00 in0.0 mm 0.00 in0.0 mm 0.00 in0.0 mm
02:47 AM 28.7°F-1.8°C 22.1°F-5.5°C 76% 8.0 mph NE12.9 kmh NE 19.0 mph30.6 kmh 29.84 in1010.5 mb 0.00 in0.0 mm 0.00 in0.0 mm 0.00 in0.0 mm
02:48 AM 28.7°F-1.8°C 22.1°F-5.5°C 76% 13.0 mph 20.9 kmh 19.0 mph30.6 kmh 29.84 in1010.5 mb 0.00 in0.0 mm 0.00 in0.0 mm 0.00 in0.0 mm
02:49 AM 28.7°F-1.8°C 22.1°F-5.5°C 76% 9.0 mph ENE14.5 kmh ENE 19.0 mph30.6 kmh 29.84 in1010.5 mb 0.00 in0.0 mm 0.00 in0.0 mm 0.00 in0.0 mm
02:50 AM 28.7°F-1.8°C 22.1°F-5.5°C 76% 7.0 mph N11.3 kmh N 19.0 mph30.6 kmh 29.84 in1010.5 mb 0.00 in0.0 mm 0.00 in0.0 mm 0.00 in0.0 mm
02:51 AM 28.7°F-1.8°C 22.1°F-5.5°C 76% 4.0 mph N6.4 kmh N 19.0 mph30.6 kmh 29.84 in1010.5 mb 0.00 in0.0 mm 0.00 in0.0 mm 0.00 in0.0 mm
02:52 AM 28.7°F-1.8°C 22.1°F-5.5°C 76% 11.0 mph NNE17.7 kmh NNE 19.0 mph30.6 kmh 29.84 in1010.5 mb 0.00 in0.0 mm 0.00 in0.0 mm 0.00 in0.0 mm
02:53 AM 28.7°F-1.8°C 22.1°F-5.5°C 76% 8.0 mph NE12.9 kmh NE 19.0 mph30.6 kmh 29.84 in1010.5 mb 0.00 in0.0 mm 0.00 in0.0 mm 0.00 in0.0 mm
02:54 AM 28.7°F-1.8°C 22.1°F-5.5°C 76% 8.0 mph ENE12.9 kmh ENE 19.0 mph30.6 kmh 29.84 in1010.5 mb 0.00 in0.0 mm 0.00 in0.0 mm 0.00 in0.0 mm
02:55 AM 28.7°F-1.8°C 22.1°F-5.5°C 76% 7.0 mph NE11.3 kmh NE 19.0 mph30.6 kmh 29.84 in1010.5 mb 0.00 in0.0 mm 0.00 in0.0 mm 0.00 in0.0 mm
02:56 AM 28.7°F-1.8°C 22.1°F-5.5°C 76% 6.0 mph NE9.7 kmh NE 19.0 mph30.6 kmh 29.84 in1010.5 mb 0.00 in0.0 mm 0.00 in0.0 mm 0.00 in0.0 mm
02:57 AM 28.7°F-1.8°C 22.1°F-5.5°C 76% 5.0 mph NE8.0 kmh NE 19.0 mph30.6 kmh 29.84 in1010.5 mb 0.00 in0.0 mm 0.00 in0.0 mm 0.00 in0.0 mm
02:58 AM 28.7°F-1.8°C 22.1°F-5.5°C 76% 9.0 mph NE14.5 kmh NE 19.0 mph30.6 kmh 29.84 in1010.5 mb 0.00 in0.0 mm 0.00 in0.0 mm 0.00 in0.0 mm
02:59 AM 28.7°F-1.8°C 22.1°F-5.5°C 76% 11.0 mph NE17.7 kmh NE 19.0 mph30.6 kmh 29.84 in1010.5 mb 0.00 in0.0 mm 0.00 in0.0 mm 0.00 in0.0 mm
03:00 AM 28.7°F-1.8°C 22.1°F-5.5°C 76% 5.0 mph NE8.0 kmh NE 15.0 mph24.1 kmh 29.84 in1010.5 mb 0.00 in0.0 mm 0.00 in0.0 mm 0.00 in0.0 mm
03:01 AM 28.7°F-1.8°C 22.1°F-5.5°C 76% 7.0 mph N11.3 kmh N 15.0 mph24.1 kmh 29.84 in1010.5 mb 0.00 in0.0 mm 0.00 in0.0 mm 0.00 in0.0 mm
03:02 AM 28.7°F-1.8°C 22.1°F-5.5°C 76% 6.0 mph NE9.7 kmh NE 15.0 mph24.1 kmh 29.84 in1010.5 mb 0.00 in0.0 mm 0.00 in0.0 mm 0.00 in0.0 mm
03:03 AM 28.7°F-1.8°C 22.1°F-5.5°C 76% 11.0 mph NE17.7 kmh NE 15.0 mph24.1 kmh 29.84 in1010.5 mb 0.00 in0.0 mm 0.00 in0.0 mm 0.00 in0.0 mm
03:04 AM 28.7°F-1.8°C 22.1°F-5.5°C 76% 10.0 mph NE16.1 kmh NE 16.0 mph25.7 kmh 29.84 in1010.5 mb 0.00 in0.0 mm 0.00 in0.0 mm 0.00 in0.0 mm
03:05 AM 28.7°F-1.8°C 21.8°F-5.7°C 75% 7.0 mph NNE11.3 kmh NNE 16.0 mph25.7 kmh 29.84 in1010.5 mb 0.00 in0.0 mm 0.00 in0.0 mm 0.00 in0.0 mm
03:06 AM 28.7°F-1.8°C 22.1°F-5.5°C 76% 7.0 mph NE11.3 kmh NE 16.0 mph25.7 kmh 29.84 in1010.5 mb 0.00 in0.0 mm 0.00 in0.0 mm 0.00 in0.0 mm
03:07 AM 28.7°F-1.8°C 22.1°F-5.5°C 76% 10.0 mph NE16.1 kmh NE 16.0 mph25.7 kmh 29.84 in1010.5 mb 0.00 in0.0 mm 0.00 in0.0 mm 0.00 in0.0 mm
03:08 AM 28.7°F-1.8°C 22.1°F-5.5°C 76% 9.0 mph NNE14.5 kmh NNE 18.0 mph29.0 kmh 29.84 in1010.5 mb 0.00 in0.0 mm 0.00 in0.0 mm 0.00 in0.0 mm
03:09 AM 28.7°F-1.8°C 22.1°F-5.5°C 76% 11.0 mph ENE17.7 kmh ENE 18.0 mph29.0 kmh 29.84 in1010.5 mb 0.00 in0.0 mm 0.00 in0.0 mm 0.00 in0.0 mm
03:10 AM 28.7°F-1.8°C 22.1°F-5.5°C 76% 11.0 mph NE17.7 kmh NE 18.0 mph29.0 kmh 29.83 in1010.2 mb 0.00 in0.0 mm 0.00 in0.0 mm 0.00 in0.0 mm
03:11 AM 28.7°F-1.8°C 22.1°F-5.5°C 76% 8.0 mph NNE12.9 kmh NNE 18.0 mph29.0 kmh 29.84 in1010.5 mb 0.00 in0.0 mm 0.00 in0.0 mm 0.00 in0.0 mm
03:12 AM 28.7°F-1.8°C 22.1°F-5.5°C 76% 4.0 mph NNE6.4 kmh NNE 18.0 mph29.0 kmh 29.84 in1010.5 mb 0.00 in0.0 mm 0.00 in0.0 mm 0.00 in0.0 mm
03:13 AM 28.7°F-1.8°C 22.1°F-5.5°C 76% 8.0 mph NE12.9 kmh NE 18.0 mph29.0 kmh 29.84 in1010.5 mb 0.00 in0.0 mm 0.00 in0.0 mm 0.00 in0.0 mm
03:14 AM 28.7°F-1.8°C 22.1°F-5.5°C 76% 4.0 mph NNE6.4 kmh NNE 18.0 mph29.0 kmh 29.84 in1010.5 mb 0.00 in0.0 mm 0.00 in0.0 mm 0.00 in0.0 mm
03:15 AM 28.7°F-1.8°C 22.1°F-5.5°C 76% 4.0 mph NE6.4 kmh NE 18.0 mph29.0 kmh 29.84 in1010.5 mb 0.00 in0.0 mm 0.00 in0.0 mm 0.00 in0.0 mm
03:16 AM 28.7°F-1.8°C 21.8°F-5.7°C 75% 9.0 mph NNE14.5 kmh NNE 18.0 mph29.0 kmh 29.84 in1010.5 mb 0.00 in0.0 mm 0.00 in0.0 mm 0.00 in0.0 mm
03:17 AM 28.7°F-1.8°C 21.8°F-5.7°C 75% 10.0 mph E16.1 kmh E 18.0 mph29.0 kmh 29.84 in1010.5 mb 0.00 in0.0 mm 0.00 in0.0 mm 0.00 in0.0 mm
03:18 AM 28.7°F-1.8°C 22.1°F-5.5°C 76% 6.0 mph NE9.7 kmh NE 18.0 mph29.0 kmh 29.84 in1010.5 mb 0.00 in0.0 mm 0.00 in0.0 mm 0.00 in0.0 mm
03:19 AM 28.7°F-1.8°C 21.8°F-5.7°C 75% 8.0 mph NE12.9 kmh NE 18.0 mph29.0 kmh 29.84 in1010.5 mb 0.00 in0.0 mm 0.00 in0.0 mm 0.00 in0.0 mm
03:20 AM 28.7°F-1.8°C 21.8°F-5.7°C 75% 9.0 mph NE14.5 kmh NE 19.0 mph30.6 kmh 29.84 in1010.5 mb 0.00 in0.0 mm 0.00 in0.0 mm 0.00 in0.0 mm
03:21 AM 28.7°F-1.8°C 21.8°F-5.7°C 75% 5.0 mph NE8.0 kmh NE 19.0 mph30.6 kmh 29.84 in1010.5 mb 0.00 in0.0 mm 0.00 in0.0 mm 0.00 in0.0 mm
03:22 AM 28.7°F-1.8°C 22.1°F-5.5°C 76% 12.0 mph NE19.3 kmh NE 19.0 mph30.6 kmh 29.84 in1010.5 mb 0.00 in0.0 mm 0.00 in0.0 mm 0.00 in0.0 mm
03:23 AM 28.7°F-1.8°C 21.8°F-5.7°C 75% 9.0 mph ENE14.5 kmh ENE 19.0 mph30.6 kmh 29.84 in1010.5 mb 0.00 in0.0 mm 0.00 in0.0 mm 0.00 in0.0 mm
03:24 AM 28.7°F-1.8°C 21.8°F-5.7°C 75% 7.0 mph NNE11.3 kmh NNE 19.0 mph30.6 kmh 29.84 in1010.5 mb 0.00 in0.0 mm 0.00 in0.0 mm 0.00 in0.0 mm
03:25 AM 28.7°F-1.8°C 21.8°F-5.7°C 75% 9.0 mph E14.5 kmh E 19.0 mph30.6 kmh 29.84 in1010.5 mb 0.00 in0.0 mm 0.00 in0.0 mm 0.00 in0.0 mm
03:26 AM 28.7°F-1.8°C 21.8°F-5.7°C 75% 8.0 mph NE12.9 kmh NE 19.0 mph30.6 kmh 29.84 in1010.5 mb 0.00 in0.0 mm 0.00 in0.0 mm 0.00 in0.0 mm
03:27 AM 28.7°F-1.8°C 22.1°F-5.5°C 76% 10.0 mph NNE16.1 kmh NNE 19.0 mph30.6 kmh 29.84 in1010.5 mb 0.00 in0.0 mm 0.00 in0.0 mm 0.00 in0.0 mm
03:28 AM 28.7°F-1.8°C 21.8°F-5.7°C 75% 6.0 mph NE9.7 kmh NE 19.0 mph30.6 kmh 29.84 in1010.5 mb 0.00 in0.0 mm 0.00 in0.0 mm 0.00 in0.0 mm
03:29 AM 28.7°F-1.8°C 22.1°F-5.5°C 76% 10.0 mph ENE16.1 kmh ENE 19.0 mph30.6 kmh 29.84 in1010.5 mb 0.00 in0.0 mm 0.00 in0.0 mm 0.00 in0.0 mm
03:30 AM 28.7°F-1.8°C 22.1°F-5.5°C 76% 9.0 mph NE14.5 kmh NE 19.0 mph30.6 kmh 29.84 in1010.5 mb 0.00 in0.0 mm 0.00 in0.0 mm 0.00 in0.0 mm
03:31 AM 28.7°F-1.8°C 21.8°F-5.7°C 75% 9.0 mph NE14.5 kmh NE 19.0 mph30.6 kmh 29.84 in1010.5 mb 0.00 in0.0 mm 0.00 in0.0 mm 0.00 in0.0 mm
03:32 AM 28.7°F-1.8°C 21.8°F-5.7°C 75% 8.0 mph NNE12.9 kmh NNE 19.0 mph30.6 kmh 29.84 in1010.5 mb 0.00 in0.0 mm 0.00 in0.0 mm 0.00 in0.0 mm
03:33 AM 28.7°F-1.8°C 21.8°F-5.7°C 75% 8.0 mph NNE12.9 kmh NNE 19.0 mph30.6 kmh 29.84 in1010.5 mb 0.00 in0.0 mm 0.00 in0.0 mm 0.00 in0.0 mm
03:34 AM 28.7°F-1.8°C 22.1°F-5.5°C 76% 6.0 mph NE9.7 kmh NE 19.0 mph30.6 kmh 29.84 in1010.5 mb 0.00 in0.0 mm 0.00 in0.0 mm 0.00 in0.0 mm
03:35 AM 28.7°F-1.8°C 21.8°F-5.7°C 75% 8.0 mph NE12.9 kmh NE 19.0 mph30.6 kmh 29.84 in1010.5 mb 0.00 in0.0 mm 0.00 in0.0 mm 0.00 in0.0 mm
03:36 AM 28.7°F-1.8°C 21.8°F-5.7°C 75% 8.0 mph ENE12.9 kmh ENE 19.0 mph30.6 kmh 29.84 in1010.5 mb 0.00 in0.0 mm 0.00 in0.0 mm 0.00 in0.0 mm
03:37 AM 28.7°F-1.8°C 21.8°F-5.7°C 75% 7.0 mph NE11.3 kmh NE 19.0 mph30.6 kmh 29.84 in1010.5 mb 0.00 in0.0 mm 0.00 in0.0 mm 0.00 in0.0 mm
03:38 AM 28.7°F-1.8°C 21.8°F-5.7°C 75% 6.0 mph NE9.7 kmh NE 19.0 mph30.6 kmh 29.84 in1010.5 mb 0.00 in0.0 mm 0.00 in0.0 mm 0.00 in0.0 mm
03:39 AM 28.7°F-1.8°C 21.8°F-5.7°C 75% 4.0 mph NE6.4 kmh NE 19.0 mph30.6 kmh 29.84 in1010.5 mb 0.00 in0.0 mm 0.00 in0.0 mm 0.00 in0.0 mm
03:40 AM 28.7°F-1.8°C 22.1°F-5.5°C 76% 11.0 mph NE17.7 kmh NE 13.0 mph20.9 kmh 29.84 in1010.5 mb 0.00 in0.0 mm 0.00 in0.0 mm 0.00 in0.0 mm
03:41 AM 28.6°F-1.9°C 22.0°F-5.6°C 76% 6.0 mph NE9.7 kmh NE 13.0 mph20.9 kmh 29.84 in1010.5 mb 0.00 in0.0 mm 0.00 in0.0 mm 0.00 in0.0 mm
03:42 AM 28.6°F-1.9°C 21.7°F-5.7°C 75% 7.0 mph N11.3 kmh N 13.0 mph20.9 kmh 29.84 in1010.5 mb 0.00 in0.0 mm 0.00 in0.0 mm 0.00 in0.0 mm
03:43 AM 28.6°F-1.9°C 21.7°F-5.7°C 75% 5.0 mph NE8.0 kmh NE 13.0 mph20.9 kmh 29.84 in1010.5 mb 0.00 in0.0 mm 0.00 in0.0 mm 0.00 in0.0 mm
03:44 AM 28.6°F-1.9°C 22.0°F-5.6°C 76% 4.0 mph NE6.4 kmh NE 13.0 mph20.9 kmh 29.84 in1010.5 mb 0.00 in0.0 mm 0.00 in0.0 mm 0.00 in0.0 mm
03:45 AM 28.6°F-1.9°C 22.0°F-5.6°C 76% 13.0 mph ENE20.9 kmh ENE 13.0 mph20.9 kmh 29.84 in1010.5 mb 0.00 in0.0 mm 0.00 in0.0 mm 0.00 in0.0 mm
03:46 AM 28.6°F-1.9°C 22.0°F-5.6°C 76% 5.0 mph NE8.0 kmh NE 14.0 mph22.5 kmh 29.84 in1010.5 mb 0.00 in0.0 mm 0.00 in0.0 mm 0.00 in0.0 mm
03:47 AM 28.6°F-1.9°C 22.0°F-5.6°C 76% 7.0 mph NNE11.3 kmh NNE 14.0 mph22.5 kmh 29.84 in1010.5 mb 0.00 in0.0 mm 0.00 in0.0 mm 0.00 in0.0 mm
03:48 AM 28.6°F-1.9°C 22.0°F-5.6°C 76% 13.0 mph ENE20.9 kmh ENE 14.0 mph22.5 kmh 29.84 in1010.5 mb 0.00 in0.0 mm 0.00 in0.0 mm 0.00 in0.0 mm
03:49 AM 28.6°F-1.9°C 21.7°F-5.7°C 75% 7.0 mph NNE11.3 kmh NNE 15.0 mph24.1 kmh 29.84 in1010.5 mb 0.00 in0.0 mm 0.00 in0.0 mm 0.00 in0.0 mm
03:50 AM 28.6°F-1.9°C 22.0°F-5.6°C 76% 9.0 mph NE14.5 kmh NE 15.0 mph24.1 kmh 29.84 in1010.5 mb 0.00 in0.0 mm 0.00 in0.0 mm 0.00 in0.0 mm
03:51 AM 28.6°F-1.9°C 22.0°F-5.6°C 76% 9.0 mph NE14.5 kmh NE 15.0 mph24.1 kmh 29.84 in1010.5 mb 0.00 in0.0 mm 0.00 in0.0 mm 0.00 in0.0 mm
03:52 AM 28.6°F-1.9°C 21.7°F-5.7°C 75% 5.0 mph NE8.0 kmh NE 15.0 mph24.1 kmh 29.84 in1010.5 mb 0.00 in0.0 mm 0.00 in0.0 mm 0.00 in0.0 mm
03:53 AM 28.6°F-1.9°C 22.0°F-5.6°C 76% 11.0 mph NE17.7 kmh NE 15.0 mph24.1 kmh 29.84 in1010.5 mb 0.00 in0.0 mm 0.00 in0.0 mm 0.00 in0.0 mm
03:54 AM 28.6°F-1.9°C 21.7°F-5.7°C 75% 8.0 mph N12.9 kmh N 16.0 mph25.7 kmh 29.84 in1010.5 mb 0.00 in0.0 mm 0.00 in0.0 mm 0.00 in0.0 mm
03:55 AM 28.6°F-1.9°C 21.7°F-5.7°C 75% 7.0 mph NNE11.3 kmh NNE 17.0 mph27.4 kmh 29.84 in1010.5 mb 0.00 in0.0 mm 0.00 in0.0 mm 0.00 in0.0 mm
03:56 AM 28.7°F-1.8°C 21.8°F-5.7°C 75% 5.0 mph NE8.0 kmh NE 17.0 mph27.4 kmh 29.84 in1010.5 mb 0.00 in0.0 mm 0.00 in0.0 mm 0.00 in0.0 mm
03:57 AM 28.6°F-1.9°C 21.7°F-5.7°C 75% 5.0 mph NE8.0 kmh NE 17.0 mph27.4 kmh 29.85 in1010.8 mb 0.00 in0.0 mm 0.00 in0.0 mm 0.00 in0.0 mm
03:58 AM 28.6°F-1.9°C 22.0°F-5.6°C 76% 9.0 mph NE14.5 kmh NE 17.0 mph27.4 kmh 29.85 in1010.8 mb 0.00 in0.0 mm 0.00 in0.0 mm 0.00 in0.0 mm
03:59 AM 28.7°F-1.8°C 21.8°F-5.7°C 75% 8.0 mph NE12.9 kmh NE 17.0 mph27.4 kmh 29.85 in1010.8 mb 0.00 in0.0 mm 0.00 in0.0 mm 0.00 in0.0 mm
04:00 AM 28.6°F-1.9°C 22.0°F-5.6°C 76% 11.0 mph N17.7 kmh N 17.0 mph27.4 kmh 29.85 in1010.8 mb 0.00 in0.0 mm 0.00 in0.0 mm 0.00 in0.0 mm
04:01 AM 28.6°F-1.9°C 21.7°F-5.7°C 75% 10.0 mph 16.1 kmh 17.0 mph27.4 kmh 29.85 in1010.8 mb 0.00 in0.0 mm 0.00 in0.0 mm 0.00 in0.0 mm
04:02 AM 28.6°F-1.9°C 21.7°F-5.7°C 75% 9.0 mph ENE14.5 kmh ENE 17.0 mph27.4 kmh 29.85 in1010.8 mb 0.00 in0.0 mm 0.00 in0.0 mm 0.00 in0.0 mm
04:03 AM 28.6°F-1.9°C 22.0°F-5.6°C 76% 5.0 mph NE8.0 kmh NE 17.0 mph27.4 kmh 29.85 in1010.8 mb 0.00 in0.0 mm 0.00 in0.0 mm 0.00 in0.0 mm
04:04 AM 28.6°F-1.9°C 22.0°F-5.6°C 76% 8.0 mph NE12.9 kmh NE 17.0 mph27.4 kmh 29.85 in1010.8 mb 0.00 in0.0 mm 0.00 in0.0 mm 0.00 in0.0 mm
04:05 AM 28.6°F-1.9°C 22.0°F-5.6°C 76% 7.0 mph NNE11.3 kmh NNE 17.0 mph27.4 kmh 29.85 in1010.8 mb 0.00 in0.0 mm 0.00 in0.0 mm 0.00 in0.0 mm
04:06 AM 28.6°F-1.9°C 22.0°F-5.6°C 76% 7.0 mph NE11.3 kmh NE 17.0 mph27.4 kmh 29.85 in1010.8 mb 0.00 in0.0 mm 0.00 in0.0 mm 0.00 in0.0 mm
04:07 AM 28.6°F-1.9°C 21.7°F-5.7°C 75% 13.0 mph NE20.9 kmh NE 17.0 mph27.4 kmh 29.85 in1010.8 mb 0.00 in0.0 mm 0.00 in0.0 mm 0.00 in0.0 mm
04:08 AM 28.6°F-1.9°C 21.7°F-5.7°C 75% 11.0 mph NNE17.7 kmh NNE 17.0 mph27.4 kmh 29.85 in1010.8 mb 0.00 in0.0 mm 0.00 in0.0 mm 0.00 in0.0 mm
04:09 AM 28.6°F-1.9°C 21.7°F-5.7°C 75% 9.0 mph NE14.5 kmh NE 17.0 mph27.4 kmh 29.85 in1010.8 mb 0.00 in0.0 mm 0.00 in0.0 mm 0.00 in0.0 mm
04:10 AM 28.6°F-1.9°C 21.7°F-5.7°C 75% 9.0 mph N14.5 kmh N 17.0 mph27.4 kmh 29.85 in1010.8 mb 0.00 in0.0 mm 0.00 in0.0 mm 0.00 in0.0 mm
04:11 AM 28.6°F-1.9°C 22.0°F-5.6°C 76% 11.0 mph NNE17.7 kmh NNE 17.0 mph27.4 kmh 29.85 in1010.8 mb 0.00 in0.0 mm 0.00 in0.0 mm 0.00 in0.0 mm
04:12 AM 28.6°F-1.9°C 21.7°F-5.7°C 75% 11.0 mph NE17.7 kmh NE 17.0 mph27.4 kmh 29.85 in1010.8 mb 0.00 in0.0 mm 0.00 in0.0 mm 0.00 in0.0 mm
04:13 AM 28.6°F-1.9°C 22.0°F-5.6°C 76% 9.0 mph NE14.5 kmh NE 17.0 mph27.4 kmh 29.85 in1010.8 mb 0.00 in0.0 mm 0.00 in0.0 mm 0.00 in0.0 mm
04:14 AM 28.6°F-1.9°C 22.0°F-5.6°C 76% 10.0 mph ENE16.1 kmh ENE 17.0 mph27.4 kmh 29.85 in1010.8 mb 0.00 in0.0 mm 0.00 in0.0 mm 0.00 in0.0 mm
04:15 AM 28.6°F-1.9°C 22.0°F-5.6°C 76% 12.0 mph ENE19.3 kmh ENE 19.0 mph30.6 kmh 29.85 in1010.8 mb 0.00 in0.0 mm 0.00 in0.0 mm 0.00 in0.0 mm
04:16 AM 28.6°F-1.9°C 21.7°F-5.7°C 75% 9.0 mph NNE14.5 kmh NNE 19.0 mph30.6 kmh 29.85 in1010.8 mb 0.00 in0.0 mm 0.00 in0.0 mm 0.00 in0.0 mm
04:17 AM 28.6°F-1.9°C 21.7°F-5.7°C 75% 11.0 mph NE17.7 kmh NE 19.0 mph30.6 kmh 29.85 in1010.8 mb 0.00 in0.0 mm 0.00 in0.0 mm 0.00 in0.0 mm
04:18 AM 28.6°F-1.9°C 21.7°F-5.7°C 75% 9.0 mph NE14.5 kmh NE 19.0 mph30.6 kmh 29.85 in1010.8 mb 0.00 in0.0 mm 0.00 in0.0 mm 0.00 in0.0 mm
04:19 AM 28.6°F-1.9°C 21.7°F-5.7°C 75% 7.0 mph NE11.3 kmh NE 19.0 mph30.6 kmh 29.85 in1010.8 mb 0.00 in0.0 mm 0.00 in0.0 mm 0.00 in0.0 mm
04:20 AM 28.6°F-1.9°C 21.7°F-5.7°C 75% 10.0 mph NE16.1 kmh NE 19.0 mph30.6 kmh 29.85 in1010.8 mb 0.00 in0.0 mm 0.00 in0.0 mm 0.00 in0.0 mm
04:21 AM 28.6°F-1.9°C 21.7°F-5.7°C 75% 6.0 mph NE9.7 kmh NE 19.0 mph30.6 kmh 29.85 in1010.8 mb 0.00 in0.0 mm 0.00 in0.0 mm 0.00 in0.0 mm
04:22 AM 28.6°F-1.9°C 22.0°F-5.6°C 76% 5.0 mph NE8.0 kmh NE 19.0 mph30.6 kmh 29.85 in1010.8 mb 0.00 in0.0 mm 0.00 in0.0 mm 0.00 in0.0 mm
04:23 AM 28.6°F-1.9°C 22.0°F-5.6°C 76% 8.0 mph NE12.9 kmh NE 19.0 mph30.6 kmh 29.85 in1010.8 mb 0.00 in0.0 mm 0.00 in0.0 mm 0.00 in0.0 mm
04:24 AM 28.6°F-1.9°C 21.7°F-5.7°C 75% 4.0 mph NE6.4 kmh NE 19.0 mph30.6 kmh 29.85 in1010.8 mb 0.00 in0.0 mm 0.00 in0.0 mm 0.00 in0.0 mm
04:25 AM 28.6°F-1.9°C 21.7°F-5.7°C 75% 8.0 mph ENE12.9 kmh ENE 19.0 mph30.6 kmh 29.85 in1010.8 mb 0.00 in0.0 mm 0.00 in0.0 mm 0.00 in0.0 mm
04:26 AM 28.6°F-1.9°C 22.0°F-5.6°C 76% 5.0 mph ENE8.0 kmh ENE 19.0 mph30.6 kmh 29.85 in1010.8 mb 0.00 in0.0 mm 0.00 in0.0 mm 0.00 in0.0 mm
04:27 AM 28.5°F-1.9°C 21.9°F-5.6°C 76% 5.0 mph 8.0 kmh 19.0 mph30.6 kmh 29.85 in1010.8 mb 0.00 in0.0 mm 0.00 in0.0 mm 0.00 in0.0 mm
04:28 AM 28.5°F-1.9°C 21.9°F-5.6°C 76% 7.0 mph ESE11.3 kmh ESE 19.0 mph30.6 kmh 29.85 in1010.8 mb 0.00 in0.0 mm 0.00 in0.0 mm 0.00 in0.0 mm
04:29 AM 28.5°F-1.9°C 21.9°F-5.6°C 76% 4.0 mph NNE6.4 kmh NNE 19.0 mph30.6 kmh 29.85 in1010.8 mb 0.00 in0.0 mm 0.00 in0.0 mm 0.00 in0.0 mm
04:30 AM 28.5°F-1.9°C 21.9°F-5.6°C 76% 5.0 mph NE8.0 kmh NE 19.0 mph30.6 kmh 29.85 in1010.8 mb 0.00 in0.0 mm 0.00 in0.0 mm 0.00 in0.0 mm
04:31 AM 28.5°F-1.9°C 21.9°F-5.6°C 76% 9.0 mph ENE14.5 kmh ENE 19.0 mph30.6 kmh 29.85 in1010.8 mb 0.00 in0.0 mm 0.00 in0.0 mm 0.00 in0.0 mm
04:32 AM 28.5°F-1.9°C 21.9°F-5.6°C 76% 5.0 mph NE8.0 kmh NE 19.0 mph30.6 kmh 29.85 in1010.8 mb 0.00 in0.0 mm 0.00 in0.0 mm 0.00 in0.0 mm
04:33 AM 28.5°F-1.9°C 21.6°F-5.8°C 75% 6.0 mph N9.7 kmh N 19.0 mph30.6 kmh 29.85 in1010.8 mb 0.00 in0.0 mm 0.00 in0.0 mm 0.00 in0.0 mm
04:34 AM 28.5°F-1.9°C 21.6°F-5.8°C 75% 5.0 mph NE8.0 kmh NE 19.0 mph30.6 kmh 29.85 in1010.8 mb 0.00 in0.0 mm 0.00 in0.0 mm 0.00 in0.0 mm
04:35 AM 28.5°F-1.9°C 21.9°F-5.6°C 76% 5.0 mph N8.0 kmh N 12.0 mph19.3 kmh 29.85 in1010.8 mb 0.00 in0.0 mm 0.00 in0.0 mm 0.00 in0.0 mm
04:36 AM 28.5°F-1.9°C 21.9°F-5.6°C 76% 10.0 mph NNE16.1 kmh NNE 12.0 mph19.3 kmh 29.85 in1010.8 mb 0.00 in0.0 mm 0.00 in0.0 mm 0.00 in0.0 mm
04:37 AM 28.5°F-1.9°C 21.9°F-5.6°C 76% 7.0 mph NE11.3 kmh NE 12.0 mph19.3 kmh 29.85 in1010.8 mb 0.00 in0.0 mm 0.00 in0.0 mm 0.00 in0.0 mm
04:38 AM 28.5°F-1.9°C 21.9°F-5.6°C 76% 5.0 mph N8.0 kmh N 12.0 mph19.3 kmh 29.85 in1010.8 mb 0.00 in0.0 mm 0.00 in0.0 mm 0.00 in0.0 mm
04:39 AM 28.5°F-1.9°C 21.9°F-5.6°C 76% 5.0 mph N8.0 kmh N 12.0 mph19.3 kmh 29.85 in1010.8 mb 0.00 in0.0 mm 0.00 in0.0 mm 0.00 in0.0 mm
04:40 AM 28.5°F-1.9°C 21.9°F-5.6°C 76% 8.0 mph ENE12.9 kmh ENE 12.0 mph19.3 kmh 29.86 in1011.2 mb 0.00 in0.0 mm 0.00 in0.0 mm 0.00 in0.0 mm
04:41 AM 28.5°F-1.9°C 21.9°F-5.6°C 76% 5.0 mph NE8.0 kmh NE 12.0 mph19.3 kmh 29.85 in1010.8 mb 0.00 in0.0 mm 0.00 in0.0 mm 0.00 in0.0 mm
04:42 AM 28.5°F-1.9°C 21.9°F-5.6°C 76% 5.0 mph NE8.0 kmh NE 12.0 mph19.3 kmh 29.86 in1011.2 mb 0.00 in0.0 mm 0.00 in0.0 mm 0.00 in0.0 mm
04:43 AM 28.5°F-1.9°C 21.6°F-5.8°C 75% 3.0 mph ENE4.8 kmh ENE 12.0 mph19.3 kmh 29.86 in1011.2 mb 0.00 in0.0 mm 0.00 in0.0 mm 0.00 in0.0 mm
04:44 AM 28.5°F-1.9°C 21.9°F-5.6°C 76% 8.0 mph ENE12.9 kmh ENE 12.0 mph19.3 kmh 29.85 in1010.8 mb 0.00 in0.0 mm 0.00 in0.0 mm 0.00 in0.0 mm
04:45 AM 28.5°F-1.9°C 21.9°F-5.6°C 76% 6.0 mph NE9.7 kmh NE 12.0 mph19.3 kmh 29.85 in1010.8 mb 0.00 in0.0 mm 0.00 in0.0 mm 0.00 in0.0 mm
04:46 AM 28.5°F-1.9°C 21.9°F-5.6°C 76% 9.0 mph ENE14.5 kmh ENE 12.0 mph19.3 kmh 29.86 in1011.2 mb 0.00 in0.0 mm 0.00 in0.0 mm 0.00 in0.0 mm
04:47 AM 28.5°F-1.9°C 21.9°F-5.6°C 76% 11.0 mph ENE17.7 kmh ENE 12.0 mph19.3 kmh 29.86 in1011.2 mb 0.00 in0.0 mm 0.00 in0.0 mm 0.00 in0.0 mm
04:48 AM 28.5°F-1.9°C 21.6°F-5.8°C 75% 11.0 mph NE17.7 kmh NE 16.0 mph25.7 kmh 29.86 in1011.2 mb 0.00 in0.0 mm 0.00 in0.0 mm 0.00 in0.0 mm
04:49 AM 28.5°F-1.9°C 21.6°F-5.8°C 75% 7.0 mph NE11.3 kmh NE 17.0 mph27.4 kmh 29.86 in1011.2 mb 0.00 in0.0 mm 0.00 in0.0 mm 0.00 in0.0 mm
04:50 AM 28.5°F-1.9°C 21.6°F-5.8°C 75% 8.0 mph NE12.9 kmh NE 17.0 mph27.4 kmh 29.86 in1011.2 mb 0.00 in0.0 mm 0.00 in0.0 mm 0.00 in0.0 mm
04:51 AM 28.5°F-1.9°C 21.6°F-5.8°C 75% 9.0 mph N14.5 kmh N 17.0 mph27.4 kmh 29.86 in1011.2 mb 0.00 in0.0 mm 0.00 in0.0 mm 0.00 in0.0 mm
04:52 AM 28.5°F-1.9°C 21.6°F-5.8°C 75% 6.0 mph NNE9.7 kmh NNE 17.0 mph27.4 kmh 29.86 in1011.2 mb 0.00 in0.0 mm 0.00 in0.0 mm 0.00 in0.0 mm
04:53 AM 28.5°F-1.9°C 21.6°F-5.8°C 75% 4.0 mph NNE6.4 kmh NNE 17.0 mph27.4 kmh 29.86 in1011.2 mb 0.00 in0.0 mm 0.00 in0.0 mm 0.00 in0.0 mm
04:54 AM 28.5°F-1.9°C 21.6°F-5.8°C 75% 6.0 mph NNE9.7 kmh NNE 17.0 mph27.4 kmh 29.86 in1011.2 mb 0.00 in0.0 mm 0.00 in0.0 mm 0.00 in0.0 mm
04:55 AM 28.5°F-1.9°C 21.6°F-5.8°C 75% 4.0 mph NE6.4 kmh NE 17.0 mph27.4 kmh 29.86 in1011.2 mb 0.00 in0.0 mm 0.00 in0.0 mm 0.00 in0.0 mm
04:56 AM 28.5°F-1.9°C 21.6°F-5.8°C 75% 5.0 mph ENE8.0 kmh ENE 17.0 mph27.4 kmh 29.86 in1011.2 mb 0.00 in0.0 mm 0.00 in0.0 mm 0.00 in0.0 mm
04:57 AM 28.5°F-1.9°C 21.9°F-5.6°C 76% 6.0 mph NNE9.7 kmh NNE 17.0 mph27.4 kmh 29.86 in1011.2 mb 0.00 in0.0 mm 0.00 in0.0 mm 0.00 in0.0 mm
04:58 AM 28.5°F-1.9°C 21.6°F-5.8°C 75% 8.0 mph NE12.9 kmh NE 17.0 mph27.4 kmh 29.86 in1011.2 mb 0.00 in0.0 mm 0.00 in0.0 mm 0.00 in0.0 mm
04:59 AM 28.5°F-1.9°C 21.6°F-5.8°C 75% 3.0 mph NE4.8 kmh NE 17.0 mph27.4 kmh 29.86 in1011.2 mb 0.00 in0.0 mm 0.00 in0.0 mm 0.00 in0.0 mm
05:00 AM 28.4°F-2.0°C 21.5°F-5.8°C 75% 3.0 mph N4.8 kmh N 17.0 mph27.4 kmh 29.86 in1011.2 mb 0.00 in0.0 mm 0.00 in0.0 mm 0.00 in0.0 mm
05:01 AM 28.4°F-2.0°C 21.5°F-5.8°C 75% 5.0 mph NE8.0 kmh NE 17.0 mph27.4 kmh 29.86 in1011.2 mb 0.00 in0.0 mm 0.00 in0.0 mm 0.00 in0.0 mm
05:02 AM 28.4°F-2.0°C 21.5°F-5.8°C 75% 8.0 mph NE12.9 kmh NE 17.0 mph27.4 kmh 29.86 in1011.2 mb 0.00 in0.0 mm 0.00 in0.0 mm 0.00 in0.0 mm
05:03 AM 28.4°F-2.0°C 21.5°F-5.8°C 75% 8.0 mph NE12.9 kmh NE 17.0 mph27.4 kmh 29.86 in1011.2 mb 0.00 in0.0 mm 0.00 in0.0 mm 0.00 in0.0 mm
05:04 AM 28.4°F-2.0°C 21.5°F-5.8°C 75% 5.0 mph NNE8.0 kmh NNE 17.0 mph27.4 kmh 29.86 in1011.2 mb 0.00 in0.0 mm 0.00 in0.0 mm 0.00 in0.0 mm
05:05 AM 28.4°F-2.0°C 21.5°F-5.8°C 75% 6.0 mph NNE9.7 kmh NNE 17.0 mph27.4 kmh 29.86 in1011.2 mb 0.00 in0.0 mm 0.00 in0.0 mm 0.00 in0.0 mm
05:06 AM 28.4°F-2.0°C 21.5°F-5.8°C 75% 5.0 mph NE8.0 kmh NE 17.0 mph27.4 kmh 29.86 in1011.2 mb 0.00 in0.0 mm 0.00 in0.0 mm 0.00 in0.0 mm
05:07 AM 28.4°F-2.0°C 21.5°F-5.8°C 75% 3.0 mph NE4.8 kmh NE 17.0 mph27.4 kmh 29.86 in1011.2 mb 0.00 in0.0 mm 0.00 in0.0 mm 0.00 in0.0 mm
05:08 AM 28.4°F-2.0°C 21.8°F-5.7°C 76% 5.0 mph N8.0 kmh N 17.0 mph27.4 kmh 29.86 in1011.2 mb 0.00 in0.0 mm 0.00 in0.0 mm 0.00 in0.0 mm
05:09 AM 28.4°F-2.0°C 21.8°F-5.7°C 76% 8.0 mph NNE12.9 kmh NNE 11.0 mph17.7 kmh 29.86 in1011.2 mb 0.00 in0.0 mm 0.00 in0.0 mm 0.00 in0.0 mm
05:10 AM 28.4°F-2.0°C 21.5°F-5.8°C 75% 5.0 mph NE8.0 kmh NE 15.0 mph24.1 kmh 29.86 in1011.2 mb 0.00 in0.0 mm 0.00 in0.0 mm 0.00 in0.0 mm
05:11 AM 28.4°F-2.0°C 21.8°F-5.7°C 76% 5.0 mph NE8.0 kmh NE 15.0 mph24.1 kmh 29.86 in1011.2 mb 0.00 in0.0 mm 0.00 in0.0 mm 0.00 in0.0 mm
05:12 AM 28.4°F-2.0°C 21.8°F-5.7°C 76% 4.0 mph NE6.4 kmh NE 15.0 mph24.1 kmh 29.86 in1011.2 mb 0.00 in0.0 mm 0.00 in0.0 mm 0.00 in0.0 mm
05:13 AM 28.4°F-2.0°C 21.5°F-5.8°C 75% 5.0 mph NE8.0 kmh NE 15.0 mph24.1 kmh 29.86 in1011.2 mb 0.00 in0.0 mm 0.00 in0.0 mm 0.00 in0.0 mm
05:14 AM 28.4°F-2.0°C 21.5°F-5.8°C 75% 7.0 mph NE11.3 kmh NE 15.0 mph24.1 kmh 29.86 in1011.2 mb 0.00 in0.0 mm 0.00 in0.0 mm 0.00 in0.0 mm
05:15 AM 28.3°F-2.1°C 21.7°F-5.7°C 76% 8.0 mph NE12.9 kmh NE 15.0 mph24.1 kmh 29.86 in1011.2 mb 0.00 in0.0 mm 0.00 in0.0 mm 0.00 in0.0 mm
05:16 AM 28.4°F-2.0°C 21.5°F-5.8°C 75% 8.0 mph NE12.9 kmh NE 15.0 mph24.1 kmh 29.86 in1011.2 mb 0.00 in0.0 mm 0.00 in0.0 mm 0.00 in0.0 mm
05:17 AM 28.4°F-2.0°C 21.5°F-5.8°C 75% 7.0 mph NNE11.3 kmh NNE 15.0 mph24.1 kmh 29.86 in1011.2 mb 0.00 in0.0 mm 0.00 in0.0 mm 0.00 in0.0 mm
05:18 AM 28.3°F-2.1°C 21.4°F-5.9°C 75% 6.0 mph NE9.7 kmh NE 15.0 mph24.1 kmh 29.86 in1011.2 mb 0.00 in0.0 mm 0.00 in0.0 mm 0.00 in0.0 mm
05:19 AM 28.4°F-2.0°C 21.5°F-5.8°C 75% 4.0 mph NE6.4 kmh NE 15.0 mph24.1 kmh 29.86 in1011.2 mb 0.00 in0.0 mm 0.00 in0.0 mm 0.00 in0.0 mm
05:20 AM 28.4°F-2.0°C 21.5°F-5.8°C 75% 4.0 mph NE6.4 kmh NE 15.0 mph24.1 kmh 29.86 in1011.2 mb 0.00 in0.0 mm 0.00 in0.0 mm 0.00 in0.0 mm
05:21 AM 28.4°F-2.0°C 21.5°F-5.8°C 75% 8.0 mph ENE12.9 kmh ENE 15.0 mph24.1 kmh 29.86 in1011.2 mb 0.00 in0.0 mm 0.00 in0.0 mm 0.00 in0.0 mm
05:22 AM 28.4°F-2.0°C 21.5°F-5.8°C 75% 5.0 mph NE8.0 kmh NE 15.0 mph24.1 kmh 29.86 in1011.2 mb 0.00 in0.0 mm 0.00 in0.0 mm 0.00 in0.0 mm
05:23 AM 28.4°F-2.0°C 21.5°F-5.8°C 75% 9.0 mph NNE14.5 kmh NNE 15.0 mph24.1 kmh 29.86 in1011.2 mb 0.00 in0.0 mm 0.00 in0.0 mm 0.00 in0.0 mm
05:24 AM 28.3°F-2.1°C 21.4°F-5.9°C 75% 7.0 mph NNE11.3 kmh NNE 15.0 mph24.1 kmh 29.86 in1011.2 mb 0.00 in0.0 mm 0.00 in0.0 mm 0.00 in0.0 mm
05:25 AM 28.4°F-2.0°C 21.5°F-5.8°C 75% 10.0 mph ENE16.1 kmh ENE 15.0 mph24.1 kmh 29.86 in1011.2 mb 0.00 in0.0 mm 0.00 in0.0 mm 0.00 in0.0 mm
05:26 AM 28.3°F-2.1°C 21.4°F-5.9°C 75% 9.0 mph NE14.5 kmh NE 15.0 mph24.1 kmh 29.86 in1011.2 mb 0.00 in0.0 mm 0.00 in0.0 mm 0.00 in0.0 mm
05:27 AM 28.4°F-2.0°C 21.8°F-5.7°C 76% 10.0 mph NNE16.1 kmh NNE 15.0 mph24.1 kmh 29.86 in1011.2 mb 0.00 in0.0 mm 0.00 in0.0 mm 0.00 in0.0 mm
05:28 AM 28.3°F-2.1°C 21.7°F-5.7°C 76% 6.0 mph NE9.7 kmh NE 15.0 mph24.1 kmh 29.86 in1011.2 mb 0.00 in0.0 mm 0.00 in0.0 mm 0.00 in0.0 mm
05:29 AM 28.3°F-2.1°C 21.7°F-5.7°C 76% 10.0 mph ENE16.1 kmh ENE 15.0 mph24.1 kmh 29.86 in1011.2 mb 0.00 in0.0 mm 0.00 in0.0 mm 0.00 in0.0 mm
05:30 AM 28.3°F-2.1°C 21.7°F-5.7°C 76% 8.0 mph NE12.9 kmh NE 14.0 mph22.5 kmh 29.86 in1011.2 mb 0.00 in0.0 mm 0.00 in0.0 mm 0.00 in0.0 mm
05:31 AM 28.3°F-2.1°C 21.7°F-5.7°C 76% 8.0 mph NE12.9 kmh NE 16.0 mph25.7 kmh 29.86 in1011.2 mb 0.00 in0.0 mm 0.00 in0.0 mm 0.00 in0.0 mm
05:32 AM 28.3°F-2.1°C 21.7°F-5.7°C 76% 7.0 mph NE11.3 kmh NE 16.0 mph25.7 kmh 29.86 in1011.2 mb 0.00 in0.0 mm 0.00 in0.0 mm 0.00 in0.0 mm
05:33 AM 28.3°F-2.1°C 22.0°F-5.6°C 77% 11.0 mph NE17.7 kmh NE 16.0 mph25.7 kmh 29.86 in1011.2 mb 0.00 in0.0 mm 0.00 in0.0 mm 0.00 in0.0 mm
05:34 AM 28.3°F-2.1°C 22.0°F-5.6°C 77% 7.0 mph NE11.3 kmh NE 16.0 mph25.7 kmh 29.86 in1011.2 mb 0.00 in0.0 mm 0.00 in0.0 mm 0.00 in0.0 mm
05:35 AM 28.3°F-2.1°C 22.0°F-5.6°C 77% 10.0 mph NE16.1 kmh NE 16.0 mph25.7 kmh 29.87 in1011.5 mb 0.00 in0.0 mm 0.00 in0.0 mm 0.00 in0.0 mm
05:36 AM 28.3°F-2.1°C 22.0°F-5.6°C 77% 9.0 mph NE14.5 kmh NE 16.0 mph25.7 kmh 29.86 in1011.2 mb 0.00 in0.0 mm 0.00 in0.0 mm 0.00 in0.0 mm
05:37 AM 28.2°F-2.1°C 21.9°F-5.6°C 77% 7.0 mph NE11.3 kmh NE 16.0 mph25.7 kmh 29.87 in1011.5 mb 0.00 in0.0 mm 0.00 in0.0 mm 0.00 in0.0 mm
05:38 AM 28.2°F-2.1°C 21.9°F-5.6°C 77% 4.0 mph NNE6.4 kmh NNE 16.0 mph25.7 kmh 29.87 in1011.5 mb 0.00 in0.0 mm 0.00 in0.0 mm 0.00 in0.0 mm
05:39 AM 28.2°F-2.1°C 22.2°F-5.4°C 78% 5.0 mph NE8.0 kmh NE 16.0 mph25.7 kmh 29.87 in1011.5 mb 0.00 in0.0 mm 0.00 in0.0 mm 0.00 in0.0 mm
05:40 AM 28.2°F-2.1°C 21.9°F-5.6°C 77% 9.0 mph NE14.5 kmh NE 16.0 mph25.7 kmh 29.86 in1011.2 mb 0.00 in0.0 mm 0.00 in0.0 mm 0.00 in0.0 mm
05:41 AM 28.2°F-2.1°C 21.9°F-5.6°C 77% 9.0 mph NE14.5 kmh NE 16.0 mph25.7 kmh 29.87 in1011.5 mb 0.00 in0.0 mm 0.00 in0.0 mm 0.00 in0.0 mm
05:42 AM 28.2°F-2.1°C 21.9°F-5.6°C 77% 8.0 mph NNE12.9 kmh NNE 16.0 mph25.7 kmh 29.86 in1011.2 mb 0.00 in0.0 mm 0.00 in0.0 mm 0.00 in0.0 mm
05:43 AM 28.1°F-2.2°C 21.8°F-5.7°C 77% 13.0 mph NNE20.9 kmh NNE 16.0 mph25.7 kmh 29.87 in1011.5 mb 0.00 in0.0 mm 0.00 in0.0 mm 0.00 in0.0 mm
05:44 AM 28.1°F-2.2°C 21.8°F-5.7°C 77% 12.0 mph NE19.3 kmh NE 16.0 mph25.7 kmh 29.87 in1011.5 mb 0.00 in0.0 mm 0.00 in0.0 mm 0.00 in0.0 mm
05:45 AM 28.2°F-2.1°C 21.9°F-5.6°C 77% 5.0 mph NE8.0 kmh NE 16.0 mph25.7 kmh 29.87 in1011.5 mb 0.00 in0.0 mm 0.00 in0.0 mm 0.00 in0.0 mm
05:46 AM 28.1°F-2.2°C 21.5°F-5.8°C 76% 6.0 mph NE9.7 kmh NE 16.0 mph25.7 kmh 29.87 in1011.5 mb 0.00 in0.0 mm 0.00 in0.0 mm 0.00 in0.0 mm
05:47 AM 28.2°F-2.1°C 21.6°F-5.8°C 76% 3.0 mph NNE4.8 kmh NNE 16.0 mph25.7 kmh 29.87 in1011.5 mb 0.00 in0.0 mm 0.00 in0.0 mm 0.00 in0.0 mm
05:48 AM 28.2°F-2.1°C 21.6°F-5.8°C 76% 5.0 mph NE8.0 kmh NE 16.0 mph25.7 kmh 29.87 in1011.5 mb 0.00 in0.0 mm 0.00 in0.0 mm 0.00 in0.0 mm
05:49 AM 28.1°F-2.2°C 21.5°F-5.8°C 76% 11.0 mph NE17.7 kmh NE 16.0 mph25.7 kmh 29.87 in1011.5 mb 0.00 in0.0 mm 0.00 in0.0 mm 0.00 in0.0 mm
05:50 AM 28.2°F-2.1°C 21.6°F-5.8°C 76% 7.0 mph NNE11.3 kmh NNE 16.0 mph25.7 kmh 29.87 in1011.5 mb 0.00 in0.0 mm 0.00 in0.0 mm 0.00 in0.0 mm
05:51 AM 28.2°F-2.1°C 21.6°F-5.8°C 76% 10.0 mph ENE16.1 kmh ENE 16.0 mph25.7 kmh 29.87 in1011.5 mb 0.00 in0.0 mm 0.00 in0.0 mm 0.00 in0.0 mm
05:52 AM 28.2°F-2.1°C 21.6°F-5.8°C 76% 11.0 mph NE17.7 kmh NE 16.0 mph25.7 kmh 29.87 in1011.5 mb 0.00 in0.0 mm 0.00 in0.0 mm 0.00 in0.0 mm
05:53 AM 28.2°F-2.1°C 21.6°F-5.8°C 76% 12.0 mph ENE19.3 kmh ENE 16.0 mph25.7 kmh 29.87 in1011.5 mb 0.00 in0.0 mm 0.00 in0.0 mm 0.00 in0.0 mm
05:54 AM 28.2°F-2.1°C 21.6°F-5.8°C 76% 10.0 mph NE16.1 kmh NE 16.0 mph25.7 kmh 29.87 in1011.5 mb 0.00 in0.0 mm 0.00 in0.0 mm 0.00 in0.0 mm
05:55 AM 28.2°F-2.1°C 21.6°F-5.8°C 76% 8.0 mph NE12.9 kmh NE 16.0 mph25.7 kmh 29.87 in1011.5 mb 0.00 in0.0 mm 0.00 in0.0 mm 0.00 in0.0 mm
05:56 AM 28.2°F-2.1°C 21.6°F-5.8°C 76% 6.0 mph NE9.7 kmh NE 16.0 mph25.7 kmh 29.87 in1011.5 mb 0.00 in0.0 mm 0.00 in0.0 mm 0.00 in0.0 mm
05:57 AM 28.2°F-2.1°C 21.6°F-5.8°C 76% 7.0 mph NE11.3 kmh NE 16.0 mph25.7 kmh 29.87 in1011.5 mb 0.00 in0.0 mm 0.00 in0.0 mm 0.00 in0.0 mm
05:58 AM 28.3°F-2.1°C 21.7°F-5.7°C 76% 6.0 mph NE9.7 kmh NE 16.0 mph25.7 kmh 29.87 in1011.5 mb 0.00 in0.0 mm 0.00 in0.0 mm 0.00 in0.0 mm
05:59 AM 28.2°F-2.1°C 21.6°F-5.8°C 76% 3.0 mph NE4.8 kmh NE 16.0 mph25.7 kmh 29.87 in1011.5 mb 0.00 in0.0 mm 0.00 in0.0 mm 0.00 in0.0 mm
06:00 AM 28.2°F-2.1°C 21.6°F-5.8°C 76% 6.0 mph NNE9.7 kmh NNE 16.0 mph25.7 kmh 29.87 in1011.5 mb 0.00 in0.0 mm 0.00 in0.0 mm 0.00 in0.0 mm
06:01 AM 28.2°F-2.1°C 21.6°F-5.8°C 76% 5.0 mph NE8.0 kmh NE 13.0 mph20.9 kmh 29.87 in1011.5 mb 0.00 in0.0 mm 0.00 in0.0 mm 0.00 in0.0 mm
06:02 AM 28.2°F-2.1°C 21.6°F-5.8°C 76% 7.0 mph ENE11.3 kmh ENE 13.0 mph20.9 kmh 29.87 in1011.5 mb 0.00 in0.0 mm 0.00 in0.0 mm 0.00 in0.0 mm
06:03 AM 28.2°F-2.1°C 21.6°F-5.8°C 76% 7.0 mph ENE11.3 kmh ENE 13.0 mph20.9 kmh 29.87 in1011.5 mb 0.00 in0.0 mm 0.00 in0.0 mm 0.00 in0.0 mm
06:04 AM 28.2°F-2.1°C 21.6°F-5.8°C 76% 9.0 mph NE14.5 kmh NE 13.0 mph20.9 kmh 29.87 in1011.5 mb 0.00 in0.0 mm 0.00 in0.0 mm 0.00 in0.0 mm
06:05 AM 28.2°F-2.1°C 21.3°F-5.9°C 75% 8.0 mph ENE12.9 kmh ENE 13.0 mph20.9 kmh 29.87 in1011.5 mb 0.00 in0.0 mm 0.00 in0.0 mm 0.00 in0.0 mm
06:06 AM 28.2°F-2.1°C 21.6°F-5.8°C 76% 5.0 mph ENE8.0 kmh ENE 13.0 mph20.9 kmh 29.87 in1011.5 mb 0.00 in0.0 mm 0.00 in0.0 mm 0.00 in0.0 mm
06:07 AM 28.2°F-2.1°C 21.3°F-5.9°C 75% 6.0 mph NE9.7 kmh NE 13.0 mph20.9 kmh 29.88 in1011.9 mb 0.00 in0.0 mm 0.00 in0.0 mm 0.00 in0.0 mm
06:08 AM 28.2°F-2.1°C 21.6°F-5.8°C 76% 6.0 mph NNE9.7 kmh NNE 13.0 mph20.9 kmh 29.88 in1011.9 mb 0.00 in0.0 mm 0.00 in0.0 mm 0.00 in0.0 mm
06:09 AM 28.3°F-2.1°C 21.4°F-5.9°C 75% 6.0 mph NE9.7 kmh NE 13.0 mph20.9 kmh 29.88 in1011.9 mb 0.00 in0.0 mm 0.00 in0.0 mm 0.00 in0.0 mm
06:10 AM 28.2°F-2.1°C 21.6°F-5.8°C 76% 5.0 mph NE8.0 kmh NE 13.0 mph20.9 kmh 29.88 in1011.9 mb 0.00 in0.0 mm 0.00 in0.0 mm 0.00 in0.0 mm
06:11 AM 28.2°F-2.1°C 21.6°F-5.8°C 76% 10.0 mph NE16.1 kmh NE 13.0 mph20.9 kmh 29.88 in1011.9 mb 0.00 in0.0 mm 0.00 in0.0 mm 0.00 in0.0 mm
06:12 AM 28.2°F-2.1°C 21.6°F-5.8°C 76% 5.0 mph NNE8.0 kmh NNE 13.0 mph20.9 kmh 29.88 in1011.9 mb 0.00 in0.0 mm 0.00 in0.0 mm 0.00 in0.0 mm
06:13 AM 28.2°F-2.1°C 21.6°F-5.8°C 76% 7.0 mph N11.3 kmh N 13.0 mph20.9 kmh 29.88 in1011.9 mb 0.00 in0.0 mm 0.00 in0.0 mm 0.00 in0.0 mm
06:14 AM 28.2°F-2.1°C 21.6°F-5.8°C 76% 7.0 mph ENE11.3 kmh ENE 13.0 mph20.9 kmh 29.88 in1011.9 mb 0.00 in0.0 mm 0.00 in0.0 mm 0.00 in0.0 mm
06:15 AM 28.2°F-2.1°C 21.6°F-5.8°C 76% 5.0 mph NE8.0 kmh NE 13.0 mph20.9 kmh 29.88 in1011.9 mb 0.00 in0.0 mm 0.00 in0.0 mm 0.00 in0.0 mm
06:16 AM 28.2°F-2.1°C 21.6°F-5.8°C 76% 11.0 mph NE17.7 kmh NE 13.0 mph20.9 kmh 29.88 in1011.9 mb 0.00 in0.0 mm 0.00 in0.0 mm 0.00 in0.0 mm
06:17 AM 28.2°F-2.1°C 21.3°F-5.9°C 75% 3.0 mph NE4.8 kmh NE 13.0 mph20.9 kmh 29.88 in1011.9 mb 0.00 in0.0 mm 0.00 in0.0 mm 0.00 in0.0 mm
06:18 AM 28.2°F-2.1°C 21.6°F-5.8°C 76% 4.0 mph NE6.4 kmh NE 13.0 mph20.9 kmh 29.88 in1011.9 mb 0.00 in0.0 mm 0.00 in0.0 mm 0.00 in0.0 mm
06:19 AM 28.2°F-2.1°C 21.6°F-5.8°C 76% 5.0 mph NE8.0 kmh NE 13.0 mph20.9 kmh 29.88 in1011.9 mb 0.00 in0.0 mm 0.00 in0.0 mm 0.00 in0.0 mm
06:20 AM 28.2°F-2.1°C 21.6°F-5.8°C 76% 4.0 mph NE6.4 kmh NE 13.0 mph20.9 kmh 29.88 in1011.9 mb 0.00 in0.0 mm 0.00 in0.0 mm 0.00 in0.0 mm
06:21 AM 28.2°F-2.1°C 21.3°F-5.9°C 75% 5.0 mph NNE8.0 kmh NNE 11.0 mph17.7 kmh 29.88 in1011.9 mb 0.00 in0.0 mm 0.00 in0.0 mm 0.00 in0.0 mm
06:22 AM 28.2°F-2.1°C 21.6°F-5.8°C 76% 8.0 mph NNE12.9 kmh NNE 11.0 mph17.7 kmh 29.88 in1011.9 mb 0.00 in0.0 mm 0.00 in0.0 mm 0.00 in0.0 mm
06:23 AM 28.2°F-2.1°C 21.6°F-5.8°C 76% 7.0 mph ENE11.3 kmh ENE 11.0 mph17.7 kmh 29.88 in1011.9 mb 0.00 in0.0 mm 0.00 in0.0 mm 0.00 in0.0 mm
06:24 AM 28.2°F-2.1°C 21.6°F-5.8°C 76% 6.0 mph NE9.7 kmh NE 11.0 mph17.7 kmh 29.88 in1011.9 mb 0.00 in0.0 mm 0.00 in0.0 mm 0.00 in0.0 mm
06:25 AM 28.2°F-2.1°C 21.6°F-5.8°C 76% 5.0 mph NE8.0 kmh NE 11.0 mph17.7 kmh 29.88 in1011.9 mb 0.00 in0.0 mm 0.00 in0.0 mm 0.00 in0.0 mm
06:26 AM 28.2°F-2.1°C 21.6°F-5.8°C 76% 7.0 mph NNE11.3 kmh NNE 11.0 mph17.7 kmh 29.88 in1011.9 mb 0.00 in0.0 mm 0.00 in0.0 mm 0.00 in0.0 mm
06:27 AM 28.2°F-2.1°C 21.6°F-5.8°C 76% 7.0 mph NNE11.3 kmh NNE 11.0 mph17.7 kmh 29.88 in1011.9 mb 0.00 in0.0 mm 0.00 in0.0 mm 0.00 in0.0 mm
06:28 AM 28.2°F-2.1°C 21.3°F-5.9°C 75% 3.0 mph NE4.8 kmh NE 11.0 mph17.7 kmh 29.88 in1011.9 mb 0.00 in0.0 mm 0.00 in0.0 mm 0.00 in0.0 mm
06:29 AM 28.2°F-2.1°C 21.6°F-5.8°C 76% 4.0 mph NE6.4 kmh NE 11.0 mph17.7 kmh 29.88 in1011.9 mb 0.00 in0.0 mm 0.00 in0.0 mm 0.00 in0.0 mm
06:30 AM 28.2°F-2.1°C 21.6°F-5.8°C 76% 7.0 mph NE11.3 kmh NE 11.0 mph17.7 kmh 29.88 in1011.9 mb 0.00 in0.0 mm 0.00 in0.0 mm 0.00 in0.0 mm
06:31 AM 28.2°F-2.1°C 21.6°F-5.8°C 76% 4.0 mph NE6.4 kmh NE 10.0 mph16.1 kmh 29.88 in1011.9 mb 0.00 in0.0 mm 0.00 in0.0 mm 0.00 in0.0 mm
06:32 AM 28.2°F-2.1°C 21.3°F-5.9°C 75% 7.0 mph NNE11.3 kmh NNE 10.0 mph16.1 kmh 29.88 in1011.9 mb 0.00 in0.0 mm 0.00 in0.0 mm 0.00 in0.0 mm
06:33 AM 28.2°F-2.1°C 21.3°F-5.9°C 75% 6.0 mph NE9.7 kmh NE 10.0 mph16.1 kmh 29.88 in1011.9 mb 0.00 in0.0 mm 0.00 in0.0 mm 0.00 in0.0 mm
06:34 AM 28.2°F-2.1°C 21.3°F-5.9°C 75% 6.0 mph NE9.7 kmh NE 12.0 mph19.3 kmh 29.88 in1011.9 mb 0.00 in0.0 mm 0.00 in0.0 mm 0.00 in0.0 mm
06:35 AM 28.2°F-2.1°C 21.3°F-5.9°C 75% 9.0 mph NNE14.5 kmh NNE 12.0 mph19.3 kmh 29.89 in1012.2 mb 0.00 in0.0 mm 0.00 in0.0 mm 0.00 in0.0 mm
06:36 AM 28.2°F-2.1°C 21.3°F-5.9°C 75% 4.0 mph ENE6.4 kmh ENE 12.0 mph19.3 kmh 29.89 in1012.2 mb 0.00 in0.0 mm 0.00 in0.0 mm 0.00 in0.0 mm
06:37 AM 28.2°F-2.1°C 21.3°F-5.9°C 75% 3.0 mph NE4.8 kmh NE 12.0 mph19.3 kmh 29.89 in1012.2 mb 0.00 in0.0 mm 0.00 in0.0 mm 0.00 in0.0 mm
06:38 AM 28.2°F-2.1°C 21.6°F-5.8°C 76% 6.0 mph NNE9.7 kmh NNE 12.0 mph19.3 kmh 29.89 in1012.2 mb 0.00 in0.0 mm 0.00 in0.0 mm 0.00 in0.0 mm
06:39 AM 28.2°F-2.1°C 21.6°F-5.8°C 76% 6.0 mph NNE9.7 kmh NNE 12.0 mph19.3 kmh 29.89 in1012.2 mb 0.00 in0.0 mm 0.00 in0.0 mm 0.00 in0.0 mm
06:40 AM 28.2°F-2.1°C 21.6°F-5.8°C 76% 3.0 mph ENE4.8 kmh ENE 12.0 mph19.3 kmh 29.89 in1012.2 mb 0.00 in0.0 mm 0.00 in0.0 mm 0.00 in0.0 mm
06:41 AM 28.2°F-2.1°C 21.6°F-5.8°C 76% 4.0 mph ENE6.4 kmh ENE 12.0 mph19.3 kmh 29.89 in1012.2 mb 0.00 in0.0 mm 0.00 in0.0 mm 0.00 in0.0 mm
06:42 AM 28.2°F-2.1°C 21.6°F-5.8°C 76% 8.0 mph NE12.9 kmh NE 12.0 mph19.3 kmh 29.89 in1012.2 mb 0.00 in0.0 mm 0.00 in0.0 mm 0.00 in0.0 mm
06:43 AM 28.1°F-2.2°C 21.5°F-5.8°C 76% 7.0 mph NNE11.3 kmh NNE 13.0 mph20.9 kmh 29.89 in1012.2 mb 0.00 in0.0 mm 0.00 in0.0 mm 0.00 in0.0 mm
06:44 AM 28.2°F-2.1°C 21.6°F-5.8°C 76% 7.0 mph ENE11.3 kmh ENE 13.0 mph20.9 kmh 29.89 in1012.2 mb 0.00 in0.0 mm 0.00 in0.0 mm 0.00 in0.0 mm
06:45 AM 28.2°F-2.1°C 21.3°F-5.9°C 75% 6.0 mph NNE9.7 kmh NNE 13.0 mph20.9 kmh 29.89 in1012.2 mb 0.00 in0.0 mm 0.00 in0.0 mm 0.00 in0.0 mm
06:46 AM 28.2°F-2.1°C 21.3°F-5.9°C 75% 9.0 mph NE14.5 kmh NE 13.0 mph20.9 kmh 29.89 in1012.2 mb 0.00 in0.0 mm 0.00 in0.0 mm 0.00 in0.0 mm
06:47 AM 28.2°F-2.1°C 21.3°F-5.9°C 75% 11.0 mph N17.7 kmh N 13.0 mph20.9 kmh 29.90 in1012.5 mb 0.00 in0.0 mm 0.00 in0.0 mm 0.00 in0.0 mm
06:48 AM 28.2°F-2.1°C 21.3°F-5.9°C 75% 3.0 mph NNE4.8 kmh NNE 13.0 mph20.9 kmh 29.89 in1012.2 mb 0.00 in0.0 mm 0.00 in0.0 mm 0.00 in0.0 mm
06:49 AM 28.2°F-2.1°C 21.3°F-5.9°C 75% 5.0 mph NE8.0 kmh NE 13.0 mph20.9 kmh 29.89 in1012.2 mb 0.00 in0.0 mm 0.00 in0.0 mm 0.00 in0.0 mm
06:50 AM 28.2°F-2.1°C 21.6°F-5.8°C 76% 9.0 mph ENE14.5 kmh ENE 13.0 mph20.9 kmh 29.89 in1012.2 mb 0.00 in0.0 mm 0.00 in0.0 mm 0.00 in0.0 mm
06:51 AM 28.2°F-2.1°C 21.6°F-5.8°C 76% 5.0 mph NE8.0 kmh NE 13.0 mph20.9 kmh 29.89 in1012.2 mb 0.00 in0.0 mm 0.00 in0.0 mm 0.00 in0.0 mm
06:52 AM 28.2°F-2.1°C 21.6°F-5.8°C 76% 7.0 mph NE11.3 kmh NE 13.0 mph20.9 kmh 29.89 in1012.2 mb 0.00 in0.0 mm 0.00 in0.0 mm 0.00 in0.0 mm
06:53 AM 28.2°F-2.1°C 21.6°F-5.8°C 76% 9.0 mph ENE14.5 kmh ENE 13.0 mph20.9 kmh 29.89 in1012.2 mb 0.00 in0.0 mm 0.00 in0.0 mm 0.00 in0.0 mm
06:54 AM 28.2°F-2.1°C 21.3°F-5.9°C 75% 6.0 mph NE9.7 kmh NE 13.0 mph20.9 kmh 29.89 in1012.2 mb 0.00 in0.0 mm 0.00 in0.0 mm 0.00 in0.0 mm
06:55 AM 28.2°F-2.1°C 21.6°F-5.8°C 76% 5.0 mph ENE8.0 kmh ENE 13.0 mph20.9 kmh 29.90 in1012.5 mb 0.00 in0.0 mm 0.00 in0.0 mm 0.00 in0.0 mm
06:56 AM 28.2°F-2.1°C 21.6°F-5.8°C 76% 7.0 mph NE11.3 kmh NE 13.0 mph20.9 kmh 29.89 in1012.2 mb 0.00 in0.0 mm 0.00 in0.0 mm 0.00 in0.0 mm
06:57 AM 28.2°F-2.1°C 21.3°F-5.9°C 75% 5.0 mph ENE8.0 kmh ENE 13.0 mph20.9 kmh 29.89 in1012.2 mb 0.00 in0.0 mm 0.00 in0.0 mm 0.00 in0.0 mm
06:58 AM 28.2°F-2.1°C 21.6°F-5.8°C 76% 3.0 mph NE4.8 kmh NE 13.0 mph20.9 kmh 29.89 in1012.2 mb 0.00 in0.0 mm 0.00 in0.0 mm 0.00 in0.0 mm
06:59 AM 28.2°F-2.1°C 21.6°F-5.8°C 76% 8.0 mph NE12.9 kmh NE 13.0 mph20.9 kmh 29.90 in1012.5 mb 0.00 in0.0 mm 0.00 in0.0 mm 0.00 in0.0 mm
07:00 AM 28.2°F-2.1°C 21.3°F-5.9°C 75% 7.0 mph NE11.3 kmh NE 13.0 mph20.9 kmh 29.90 in1012.5 mb 0.00 in0.0 mm 0.00 in0.0 mm 0.00 in0.0 mm
07:01 AM 28.2°F-2.1°C 21.6°F-5.8°C 76% 9.0 mph ENE14.5 kmh ENE 13.0 mph20.9 kmh 29.90 in1012.5 mb 0.00 in0.0 mm 0.00 in0.0 mm 0.00 in0.0 mm
07:02 AM 28.2°F-2.1°C 21.3°F-5.9°C 75% 8.0 mph ENE12.9 kmh ENE 13.0 mph20.9 kmh 29.90 in1012.5 mb 0.00 in0.0 mm 0.00 in0.0 mm 0.00 in0.0 mm
07:03 AM 28.2°F-2.1°C 21.6°F-5.8°C 76% 9.0 mph ENE14.5 kmh ENE 13.0 mph20.9 kmh 29.90 in1012.5 mb 0.00 in0.0 mm 0.00 in0.0 mm 0.00 in0.0 mm
07:04 AM 28.2°F-2.1°C 21.6°F-5.8°C 76% 4.0 mph NE6.4 kmh NE 13.0 mph20.9 kmh 29.90 in1012.5 mb 0.00 in0.0 mm 0.00 in0.0 mm 0.00 in0.0 mm
07:05 AM 28.2°F-2.1°C 21.6°F-5.8°C 76% 7.0 mph NE11.3 kmh NE 13.0 mph20.9 kmh 29.90 in1012.5 mb 0.00 in0.0 mm 0.00 in0.0 mm 0.00 in0.0 mm
07:06 AM 28.2°F-2.1°C 21.6°F-5.8°C 76% 8.0 mph NNE12.9 kmh NNE 13.0 mph20.9 kmh 29.90 in1012.5 mb 0.00 in0.0 mm 0.00 in0.0 mm 0.00 in0.0 mm
07:07 AM 28.2°F-2.1°C 21.6°F-5.8°C 76% 7.0 mph NE11.3 kmh NE 13.0 mph20.9 kmh 29.90 in1012.5 mb 0.00 in0.0 mm 0.00 in0.0 mm 0.00 in0.0 mm
07:08 AM 28.2°F-2.1°C 21.6°F-5.8°C 76% 4.0 mph NE6.4 kmh NE 13.0 mph20.9 kmh 29.90 in1012.5 mb 0.00 in0.0 mm 0.00 in0.0 mm 0.00 in0.0 mm
07:09 AM 28.2°F-2.1°C 21.6°F-5.8°C 76% 4.0 mph NNE6.4 kmh NNE 13.0 mph20.9 kmh 29.90 in1012.5 mb 0.00 in0.0 mm 0.00 in0.0 mm 0.00 in0.0 mm
07:10 AM 28.2°F-2.1°C 21.6°F-5.8°C 76% 7.0 mph E11.3 kmh E 13.0 mph20.9 kmh 29.90 in1012.5 mb 0.00 in0.0 mm 0.00 in0.0 mm 0.00 in0.0 mm
07:11 AM 28.2°F-2.1°C 21.6°F-5.8°C 76% 5.0 mph NNE8.0 kmh NNE 13.0 mph20.9 kmh 29.90 in1012.5 mb 0.00 in0.0 mm 0.00 in0.0 mm 0.00 in0.0 mm
07:12 AM 28.2°F-2.1°C 21.6°F-5.8°C 76% 9.0 mph ENE14.5 kmh ENE 13.0 mph20.9 kmh 29.90 in1012.5 mb 0.00 in0.0 mm 0.00 in0.0 mm 0.00 in0.0 mm
07:13 AM 28.2°F-2.1°C 21.6°F-5.8°C 76% 7.0 mph NNE11.3 kmh NNE 11.0 mph17.7 kmh 29.90 in1012.5 mb 0.00 in0.0 mm 0.00 in0.0 mm 0.00 in0.0 mm
07:14 AM 28.2°F-2.1°C 21.3°F-5.9°C 75% 4.0 mph NE6.4 kmh NE 11.0 mph17.7 kmh 29.90 in1012.5 mb 0.00 in0.0 mm 0.00 in0.0 mm 0.00 in0.0 mm
07:15 AM 28.2°F-2.1°C 21.6°F-5.8°C 76% 3.0 mph NE4.8 kmh NE 11.0 mph17.7 kmh 29.90 in1012.5 mb 0.00 in0.0 mm 0.00 in0.0 mm 0.00 in0.0 mm
07:16 AM 28.1°F-2.2°C 21.5°F-5.8°C 76% 6.0 mph NE9.7 kmh NE 11.0 mph17.7 kmh 29.90 in1012.5 mb 0.00 in0.0 mm 0.00 in0.0 mm 0.00 in0.0 mm
07:17 AM 28.2°F-2.1°C 21.9°F-5.6°C 77% 3.0 mph NE4.8 kmh NE 11.0 mph17.7 kmh 29.90 in1012.5 mb 0.00 in0.0 mm 0.00 in0.0 mm 0.00 in0.0 mm
07:18 AM 28.2°F-2.1°C 21.6°F-5.8°C 76% 10.0 mph ENE16.1 kmh ENE 13.0 mph20.9 kmh 29.90 in1012.5 mb 0.00 in0.0 mm 0.00 in0.0 mm 0.00 in0.0 mm
07:19 AM 28.2°F-2.1°C 21.6°F-5.8°C 76% 9.0 mph ENE14.5 kmh ENE 13.0 mph20.9 kmh 29.90 in1012.5 mb 0.00 in0.0 mm 0.00 in0.0 mm 0.00 in0.0 mm
07:20 AM 28.2°F-2.1°C 21.6°F-5.8°C 76% 10.0 mph NE16.1 kmh NE 13.0 mph20.9 kmh 29.91 in1012.9 mb 0.00 in0.0 mm 0.00 in0.0 mm 0.00 in0.0 mm
07:21 AM 28.2°F-2.1°C 21.6°F-5.8°C 76% 11.0 mph NE17.7 kmh NE 19.0 mph30.6 kmh 29.91 in1012.9 mb 0.00 in0.0 mm 0.00 in0.0 mm 0.00 in0.0 mm
07:22 AM 28.2°F-2.1°C 21.6°F-5.8°C 76% 7.0 mph NNE11.3 kmh NNE 19.0 mph30.6 kmh 29.91 in1012.9 mb 0.00 in0.0 mm 0.00 in0.0 mm 0.00 in0.0 mm
07:23 AM 28.2°F-2.1°C 21.3°F-5.9°C 75% 8.0 mph NNE12.9 kmh NNE 19.0 mph30.6 kmh 29.91 in1012.9 mb 0.00 in0.0 mm 0.00 in0.0 mm 0.00 in0.0 mm
07:24 AM 28.2°F-2.1°C 21.3°F-5.9°C 75% 6.0 mph NE9.7 kmh NE 19.0 mph30.6 kmh 29.91 in1012.9 mb 0.00 in0.0 mm 0.00 in0.0 mm 0.00 in0.0 mm
07:25 AM 28.2°F-2.1°C 21.3°F-5.9°C 75% 10.0 mph ENE16.1 kmh ENE 19.0 mph30.6 kmh 29.91 in1012.9 mb 0.00 in0.0 mm 0.00 in0.0 mm 0.00 in0.0 mm
07:26 AM 28.2°F-2.1°C 21.3°F-5.9°C 75% 7.0 mph ENE11.3 kmh ENE 19.0 mph30.6 kmh 29.91 in1012.9 mb 0.00 in0.0 mm 0.00 in0.0 mm 0.00 in0.0 mm
07:27 AM 28.2°F-2.1°C 21.3°F-5.9°C 75% 4.0 mph ENE6.4 kmh ENE 19.0 mph30.6 kmh 29.91 in1012.9 mb 0.00 in0.0 mm 0.00 in0.0 mm 0.00 in0.0 mm
07:28 AM 28.2°F-2.1°C 21.3°F-5.9°C 75% 5.0 mph NNE8.0 kmh NNE 19.0 mph30.6 kmh 29.91 in1012.9 mb 0.00 in0.0 mm 0.00 in0.0 mm 0.00 in0.0 mm
07:29 AM 28.2°F-2.1°C 21.3°F-5.9°C 75% 5.0 mph NE8.0 kmh NE 19.0 mph30.6 kmh 29.91 in1012.9 mb 0.00 in0.0 mm 0.00 in0.0 mm 0.00 in0.0 mm
07:30 AM 28.2°F-2.1°C 21.3°F-5.9°C 75% 8.0 mph ENE12.9 kmh ENE 19.0 mph30.6 kmh 29.91 in1012.9 mb 0.00 in0.0 mm 0.00 in0.0 mm 0.00 in0.0 mm
07:31 AM 28.2°F-2.1°C 21.3°F-5.9°C 75% 11.0 mph ENE17.7 kmh ENE 19.0 mph30.6 kmh 29.91 in1012.9 mb 0.00 in0.0 mm 0.00 in0.0 mm 0.00 in0.0 mm
07:32 AM 28.2°F-2.1°C 21.3°F-5.9°C 75% 11.0 mph NE17.7 kmh NE 19.0 mph30.6 kmh 29.91 in1012.9 mb 0.00 in0.0 mm 0.00 in0.0 mm 0.00 in0.0 mm
07:33 AM 28.2°F-2.1°C 21.3°F-5.9°C 75% 7.0 mph NNE11.3 kmh NNE 19.0 mph30.6 kmh 29.91 in1012.9 mb 0.00 in0.0 mm 0.00 in0.0 mm 0.00 in0.0 mm
07:34 AM 28.2°F-2.1°C 21.3°F-5.9°C 75% 4.0 mph NE6.4 kmh NE 19.0 mph30.6 kmh 29.91 in1012.9 mb 0.00 in0.0 mm 0.00 in0.0 mm 0.00 in0.0 mm
07:35 AM 28.2°F-2.1°C 21.3°F-5.9°C 75% 8.0 mph NNE12.9 kmh NNE 19.0 mph30.6 kmh 29.91 in1012.9 mb 0.00 in0.0 mm 0.00 in0.0 mm 0.00 in0.0 mm
07:36 AM 28.3°F-2.1°C 21.4°F-5.9°C 75% 8.0 mph NE12.9 kmh NE 19.0 mph30.6 kmh 29.91 in1012.9 mb 0.00 in0.0 mm 0.00 in0.0 mm 0.00 in0.0 mm
07:37 AM 28.3°F-2.1°C 21.4°F-5.9°C 75% 8.0 mph ENE12.9 kmh ENE 19.0 mph30.6 kmh 29.91 in1012.9 mb 0.00 in0.0 mm 0.00 in0.0 mm 0.00 in0.0 mm
07:38 AM 28.3°F-2.1°C 21.4°F-5.9°C 75% 7.0 mph ENE11.3 kmh ENE 19.0 mph30.6 kmh 29.91 in1012.9 mb 0.00 in0.0 mm 0.00 in0.0 mm 0.00 in0.0 mm
07:39 AM 28.3°F-2.1°C 21.4°F-5.9°C 75% 6.0 mph NE9.7 kmh NE 19.0 mph30.6 kmh 29.91 in1012.9 mb 0.00 in0.0 mm 0.00 in0.0 mm 0.00 in0.0 mm
07:40 AM 28.3°F-2.1°C 21.4°F-5.9°C 75% 5.0 mph NE8.0 kmh NE 19.0 mph30.6 kmh 29.91 in1012.9 mb 0.00 in0.0 mm 0.00 in0.0 mm 0.00 in0.0 mm
07:41 AM 28.3°F-2.1°C 21.4°F-5.9°C 75% 5.0 mph NE8.0 kmh NE 15.0 mph24.1 kmh 29.91 in1012.9 mb 0.00 in0.0 mm 0.00 in0.0 mm 0.00 in0.0 mm
07:42 AM 28.3°F-2.1°C 21.4°F-5.9°C 75% 8.0 mph NE12.9 kmh NE 15.0 mph24.1 kmh 29.91 in1012.9 mb 0.00 in0.0 mm 0.00 in0.0 mm 0.00 in0.0 mm
07:43 AM 28.3°F-2.1°C 21.4°F-5.9°C 75% 6.0 mph NNE9.7 kmh NNE 15.0 mph24.1 kmh 29.91 in1012.9 mb 0.00 in0.0 mm 0.00 in0.0 mm 0.00 in0.0 mm
07:44 AM 28.3°F-2.1°C 21.4°F-5.9°C 75% 6.0 mph NNE9.7 kmh NNE 15.0 mph24.1 kmh 29.91 in1012.9 mb 0.00 in0.0 mm 0.00 in0.0 mm 0.00 in0.0 mm
07:45 AM 28.3°F-2.1°C 21.4°F-5.9°C 75% 3.0 mph NNE4.8 kmh NNE 15.0 mph24.1 kmh 29.91 in1012.9 mb 0.00 in0.0 mm 0.00 in0.0 mm 0.00 in0.0 mm
07:46 AM 28.3°F-2.1°C 21.4°F-5.9°C 75% 11.0 mph NE17.7 kmh NE 15.0 mph24.1 kmh 29.91 in1012.9 mb 0.00 in0.0 mm 0.00 in0.0 mm 0.00 in0.0 mm
07:47 AM 28.3°F-2.1°C 21.4°F-5.9°C 75% 10.0 mph NE16.1 kmh NE 17.0 mph27.4 kmh 29.91 in1012.9 mb 0.00 in0.0 mm 0.00 in0.0 mm 0.00 in0.0 mm
07:48 AM 28.3°F-2.1°C 21.4°F-5.9°C 75% 9.0 mph NE14.5 kmh NE 17.0 mph27.4 kmh 29.91 in1012.9 mb 0.00 in0.0 mm 0.00 in0.0 mm 0.00 in0.0 mm
07:49 AM 28.3°F-2.1°C 21.4°F-5.9°C 75% 12.0 mph NNE19.3 kmh NNE 17.0 mph27.4 kmh 29.91 in1012.9 mb 0.00 in0.0 mm 0.00 in0.0 mm 0.00 in0.0 mm
07:50 AM 28.3°F-2.1°C 21.4°F-5.9°C 75% 8.0 mph NE12.9 kmh NE 17.0 mph27.4 kmh 29.91 in1012.9 mb 0.00 in0.0 mm 0.00 in0.0 mm 0.00 in0.0 mm
07:51 AM 28.3°F-2.1°C 21.4°F-5.9°C 75% 9.0 mph N14.5 kmh N 17.0 mph27.4 kmh 29.91 in1012.9 mb 0.00 in0.0 mm 0.00 in0.0 mm 0.00 in0.0 mm
07:52 AM 28.3°F-2.1°C 21.4°F-5.9°C 75% 7.0 mph ENE11.3 kmh ENE 17.0 mph27.4 kmh 29.92 in1013.2 mb 0.00 in0.0 mm 0.00 in0.0 mm 0.00 in0.0 mm
07:53 AM 28.3°F-2.1°C 21.4°F-5.9°C 75% 9.0 mph E14.5 kmh E 17.0 mph27.4 kmh 29.92 in1013.2 mb 0.00 in0.0 mm 0.00 in0.0 mm 0.00 in0.0 mm
07:54 AM 28.3°F-2.1°C 21.4°F-5.9°C 75% 7.0 mph NE11.3 kmh NE 17.0 mph27.4 kmh 29.92 in1013.2 mb 0.00 in0.0 mm 0.00 in0.0 mm 0.00 in0.0 mm
07:55 AM 28.3°F-2.1°C 21.4°F-5.9°C 75% 2.0 mph NE3.2 kmh NE 17.0 mph27.4 kmh 29.92 in1013.2 mb 0.00 in0.0 mm 0.00 in0.0 mm 0.00 in0.0 mm
07:56 AM 28.3°F-2.1°C 21.4°F-5.9°C 75% 5.0 mph NE8.0 kmh NE 17.0 mph27.4 kmh 29.92 in1013.2 mb 0.00 in0.0 mm 0.00 in0.0 mm 0.00 in0.0 mm
07:57 AM 28.2°F-2.1°C 21.3°F-5.9°C 75% 4.0 mph NE6.4 kmh NE 17.0 mph27.4 kmh 29.92 in1013.2 mb 0.00 in0.0 mm 0.00 in0.0 mm 0.00 in0.0 mm
07:58 AM 28.2°F-2.1°C 21.3°F-5.9°C 75% 5.0 mph ENE8.0 kmh ENE 17.0 mph27.4 kmh 29.92 in1013.2 mb 0.00 in0.0 mm 0.00 in0.0 mm 0.00 in0.0 mm
07:59 AM 28.2°F-2.1°C 21.3°F-5.9°C 75% 5.0 mph NNE8.0 kmh NNE 17.0 mph27.4 kmh 29.92 in1013.2 mb 0.00 in0.0 mm 0.00 in0.0 mm 0.00 in0.0 mm
08:00 AM 28.2°F-2.1°C 21.3°F-5.9°C 75% 9.0 mph NE14.5 kmh NE 17.0 mph27.4 kmh 29.92 in1013.2 mb 0.00 in0.0 mm 0.00 in0.0 mm 0.00 in0.0 mm
08:01 AM 28.3°F-2.1°C 21.4°F-5.9°C 75% 9.0 mph NE14.5 kmh NE 17.0 mph27.4 kmh 29.92 in1013.2 mb 0.00 in0.0 mm 0.00 in0.0 mm 0.00 in0.0 mm
08:02 AM 28.3°F-2.1°C 21.4°F-5.9°C 75% 4.0 mph NE6.4 kmh NE 17.0 mph27.4 kmh 29.92 in1013.2 mb 0.00 in0.0 mm 0.00 in0.0 mm 0.00 in0.0 mm
08:03 AM 28.3°F-2.1°C 21.4°F-5.9°C 75% 6.0 mph NE9.7 kmh NE 17.0 mph27.4 kmh 29.92 in1013.2 mb 0.00 in0.0 mm 0.00 in0.0 mm 0.00 in0.0 mm
08:04 AM 28.3°F-2.1°C 21.4°F-5.9°C 75% 5.0 mph ENE8.0 kmh ENE 17.0 mph27.4 kmh 29.92 in1013.2 mb 0.00 in0.0 mm 0.00 in0.0 mm 0.00 in0.0 mm
08:05 AM 28.3°F-2.1°C 21.4°F-5.9°C 75% 4.0 mph NE6.4 kmh NE 17.0 mph27.4 kmh 29.93 in1013.5 mb 0.00 in0.0 mm 0.00 in0.0 mm 0.00 in0.0 mm
08:06 AM 28.2°F-2.1°C 21.3°F-5.9°C 75% 9.0 mph N14.5 kmh N 17.0 mph27.4 kmh 29.93 in1013.5 mb 0.00 in0.0 mm 0.00 in0.0 mm 0.00 in0.0 mm
08:07 AM 28.3°F-2.1°C 21.4°F-5.9°C 75% 5.0 mph NE8.0 kmh NE 12.0 mph19.3 kmh 29.92 in1013.2 mb 0.00 in0.0 mm 0.00 in0.0 mm 0.00 in0.0 mm
08:08 AM 28.3°F-2.1°C 21.4°F-5.9°C 75% 3.0 mph NNE4.8 kmh NNE 12.0 mph19.3 kmh 29.92 in1013.2 mb 0.00 in0.0 mm 0.00 in0.0 mm 0.00 in0.0 mm
08:09 AM 28.3°F-2.1°C 21.4°F-5.9°C 75% 5.0 mph NE8.0 kmh NE 12.0 mph19.3 kmh 29.93 in1013.5 mb 0.00 in0.0 mm 0.00 in0.0 mm 0.00 in0.0 mm
08:10 AM 28.3°F-2.1°C 21.4°F-5.9°C 75% 5.0 mph NE8.0 kmh NE 12.0 mph19.3 kmh 29.93 in1013.5 mb 0.00 in0.0 mm 0.00 in0.0 mm 0.00 in0.0 mm
08:11 AM 28.3°F-2.1°C 21.4°F-5.9°C 75% 5.0 mph ENE8.0 kmh ENE 12.0 mph19.3 kmh 29.93 in1013.5 mb 0.00 in0.0 mm 0.00 in0.0 mm 0.00 in0.0 mm
08:12 AM 28.3°F-2.1°C 21.4°F-5.9°C 75% 5.0 mph 8.0 kmh 12.0 mph19.3 kmh 29.93 in1013.5 mb 0.00 in0.0 mm 0.00 in0.0 mm 0.00 in0.0 mm
08:13 AM 28.4°F-2.0°C 21.5°F-5.8°C 75% 7.0 mph ENE11.3 kmh ENE 12.0 mph19.3 kmh 29.93 in1013.5 mb 0.00 in0.0 mm 0.00 in0.0 mm 0.00 in0.0 mm
08:14 AM 28.4°F-2.0°C 21.5°F-5.8°C 75% 9.0 mph NE14.5 kmh NE 13.0 mph20.9 kmh 29.93 in1013.5 mb 0.00 in0.0 mm 0.00 in0.0 mm 0.00 in0.0 mm
08:15 AM 28.4°F-2.0°C 21.5°F-5.8°C 75% 14.0 mph NE22.5 kmh NE 14.0 mph22.5 kmh 29.93 in1013.5 mb 0.00 in0.0 mm 0.00 in0.0 mm 0.00 in0.0 mm
08:16 AM 28.4°F-2.0°C 21.5°F-5.8°C 75% 6.0 mph NE9.7 kmh NE 14.0 mph22.5 kmh 29.93 in1013.5 mb 0.00 in0.0 mm 0.00 in0.0 mm 0.00 in0.0 mm
08:17 AM 28.4°F-2.0°C 21.5°F-5.8°C 75% 6.0 mph NE9.7 kmh NE 14.0 mph22.5 kmh 29.93 in1013.5 mb 0.00 in0.0 mm 0.00 in0.0 mm 0.00 in0.0 mm
08:18 AM 28.4°F-2.0°C 21.8°F-5.7°C 76% 11.0 mph N17.7 kmh N 14.0 mph22.5 kmh 29.92 in1013.2 mb 0.00 in0.0 mm 0.00 in0.0 mm 0.00 in0.0 mm
08:19 AM 28.4°F-2.0°C 21.8°F-5.7°C 76% 10.0 mph ENE16.1 kmh ENE 14.0 mph22.5 kmh 29.92 in1013.2 mb 0.00 in0.0 mm 0.00 in0.0 mm 0.00 in0.0 mm
08:20 AM 28.4°F-2.0°C 21.8°F-5.7°C 76% 11.0 mph NE17.7 kmh NE 14.0 mph22.5 kmh 29.93 in1013.5 mb 0.00 in0.0 mm 0.00 in0.0 mm 0.00 in0.0 mm
08:21 AM 28.3°F-2.1°C 21.7°F-5.7°C 76% 5.0 mph NE8.0 kmh NE 14.0 mph22.5 kmh 29.92 in1013.2 mb 0.00 in0.0 mm 0.00 in0.0 mm 0.00 in0.0 mm
08:22 AM 28.4°F-2.0°C 21.8°F-5.7°C 76% 11.0 mph N17.7 kmh N 14.0 mph22.5 kmh 29.92 in1013.2 mb 0.00 in0.0 mm 0.00 in0.0 mm 0.00 in0.0 mm
08:23 AM 28.3°F-2.1°C 22.0°F-5.6°C 77% 12.0 mph ENE19.3 kmh ENE 14.0 mph22.5 kmh 29.92 in1013.2 mb 0.00 in0.0 mm 0.00 in0.0 mm 0.00 in0.0 mm
08:24 AM 28.3°F-2.1°C 22.0°F-5.6°C 77% 11.0 mph N17.7 kmh N 14.0 mph22.5 kmh 29.92 in1013.2 mb 0.00 in0.0 mm 0.00 in0.0 mm 0.00 in0.0 mm
08:25 AM 28.3°F-2.1°C 22.3°F-5.4°C 78% 4.0 mph NE6.4 kmh NE 14.0 mph22.5 kmh 29.92 in1013.2 mb 0.00 in0.0 mm 0.00 in0.0 mm 0.00 in0.0 mm
08:26 AM 28.2°F-2.1°C 22.2°F-5.4°C 78% 11.0 mph NE17.7 kmh NE 14.0 mph22.5 kmh 29.92 in1013.2 mb 0.00 in0.0 mm 0.00 in0.0 mm 0.00 in0.0 mm
08:27 AM 28.2°F-2.1°C 22.2°F-5.4°C 78% 7.0 mph NNE11.3 kmh NNE 14.0 mph22.5 kmh 29.92 in1013.2 mb 0.00 in0.0 mm 0.00 in0.0 mm 0.00 in0.0 mm
08:28 AM 28.2°F-2.1°C 22.5°F-5.3°C 79% 6.0 mph NE9.7 kmh NE 14.0 mph22.5 kmh 29.92 in1013.2 mb 0.00 in0.0 mm 0.00 in0.0 mm 0.00 in0.0 mm
08:29 AM 28.1°F-2.2°C 22.1°F-5.5°C 78% 7.0 mph E11.3 kmh E 14.0 mph22.5 kmh 29.93 in1013.5 mb 0.00 in0.0 mm 0.00 in0.0 mm 0.00 in0.0 mm
08:30 AM 28.1°F-2.2°C 22.4°F-5.3°C 79% 8.0 mph NE12.9 kmh NE 14.0 mph22.5 kmh 29.93 in1013.5 mb 0.00 in0.0 mm 0.00 in0.0 mm 0.00 in0.0 mm
08:31 AM 28.0°F-2.2°C 22.3°F-5.4°C 79% 7.0 mph NE11.3 kmh NE 14.0 mph22.5 kmh 29.93 in1013.5 mb 0.00 in0.0 mm 0.00 in0.0 mm 0.00 in0.0 mm
08:32 AM 28.0°F-2.2°C 22.3°F-5.4°C 79% 5.0 mph NE8.0 kmh NE 14.0 mph22.5 kmh 29.93 in1013.5 mb 0.00 in0.0 mm 0.00 in0.0 mm 0.00 in0.0 mm
08:33 AM 28.0°F-2.2°C 22.3°F-5.4°C 79% 7.0 mph ENE11.3 kmh ENE 14.0 mph22.5 kmh 29.93 in1013.5 mb 0.00 in0.0 mm 0.00 in0.0 mm 0.00 in0.0 mm
08:34 AM 28.0°F-2.2°C 22.3°F-5.4°C 79% 5.0 mph NE8.0 kmh NE 14.0 mph22.5 kmh 29.93 in1013.5 mb 0.00 in0.0 mm 0.00 in0.0 mm 0.00 in0.0 mm
08:35 AM 27.9°F-2.3°C 22.2°F-5.4°C 79% 6.0 mph NE9.7 kmh NE 14.0 mph22.5 kmh 29.93 in1013.5 mb 0.00 in0.0 mm 0.00 in0.0 mm 0.00 in0.0 mm
08:36 AM 27.9°F-2.3°C 22.5°F-5.3°C 80% 5.0 mph NE8.0 kmh NE 12.0 mph19.3 kmh 29.93 in1013.5 mb 0.00 in0.0 mm 0.00 in0.0 mm 0.00 in0.0 mm
08:37 AM 27.9°F-2.3°C 22.5°F-5.3°C 80% 5.0 mph NNE8.0 kmh NNE 12.0 mph19.3 kmh 29.93 in1013.5 mb 0.00 in0.0 mm 0.00 in0.0 mm 0.00 in0.0 mm
08:38 AM 27.9°F-2.3°C 22.5°F-5.3°C 80% 4.0 mph NNE6.4 kmh NNE 12.0 mph19.3 kmh 29.93 in1013.5 mb 0.00 in0.0 mm 0.00 in0.0 mm 0.00 in0.0 mm
08:39 AM 27.9°F-2.3°C 22.5°F-5.3°C 80% 3.0 mph NNE4.8 kmh NNE 12.0 mph19.3 kmh 29.93 in1013.5 mb 0.00 in0.0 mm 0.00 in0.0 mm 0.00 in0.0 mm
08:40 AM 27.9°F-2.3°C 22.5°F-5.3°C 80% 5.0 mph NNE8.0 kmh NNE 12.0 mph19.3 kmh 29.93 in1013.5 mb 0.00 in0.0 mm 0.00 in0.0 mm 0.00 in0.0 mm
08:41 AM 27.9°F-2.3°C 22.5°F-5.3°C 80% 4.0 mph NE6.4 kmh NE 12.0 mph19.3 kmh 29.93 in1013.5 mb 0.00 in0.0 mm 0.00 in0.0 mm 0.00 in0.0 mm
08:42 AM 27.9°F-2.3°C 22.2°F-5.4°C 79% 4.0 mph NE6.4 kmh NE 12.0 mph19.3 kmh 29.93 in1013.5 mb 0.00 in0.0 mm 0.00 in0.0 mm 0.00 in0.0 mm
08:43 AM 27.9°F-2.3°C 22.2°F-5.4°C 79% 6.0 mph NNE9.7 kmh NNE 12.0 mph19.3 kmh 29.93 in1013.5 mb 0.00 in0.0 mm 0.00 in0.0 mm 0.00 in0.0 mm
08:44 AM 27.9°F-2.3°C 22.2°F-5.4°C 79% 3.0 mph NE4.8 kmh NE 12.0 mph19.3 kmh 29.93 in1013.5 mb 0.00 in0.0 mm 0.00 in0.0 mm 0.00 in0.0 mm
08:45 AM 27.9°F-2.3°C 22.2°F-5.4°C 79% 4.0 mph NE6.4 kmh NE 12.0 mph19.3 kmh 29.93 in1013.5 mb 0.00 in0.0 mm 0.00 in0.0 mm 0.00 in0.0 mm
08:46 AM 27.9°F-2.3°C 22.2°F-5.4°C 79% 4.0 mph NE6.4 kmh NE 10.0 mph16.1 kmh 29.93 in1013.5 mb 0.00 in0.0 mm 0.00 in0.0 mm 0.00 in0.0 mm
08:47 AM 27.9°F-2.3°C 22.2°F-5.4°C 79% 4.0 mph NE6.4 kmh NE 10.0 mph16.1 kmh 29.93 in1013.5 mb 0.00 in0.0 mm 0.00 in0.0 mm 0.00 in0.0 mm
08:48 AM 27.9°F-2.3°C 22.2°F-5.4°C 79% 8.0 mph NE12.9 kmh NE 10.0 mph16.1 kmh 29.93 in1013.5 mb 0.00 in0.0 mm 0.00 in0.0 mm 0.00 in0.0 mm
08:49 AM 27.9°F-2.3°C 22.2°F-5.4°C 79% 5.0 mph NE8.0 kmh NE 10.0 mph16.1 kmh 29.93 in1013.5 mb 0.00 in0.0 mm 0.00 in0.0 mm 0.00 in0.0 mm
08:50 AM 28.0°F-2.2°C 22.0°F-5.6°C 78% 6.0 mph 9.7 kmh 10.0 mph16.1 kmh 29.93 in1013.5 mb 0.00 in0.0 mm 0.00 in0.0 mm 0.00 in0.0 mm
08:51 AM 28.0°F-2.2°C 22.0°F-5.6°C 78% 6.0 mph NE9.7 kmh NE 10.0 mph16.1 kmh 29.93 in1013.5 mb 0.00 in0.0 mm 0.00 in0.0 mm 0.00 in0.0 mm
08:52 AM 28.0°F-2.2°C 22.0°F-5.6°C 78% 6.0 mph NE9.7 kmh NE 10.0 mph16.1 kmh 29.93 in1013.5 mb 0.00 in0.0 mm 0.00 in0.0 mm 0.00 in0.0 mm
08:53 AM 28.1°F-2.2°C 22.1°F-5.5°C 78% 4.0 mph NE6.4 kmh NE 10.0 mph16.1 kmh 29.93 in1013.5 mb 0.00 in0.0 mm 0.00 in0.0 mm 0.00 in0.0 mm
08:54 AM 28.1°F-2.2°C 22.1°F-5.5°C 78% 4.0 mph NE6.4 kmh NE 10.0 mph16.1 kmh 29.93 in1013.5 mb 0.00 in0.0 mm 0.00 in0.0 mm 0.00 in0.0 mm
08:55 AM 28.2°F-2.1°C 21.9°F-5.6°C 77% 6.0 mph NNE9.7 kmh NNE 10.0 mph16.1 kmh 29.93 in1013.5 mb 0.00 in0.0 mm 0.00 in0.0 mm 0.00 in0.0 mm
08:56 AM 28.2°F-2.1°C 21.9°F-5.6°C 77% 4.0 mph ENE6.4 kmh ENE 10.0 mph16.1 kmh 29.93 in1013.5 mb 0.00 in0.0 mm 0.00 in0.0 mm 0.00 in0.0 mm
08:57 AM 28.3°F-2.1°C 22.0°F-5.6°C 77% 5.0 mph ENE8.0 kmh ENE 10.0 mph16.1 kmh 29.93 in1013.5 mb 0.00 in0.0 mm 0.00 in0.0 mm 0.00 in0.0 mm
08:58 AM 28.3°F-2.1°C 22.0°F-5.6°C 77% 6.0 mph N9.7 kmh N 12.0 mph19.3 kmh 29.93 in1013.5 mb 0.00 in0.0 mm 0.00 in0.0 mm 0.00 in0.0 mm
08:59 AM 28.4°F-2.0°C 21.8°F-5.7°C 76% 4.0 mph NE6.4 kmh NE 12.0 mph19.3 kmh 29.93 in1013.5 mb 0.00 in0.0 mm 0.00 in0.0 mm 0.00 in0.0 mm
09:00 AM 28.5°F-1.9°C 21.9°F-5.6°C 76% 12.0 mph NNE19.3 kmh NNE 16.0 mph25.7 kmh 29.93 in1013.5 mb 0.00 in0.0 mm 0.00 in0.0 mm 0.00 in0.0 mm
09:01 AM 28.5°F-1.9°C 21.9°F-5.6°C 76% 5.0 mph NE8.0 kmh NE 16.0 mph25.7 kmh 29.93 in1013.5 mb 0.00 in0.0 mm 0.00 in0.0 mm 0.00 in0.0 mm
09:02 AM 28.5°F-1.9°C 21.9°F-5.6°C 76% 5.0 mph NNE8.0 kmh NNE 16.0 mph25.7 kmh 29.93 in1013.5 mb 0.00 in0.0 mm 0.00 in0.0 mm 0.00 in0.0 mm
09:03 AM 28.6°F-1.9°C 22.0°F-5.6°C 76% 8.0 mph NE12.9 kmh NE 16.0 mph25.7 kmh 29.93 in1013.5 mb 0.00 in0.0 mm 0.00 in0.0 mm 0.00 in0.0 mm
09:04 AM 28.6°F-1.9°C 22.0°F-5.6°C 76% 5.0 mph NNE8.0 kmh NNE 16.0 mph25.7 kmh 29.93 in1013.5 mb 0.00 in0.0 mm 0.00 in0.0 mm 0.00 in0.0 mm
09:05 AM 28.7°F-1.8°C 21.8°F-5.7°C 75% 4.0 mph NE6.4 kmh NE 16.0 mph25.7 kmh 29.93 in1013.5 mb 0.00 in0.0 mm 0.00 in0.0 mm 0.00 in0.0 mm
09:06 AM 28.7°F-1.8°C 21.8°F-5.7°C 75% 6.0 mph NE9.7 kmh NE 16.0 mph25.7 kmh 29.93 in1013.5 mb 0.00 in0.0 mm 0.00 in0.0 mm 0.00 in0.0 mm
09:07 AM 28.7°F-1.8°C 21.8°F-5.7°C 75% 7.0 mph N11.3 kmh N 16.0 mph25.7 kmh 29.93 in1013.5 mb 0.00 in0.0 mm 0.00 in0.0 mm 0.00 in0.0 mm
09:08 AM 28.7°F-1.8°C 21.8°F-5.7°C 75% 7.0 mph N11.3 kmh N 16.0 mph25.7 kmh 29.93 in1013.5 mb 0.00 in0.0 mm 0.00 in0.0 mm 0.00 in0.0 mm
09:09 AM 28.7°F-1.8°C 21.8°F-5.7°C 75% 7.0 mph NE11.3 kmh NE 16.0 mph25.7 kmh 29.93 in1013.5 mb 0.00 in0.0 mm 0.00 in0.0 mm 0.00 in0.0 mm
09:10 AM 28.7°F-1.8°C 21.5°F-5.8°C 74% 3.0 mph N4.8 kmh N 16.0 mph25.7 kmh 29.93 in1013.5 mb 0.00 in0.0 mm 0.00 in0.0 mm 0.00 in0.0 mm
09:11 AM 28.8°F-1.8°C 21.9°F-5.6°C 75% 4.0 mph NE6.4 kmh NE 16.0 mph25.7 kmh 29.93 in1013.5 mb 0.00 in0.0 mm 0.00 in0.0 mm 0.00 in0.0 mm
09:12 AM 28.8°F-1.8°C 21.9°F-5.6°C 75% 5.0 mph N8.0 kmh N 16.0 mph25.7 kmh 29.93 in1013.5 mb 0.00 in0.0 mm 0.00 in0.0 mm 0.00 in0.0 mm
09:13 AM 28.8°F-1.8°C 21.6°F-5.8°C 74% 3.0 mph E4.8 kmh E 16.0 mph25.7 kmh 29.93 in1013.5 mb 0.00 in0.0 mm 0.00 in0.0 mm 0.00 in0.0 mm
09:14 AM 28.8°F-1.8°C 21.6°F-5.8°C 74% 4.0 mph N6.4 kmh N 16.0 mph25.7 kmh 29.93 in1013.5 mb 0.00 in0.0 mm 0.00 in0.0 mm 0.00 in0.0 mm
09:15 AM 28.9°F-1.7°C 21.7°F-5.7°C 74% 8.0 mph NE12.9 kmh NE 16.0 mph25.7 kmh 29.94 in1013.9 mb 0.00 in0.0 mm 0.00 in0.0 mm 0.00 in0.0 mm
09:16 AM 28.9°F-1.7°C 21.7°F-5.7°C 74% 5.0 mph N8.0 kmh N 16.0 mph25.7 kmh 29.93 in1013.5 mb 0.00 in0.0 mm 0.00 in0.0 mm 0.00 in0.0 mm
09:17 AM 28.9°F-1.7°C 21.7°F-5.7°C 74% 7.0 mph NE11.3 kmh NE 16.0 mph25.7 kmh 29.93 in1013.5 mb 0.00 in0.0 mm 0.00 in0.0 mm 0.00 in0.0 mm
09:18 AM 28.9°F-1.7°C 21.7°F-5.7°C 74% 5.0 mph NE8.0 kmh NE 16.0 mph25.7 kmh 29.93 in1013.5 mb 0.00 in0.0 mm 0.00 in0.0 mm 0.00 in0.0 mm
09:19 AM 28.9°F-1.7°C 21.7°F-5.7°C 74% 3.0 mph NE4.8 kmh NE 16.0 mph25.7 kmh 29.94 in1013.9 mb 0.00 in0.0 mm 0.00 in0.0 mm 0.00 in0.0 mm
09:20 AM 28.9°F-1.7°C 21.7°F-5.7°C 74% 9.0 mph ENE14.5 kmh ENE 12.0 mph19.3 kmh 29.94 in1013.9 mb 0.00 in0.0 mm 0.00 in0.0 mm 0.00 in0.0 mm
09:22 AM 28.9°F-1.7°C 21.4°F-5.9°C 73% 5.0 mph NE8.0 kmh NE 12.0 mph19.3 kmh 29.94 in1013.9 mb 0.00 in0.0 mm 0.00 in0.0 mm 0.00 in0.0 mm
09:23 AM 28.9°F-1.7°C 21.4°F-5.9°C 73% 4.0 mph ENE6.4 kmh ENE 12.0 mph19.3 kmh 29.94 in1013.9 mb 0.00 in0.0 mm 0.00 in0.0 mm 0.00 in0.0 mm
09:24 AM 28.9°F-1.7°C 21.4°F-5.9°C 73% 4.0 mph ENE6.4 kmh ENE 12.0 mph19.3 kmh 29.94 in1013.9 mb 0.00 in0.0 mm 0.00 in0.0 mm 0.00 in0.0 mm
09:25 AM 28.9°F-1.7°C 21.4°F-5.9°C 73% 4.0 mph NE6.4 kmh NE 12.0 mph19.3 kmh 29.94 in1013.9 mb 0.00 in0.0 mm 0.00 in0.0 mm 0.00 in0.0 mm
09:26 AM 28.9°F-1.7°C 21.4°F-5.9°C 73% 4.0 mph ENE6.4 kmh ENE 12.0 mph19.3 kmh 29.94 in1013.9 mb 0.00 in0.0 mm 0.00 in0.0 mm 0.00 in0.0 mm
09:27 AM 28.9°F-1.7°C 21.4°F-5.9°C 73% 7.0 mph ENE11.3 kmh ENE 12.0 mph19.3 kmh 29.94 in1013.9 mb 0.00 in0.0 mm 0.00 in0.0 mm 0.00 in0.0 mm
09:28 AM 28.9°F-1.7°C 21.4°F-5.9°C 73% 3.0 mph NE4.8 kmh NE 12.0 mph19.3 kmh 29.94 in1013.9 mb 0.00 in0.0 mm 0.00 in0.0 mm 0.00 in0.0 mm
09:29 AM 28.9°F-1.7°C 21.4°F-5.9°C 73% 4.0 mph ENE6.4 kmh ENE 12.0 mph19.3 kmh 29.94 in1013.9 mb 0.00 in0.0 mm 0.00 in0.0 mm 0.00 in0.0 mm
09:30 AM 28.9°F-1.7°C 21.4°F-5.9°C 73% 4.0 mph NNE6.4 kmh NNE 12.0 mph19.3 kmh 29.94 in1013.9 mb 0.00 in0.0 mm 0.00 in0.0 mm 0.00 in0.0 mm
09:31 AM 28.9°F-1.7°C 21.4°F-5.9°C 73% 4.0 mph ENE6.4 kmh ENE 10.0 mph16.1 kmh 29.94 in1013.9 mb 0.00 in0.0 mm 0.00 in0.0 mm 0.00 in0.0 mm
09:32 AM 28.9°F-1.7°C 21.4°F-5.9°C 73% 5.0 mph NE8.0 kmh NE 10.0 mph16.1 kmh 29.94 in1013.9 mb 0.00 in0.0 mm 0.00 in0.0 mm 0.00 in0.0 mm
09:33 AM 28.9°F-1.7°C 21.4°F-5.9°C 73% 7.0 mph NE11.3 kmh NE 11.0 mph17.7 kmh 29.95 in1014.2 mb 0.00 in0.0 mm 0.00 in0.0 mm 0.00 in0.0 mm
09:34 AM 28.9°F-1.7°C 21.4°F-5.9°C 73% 7.0 mph ENE11.3 kmh ENE 11.0 mph17.7 kmh 29.95 in1014.2 mb 0.00 in0.0 mm 0.00 in0.0 mm 0.00 in0.0 mm
09:35 AM 28.9°F-1.7°C 21.4°F-5.9°C 73% 7.0 mph 11.3 kmh 11.0 mph17.7 kmh 29.95 in1014.2 mb 0.00 in0.0 mm 0.00 in0.0 mm 0.00 in0.0 mm
09:36 AM 28.9°F-1.7°C 21.4°F-5.9°C 73% 7.0 mph NNE11.3 kmh NNE 11.0 mph17.7 kmh 29.95 in1014.2 mb 0.00 in0.0 mm 0.00 in0.0 mm 0.00 in0.0 mm
09:37 AM 28.9°F-1.7°C 21.4°F-5.9°C 73% 5.0 mph NE8.0 kmh NE 11.0 mph17.7 kmh 29.94 in1013.9 mb 0.00 in0.0 mm 0.00 in0.0 mm 0.00 in0.0 mm
09:38 AM 28.9°F-1.7°C 21.0°F-6.1°C 72% 8.0 mph NE12.9 kmh NE 11.0 mph17.7 kmh 29.94 in1013.9 mb 0.00 in0.0 mm 0.00 in0.0 mm 0.00 in0.0 mm
09:39 AM 28.9°F-1.7°C 21.0°F-6.1°C 72% 7.0 mph NE11.3 kmh NE 13.0 mph20.9 kmh 29.94 in1013.9 mb 0.00 in0.0 mm 0.00 in0.0 mm 0.00 in0.0 mm
09:40 AM 28.9°F-1.7°C 21.0°F-6.1°C 72% 7.0 mph ENE11.3 kmh ENE 13.0 mph20.9 kmh 29.94 in1013.9 mb 0.00 in0.0 mm 0.00 in0.0 mm 0.00 in0.0 mm
09:41 AM 28.9°F-1.7°C 21.4°F-5.9°C 73% 9.0 mph ENE14.5 kmh ENE 13.0 mph20.9 kmh 29.94 in1013.9 mb 0.00 in0.0 mm 0.00 in0.0 mm 0.00 in0.0 mm
09:42 AM 29.0°F-1.7°C 21.4°F-5.9°C 73% 9.0 mph NE14.5 kmh NE 13.0 mph20.9 kmh 29.95 in1014.2 mb 0.00 in0.0 mm 0.00 in0.0 mm 0.00 in0.0 mm
09:43 AM 29.0°F-1.7°C 21.1°F-6.1°C 72% 5.0 mph NE8.0 kmh NE 13.0 mph20.9 kmh 29.95 in1014.2 mb 0.00 in0.0 mm 0.00 in0.0 mm 0.00 in0.0 mm
09:44 AM 29.0°F-1.7°C 21.4°F-5.9°C 73% 3.0 mph NE4.8 kmh NE 13.0 mph20.9 kmh 29.95 in1014.2 mb 0.00 in0.0 mm 0.00 in0.0 mm 0.00 in0.0 mm
09:45 AM 29.0°F-1.7°C 21.4°F-5.9°C 73% 6.0 mph NE9.7 kmh NE 13.0 mph20.9 kmh 29.95 in1014.2 mb 0.00 in0.0 mm 0.00 in0.0 mm 0.00 in0.0 mm
09:46 AM 29.0°F-1.7°C 21.4°F-5.9°C 73% 11.0 mph NE17.7 kmh NE 13.0 mph20.9 kmh 29.95 in1014.2 mb 0.00 in0.0 mm 0.00 in0.0 mm 0.00 in0.0 mm
09:47 AM 29.0°F-1.7°C 21.4°F-5.9°C 73% 3.0 mph NNE4.8 kmh NNE 13.0 mph20.9 kmh 29.95 in1014.2 mb 0.00 in0.0 mm 0.00 in0.0 mm 0.00 in0.0 mm
09:48 AM 29.1°F-1.6°C 21.5°F-5.8°C 73% 13.0 mph NE20.9 kmh NE 13.0 mph20.9 kmh 29.95 in1014.2 mb 0.00 in0.0 mm 0.00 in0.0 mm 0.00 in0.0 mm
09:49 AM 29.0°F-1.7°C 21.4°F-5.9°C 73% 9.0 mph NNE14.5 kmh NNE 15.0 mph24.1 kmh 29.95 in1014.2 mb 0.00 in0.0 mm 0.00 in0.0 mm 0.00 in0.0 mm
09:50 AM 29.0°F-1.7°C 21.4°F-5.9°C 73% 8.0 mph NNE12.9 kmh NNE 15.0 mph24.1 kmh 29.95 in1014.2 mb 0.00 in0.0 mm 0.00 in0.0 mm 0.00 in0.0 mm
09:52 AM 29.0°F-1.7°C 21.4°F-5.9°C 73% 7.0 mph NE11.3 kmh NE 15.0 mph24.1 kmh 29.95 in1014.2 mb 0.00 in0.0 mm 0.00 in0.0 mm 0.00 in0.0 mm
09:54 AM 29.0°F-1.7°C 21.8°F-5.7°C 74% 6.0 mph NE9.7 kmh NE 15.0 mph24.1 kmh 29.95 in1014.2 mb 0.00 in0.0 mm 0.00 in0.0 mm 0.00 in0.0 mm
09:55 AM 29.0°F-1.7°C 21.4°F-5.9°C 73% 6.0 mph NE9.7 kmh NE 15.0 mph24.1 kmh 29.95 in1014.2 mb 0.00 in0.0 mm 0.00 in0.0 mm 0.00 in0.0 mm
09:57 AM 28.9°F-1.7°C 21.7°F-5.7°C 74% 4.0 mph NE6.4 kmh NE 15.0 mph24.1 kmh 29.95 in1014.2 mb 0.00 in0.0 mm 0.00 in0.0 mm 0.00 in0.0 mm
09:58 AM 28.9°F-1.7°C 21.7°F-5.7°C 74% 5.0 mph NE8.0 kmh NE 15.0 mph24.1 kmh 29.95 in1014.2 mb 0.00 in0.0 mm 0.00 in0.0 mm 0.00 in0.0 mm
09:59 AM 28.9°F-1.7°C 21.7°F-5.7°C 74% 5.0 mph NE8.0 kmh NE 15.0 mph24.1 kmh 29.95 in1014.2 mb 0.00 in0.0 mm 0.00 in0.0 mm 0.00 in0.0 mm
10:00 AM 28.9°F-1.7°C 21.7°F-5.7°C 74% 4.0 mph NE6.4 kmh NE 15.0 mph24.1 kmh 29.95 in1014.2 mb 0.00 in0.0 mm 0.00 in0.0 mm 0.00 in0.0 mm
10:01 AM 28.9°F-1.7°C 21.7°F-5.7°C 74% 2.0 mph NNE3.2 kmh NNE 15.0 mph24.1 kmh 29.95 in1014.2 mb 0.00 in0.0 mm 0.00 in0.0 mm 0.00 in0.0 mm
10:02 AM 28.9°F-1.7°C 21.7°F-5.7°C 74% 7.0 mph NNE11.3 kmh NNE 15.0 mph24.1 kmh 29.95 in1014.2 mb 0.00 in0.0 mm 0.00 in0.0 mm 0.00 in0.0 mm
10:03 AM 29.0°F-1.7°C 21.4°F-5.9°C 73% 6.0 mph NNE9.7 kmh NNE 15.0 mph24.1 kmh 29.95 in1014.2 mb 0.00 in0.0 mm 0.00 in0.0 mm 0.00 in0.0 mm
10:04 AM 29.0°F-1.7°C 21.4°F-5.9°C 73% 2.0 mph NE3.2 kmh NE 15.0 mph24.1 kmh 29.95 in1014.2 mb 0.00 in0.0 mm 0.00 in0.0 mm 0.00 in0.0 mm
10:05 AM 29.0°F-1.7°C 21.8°F-5.7°C 74% 3.0 mph NE4.8 kmh NE 15.0 mph24.1 kmh 29.95 in1014.2 mb 0.00 in0.0 mm 0.00 in0.0 mm 0.00 in0.0 mm
10:06 AM 29.1°F-1.6°C 21.5°F-5.8°C 73% 4.0 mph NNE6.4 kmh NNE 15.0 mph24.1 kmh 29.95 in1014.2 mb 0.00 in0.0 mm 0.00 in0.0 mm 0.00 in0.0 mm
10:07 AM 29.1°F-1.6°C 21.5°F-5.8°C 73% 6.0 mph NE9.7 kmh NE 15.0 mph24.1 kmh 29.95 in1014.2 mb 0.00 in0.0 mm 0.00 in0.0 mm 0.00 in0.0 mm
10:08 AM 29.1°F-1.6°C 21.5°F-5.8°C 73% 5.0 mph N8.0 kmh N 15.0 mph24.1 kmh 29.95 in1014.2 mb 0.00 in0.0 mm 0.00 in0.0 mm 0.00 in0.0 mm
10:09 AM 29.2°F-1.6°C 21.6°F-5.8°C 73% 4.0 mph NNE6.4 kmh NNE 11.0 mph17.7 kmh 29.95 in1014.2 mb 0.00 in0.0 mm 0.00 in0.0 mm 0.00 in0.0 mm
10:10 AM 29.2°F-1.6°C 21.6°F-5.8°C 73% 4.0 mph N6.4 kmh N 11.0 mph17.7 kmh 29.95 in1014.2 mb 0.00 in0.0 mm 0.00 in0.0 mm 0.00 in0.0 mm
10:11 AM 29.2°F-1.6°C 21.6°F-5.8°C 73% 3.0 mph N4.8 kmh N 11.0 mph17.7 kmh 29.95 in1014.2 mb 0.00 in0.0 mm 0.00 in0.0 mm 0.00 in0.0 mm
10:12 AM 29.3°F-1.5°C 21.7°F-5.7°C 73% 5.0 mph NE8.0 kmh NE 11.0 mph17.7 kmh 29.95 in1014.2 mb 0.00 in0.0 mm 0.00 in0.0 mm 0.00 in0.0 mm
10:13 AM 29.3°F-1.5°C 21.4°F-5.9°C 72% 6.0 mph NNE9.7 kmh NNE 11.0 mph17.7 kmh 29.96 in1014.6 mb 0.00 in0.0 mm 0.00 in0.0 mm 0.00 in0.0 mm
10:14 AM 29.3°F-1.5°C 21.4°F-5.9°C 72% 8.0 mph NNE12.9 kmh NNE 11.0 mph17.7 kmh 29.96 in1014.6 mb 0.00 in0.0 mm 0.00 in0.0 mm 0.00 in0.0 mm
10:15 AM 29.3°F-1.5°C 21.1°F-6.1°C 71% 4.0 mph N6.4 kmh N 11.0 mph17.7 kmh 29.95 in1014.2 mb 0.00 in0.0 mm 0.00 in0.0 mm 0.00 in0.0 mm
10:16 AM 29.3°F-1.5°C 21.1°F-6.1°C 71% 4.0 mph NE6.4 kmh NE 11.0 mph17.7 kmh 29.95 in1014.2 mb 0.00 in0.0 mm 0.00 in0.0 mm 0.00 in0.0 mm
10:17 AM 29.3°F-1.5°C 21.1°F-6.1°C 71% 4.0 mph NNE6.4 kmh NNE 11.0 mph17.7 kmh 29.95 in1014.2 mb 0.00 in0.0 mm 0.00 in0.0 mm 0.00 in0.0 mm
10:18 AM 29.4°F-1.4°C 21.2°F-6.0°C 71% 5.0 mph NNE8.0 kmh NNE 11.0 mph17.7 kmh 29.95 in1014.2 mb 0.00 in0.0 mm 0.00 in0.0 mm 0.00 in0.0 mm
10:19 AM 29.4°F-1.4°C 21.2°F-6.0°C 71% 8.0 mph NE12.9 kmh NE 11.0 mph17.7 kmh 29.95 in1014.2 mb 0.00 in0.0 mm 0.00 in0.0 mm 0.00 in0.0 mm
10:20 AM 29.4°F-1.4°C 21.2°F-6.0°C 71% 8.0 mph NNE12.9 kmh NNE 11.0 mph17.7 kmh 29.95 in1014.2 mb 0.00 in0.0 mm 0.00 in0.0 mm 0.00 in0.0 mm
10:21 AM 29.4°F-1.4°C 21.2°F-6.0°C 71% 4.0 mph NNE6.4 kmh NNE 11.0 mph17.7 kmh 29.96 in1014.6 mb 0.00 in0.0 mm 0.00 in0.0 mm 0.00 in0.0 mm
10:22 AM 29.5°F-1.4°C 21.3°F-5.9°C 71% 9.0 mph NNE14.5 kmh NNE 11.0 mph17.7 kmh 29.95 in1014.2 mb 0.00 in0.0 mm 0.00 in0.0 mm 0.00 in0.0 mm
10:23 AM 29.5°F-1.4°C 20.9°F-6.2°C 70% 7.0 mph NNE11.3 kmh NNE 12.0 mph19.3 kmh 29.95 in1014.2 mb 0.00 in0.0 mm 0.00 in0.0 mm 0.00 in0.0 mm
10:24 AM 29.5°F-1.4°C 21.3°F-5.9°C 71% 6.0 mph NE9.7 kmh NE 12.0 mph19.3 kmh 29.96 in1014.6 mb 0.00 in0.0 mm 0.00 in0.0 mm 0.00 in0.0 mm
10:25 AM 29.5°F-1.4°C 20.9°F-6.2°C 70% 4.0 mph NE6.4 kmh NE 12.0 mph19.3 kmh 29.95 in1014.2 mb 0.00 in0.0 mm 0.00 in0.0 mm 0.00 in0.0 mm
10:26 AM 29.5°F-1.4°C 20.9°F-6.2°C 70% 2.0 mph NE3.2 kmh NE 12.0 mph19.3 kmh 29.96 in1014.6 mb 0.00 in0.0 mm 0.00 in0.0 mm 0.00 in0.0 mm
10:27 AM 29.5°F-1.4°C 20.9°F-6.2°C 70% 4.0 mph NE6.4 kmh NE 12.0 mph19.3 kmh 29.95 in1014.2 mb 0.00 in0.0 mm 0.00 in0.0 mm 0.00 in0.0 mm
10:28 AM 29.5°F-1.4°C 21.3°F-5.9°C 71% 7.0 mph NE11.3 kmh NE 12.0 mph19.3 kmh 29.96 in1014.6 mb 0.00 in0.0 mm 0.00 in0.0 mm 0.00 in0.0 mm
10:29 AM 29.5°F-1.4°C 21.3°F-5.9°C 71% 7.0 mph ENE11.3 kmh ENE 12.0 mph19.3 kmh 29.95 in1014.2 mb 0.00 in0.0 mm 0.00 in0.0 mm 0.00 in0.0 mm
10:30 AM 29.6°F-1.3°C 21.0°F-6.1°C 70% 6.0 mph NE9.7 kmh NE 12.0 mph19.3 kmh 29.95 in1014.2 mb 0.00 in0.0 mm 0.00 in0.0 mm 0.00 in0.0 mm
10:31 AM 29.6°F-1.3°C 21.4°F-5.9°C 71% 4.0 mph N6.4 kmh N 12.0 mph19.3 kmh 29.95 in1014.2 mb 0.00 in0.0 mm 0.00 in0.0 mm 0.00 in0.0 mm
10:32 AM 29.6°F-1.3°C 21.0°F-6.1°C 70% 3.0 mph NNE4.8 kmh NNE 12.0 mph19.3 kmh 29.95 in1014.2 mb 0.00 in0.0 mm 0.00 in0.0 mm 0.00 in0.0 mm
10:33 AM 29.6°F-1.3°C 21.0°F-6.1°C 70% 2.0 mph 3.2 kmh 12.0 mph19.3 kmh 29.95 in1014.2 mb 0.00 in0.0 mm 0.00 in0.0 mm 0.00 in0.0 mm
10:34 AM 29.7°F-1.3°C 21.5°F-5.8°C 71% 3.0 mph NE4.8 kmh NE 12.0 mph19.3 kmh 29.96 in1014.6 mb 0.00 in0.0 mm 0.00 in0.0 mm 0.00 in0.0 mm
10:35 AM 29.7°F-1.3°C 21.5°F-5.8°C 71% 5.0 mph ENE8.0 kmh ENE 12.0 mph19.3 kmh 29.95 in1014.2 mb 0.00 in0.0 mm 0.00 in0.0 mm 0.00 in0.0 mm
10:36 AM 29.8°F-1.2°C 21.2°F-6.0°C 70% 9.0 mph NE14.5 kmh NE 12.0 mph19.3 kmh 29.95 in1014.2 mb 0.00 in0.0 mm 0.00 in0.0 mm 0.00 in0.0 mm
10:37 AM 29.8°F-1.2°C 20.9°F-6.2°C 69% 9.0 mph ENE14.5 kmh ENE 13.0 mph20.9 kmh 29.95 in1014.2 mb 0.00 in0.0 mm 0.00 in0.0 mm 0.00 in0.0 mm
10:38 AM 29.8°F-1.2°C 20.9°F-6.2°C 69% 10.0 mph NE16.1 kmh NE 13.0 mph20.9 kmh 29.95 in1014.2 mb 0.00 in0.0 mm 0.00 in0.0 mm 0.00 in0.0 mm
10:39 AM 29.8°F-1.2°C 20.9°F-6.2°C 69% 5.0 mph NE8.0 kmh NE 13.0 mph20.9 kmh 29.95 in1014.2 mb 0.00 in0.0 mm 0.00 in0.0 mm 0.00 in0.0 mm
10:40 AM 29.8°F-1.2°C 20.9°F-6.2°C 69% 8.0 mph NE12.9 kmh NE 13.0 mph20.9 kmh 29.95 in1014.2 mb 0.00 in0.0 mm 0.00 in0.0 mm 0.00 in0.0 mm
10:41 AM 29.8°F-1.2°C 20.9°F-6.2°C 69% 5.0 mph NE8.0 kmh NE 13.0 mph20.9 kmh 29.95 in1014.2 mb 0.00 in0.0 mm 0.00 in0.0 mm 0.00 in0.0 mm
10:42 AM 29.8°F-1.2°C 20.9°F-6.2°C 69% 6.0 mph NE9.7 kmh NE 13.0 mph20.9 kmh 29.95 in1014.2 mb 0.00 in0.0 mm 0.00 in0.0 mm 0.00 in0.0 mm
10:43 AM 29.8°F-1.2°C 20.9°F-6.2°C 69% 9.0 mph ENE14.5 kmh ENE 13.0 mph20.9 kmh 29.96 in1014.6 mb 0.00 in0.0 mm 0.00 in0.0 mm 0.00 in0.0 mm
10:44 AM 29.8°F-1.2°C 20.5°F-6.4°C 68% 5.0 mph N8.0 kmh N 13.0 mph20.9 kmh 29.96 in1014.6 mb 0.00 in0.0 mm 0.00 in0.0 mm 0.00 in0.0 mm
10:45 AM 29.9°F-1.2°C 20.6°F-6.3°C 68% 9.0 mph NE14.5 kmh NE 13.0 mph20.9 kmh 29.95 in1014.2 mb 0.00 in0.0 mm 0.00 in0.0 mm 0.00 in0.0 mm
10:46 AM 29.9°F-1.2°C 20.6°F-6.3°C 68% 7.0 mph ENE11.3 kmh ENE 13.0 mph20.9 kmh 29.96 in1014.6 mb 0.00 in0.0 mm 0.00 in0.0 mm 0.00 in0.0 mm
10:47 AM 29.9°F-1.2°C 20.6°F-6.3°C 68% 5.0 mph NE8.0 kmh NE 13.0 mph20.9 kmh 29.95 in1014.2 mb 0.00 in0.0 mm 0.00 in0.0 mm 0.00 in0.0 mm
10:48 AM 29.9°F-1.2°C 20.6°F-6.3°C 68% 2.0 mph NE3.2 kmh NE 13.0 mph20.9 kmh 29.95 in1014.2 mb 0.00 in0.0 mm 0.00 in0.0 mm 0.00 in0.0 mm
10:49 AM 30.0°F-1.1°C 21.1°F-6.1°C 69% 3.0 mph NE4.8 kmh NE 13.0 mph20.9 kmh 29.95 in1014.2 mb 0.00 in0.0 mm 0.00 in0.0 mm 0.00 in0.0 mm
10:50 AM 30.0°F-1.1°C 21.1°F-6.1°C 69% 9.0 mph NNE14.5 kmh NNE 13.0 mph20.9 kmh 29.96 in1014.6 mb 0.00 in0.0 mm 0.00 in0.0 mm 0.00 in0.0 mm
10:51 AM 30.1°F-1.1°C 20.5°F-6.4°C 67% 7.0 mph NE11.3 kmh NE 13.0 mph20.9 kmh 29.95 in1014.2 mb 0.00 in0.0 mm 0.00 in0.0 mm 0.00 in0.0 mm
10:52 AM 30.0°F-1.1°C 20.4°F-6.4°C 67% 3.0 mph ENE4.8 kmh ENE 13.0 mph20.9 kmh 29.95 in1014.2 mb 0.00 in0.0 mm 0.00 in0.0 mm 0.00 in0.0 mm
10:53 AM 30.0°F-1.1°C 20.4°F-6.4°C 67% 8.0 mph NNE12.9 kmh NNE 13.0 mph20.9 kmh 29.95 in1014.2 mb 0.00 in0.0 mm 0.00 in0.0 mm 0.00 in0.0 mm
10:54 AM 30.1°F-1.1°C 20.5°F-6.4°C 67% 3.0 mph NNE4.8 kmh NNE 13.0 mph20.9 kmh 29.95 in1014.2 mb 0.00 in0.0 mm 0.00 in0.0 mm 0.00 in0.0 mm
10:55 AM 30.1°F-1.1°C 20.5°F-6.4°C 67% 4.0 mph NNE6.4 kmh NNE 13.0 mph20.9 kmh 29.95 in1014.2 mb 0.00 in0.0 mm 0.00 in0.0 mm 0.00 in0.0 mm
10:56 AM 30.1°F-1.1°C 20.5°F-6.4°C 67% 6.0 mph NNE9.7 kmh NNE 13.0 mph20.9 kmh 29.95 in1014.2 mb 0.00 in0.0 mm 0.00 in0.0 mm 0.00 in0.0 mm
10:57 AM 30.1°F-1.1°C 20.5°F-6.4°C 67% 5.0 mph NNE8.0 kmh NNE 12.0 mph19.3 kmh 29.95 in1014.2 mb 0.00 in0.0 mm 0.00 in0.0 mm 0.00 in0.0 mm
10:58 AM 30.1°F-1.1°C 20.5°F-6.4°C 67% 6.0 mph NE9.7 kmh NE 12.0 mph19.3 kmh 29.95 in1014.2 mb 0.00 in0.0 mm 0.00 in0.0 mm 0.00 in0.0 mm
10:59 AM 30.1°F-1.1°C 20.1°F-6.6°C 66% 6.0 mph NNE9.7 kmh NNE 12.0 mph19.3 kmh 29.96 in1014.6 mb 0.00 in0.0 mm 0.00 in0.0 mm 0.00 in0.0 mm
11:00 AM 30.1°F-1.1°C 20.1°F-6.6°C 66% 7.0 mph NNE11.3 kmh NNE 12.0 mph19.3 kmh 29.95 in1014.2 mb 0.00 in0.0 mm 0.00 in0.0 mm 0.00 in0.0 mm
11:01 AM 30.2°F-1.0°C 20.2°F-6.6°C 66% 8.0 mph N12.9 kmh N 12.0 mph19.3 kmh 29.95 in1014.2 mb 0.00 in0.0 mm 0.00 in0.0 mm 0.00 in0.0 mm
11:02 AM 30.2°F-1.0°C 20.6°F-6.3°C 67% 11.0 mph N17.7 kmh N 12.0 mph19.3 kmh 29.95 in1014.2 mb 0.00 in0.0 mm 0.00 in0.0 mm 0.00 in0.0 mm
11:03 AM 30.2°F-1.0°C 20.2°F-6.6°C 66% 8.0 mph NNE12.9 kmh NNE 12.0 mph19.3 kmh 29.95 in1014.2 mb 0.00 in0.0 mm 0.00 in0.0 mm 0.00 in0.0 mm
11:04 AM 30.2°F-1.0°C 20.2°F-6.6°C 66% 8.0 mph N12.9 kmh N 12.0 mph19.3 kmh 29.95 in1014.2 mb 0.00 in0.0 mm 0.00 in0.0 mm 0.00 in0.0 mm
11:05 AM 30.2°F-1.0°C 20.2°F-6.6°C 66% 4.0 mph NE6.4 kmh NE 15.0 mph24.1 kmh 29.95 in1014.2 mb 0.00 in0.0 mm 0.00 in0.0 mm 0.00 in0.0 mm
11:06 AM 30.2°F-1.0°C 19.9°F-6.7°C 65% 8.0 mph ENE12.9 kmh ENE 15.0 mph24.1 kmh 29.96 in1014.6 mb 0.00 in0.0 mm 0.00 in0.0 mm 0.00 in0.0 mm
11:07 AM 30.2°F-1.0°C 19.9°F-6.7°C 65% 6.0 mph NE9.7 kmh NE 15.0 mph24.1 kmh 29.96 in1014.6 mb 0.00 in0.0 mm 0.00 in0.0 mm 0.00 in0.0 mm
11:08 AM 30.2°F-1.0°C 20.2°F-6.6°C 66% 3.0 mph NE4.8 kmh NE 15.0 mph24.1 kmh 29.96 in1014.6 mb 0.00 in0.0 mm 0.00 in0.0 mm 0.00 in0.0 mm
11:09 AM 30.3°F-0.9°C 20.0°F-6.7°C 65% 6.0 mph NNE9.7 kmh NNE 15.0 mph24.1 kmh 29.96 in1014.6 mb 0.00 in0.0 mm 0.00 in0.0 mm 0.00 in0.0 mm
11:10 AM 30.3°F-0.9°C 20.3°F-6.5°C 66% 3.0 mph NE4.8 kmh NE 15.0 mph24.1 kmh 29.96 in1014.6 mb 0.00 in0.0 mm 0.00 in0.0 mm 0.00 in0.0 mm
11:11 AM 30.3°F-0.9°C 20.3°F-6.5°C 66% 4.0 mph NE6.4 kmh NE 15.0 mph24.1 kmh 29.96 in1014.6 mb 0.00 in0.0 mm 0.00 in0.0 mm 0.00 in0.0 mm
11:12 AM 30.3°F-0.9°C 20.3°F-6.5°C 66% 7.0 mph NE11.3 kmh NE 15.0 mph24.1 kmh 29.96 in1014.6 mb 0.00 in0.0 mm 0.00 in0.0 mm 0.00 in0.0 mm
11:13 AM 30.3°F-0.9°C 20.3°F-6.5°C 66% 5.0 mph NE8.0 kmh NE 15.0 mph24.1 kmh 29.96 in1014.6 mb 0.00 in0.0 mm 0.00 in0.0 mm 0.00 in0.0 mm
11:14 AM 30.4°F-0.9°C 20.1°F-6.6°C 65% 7.0 mph NE11.3 kmh NE 15.0 mph24.1 kmh 29.96 in1014.6 mb 0.00 in0.0 mm 0.00 in0.0 mm 0.00 in0.0 mm
11:15 AM 30.4°F-0.9°C 20.1°F-6.6°C 65% 4.0 mph N6.4 kmh N 15.0 mph24.1 kmh 29.96 in1014.6 mb 0.00 in0.0 mm 0.00 in0.0 mm 0.00 in0.0 mm
11:16 AM 30.4°F-0.9°C 20.1°F-6.6°C 65% 4.0 mph NE6.4 kmh NE 15.0 mph24.1 kmh 29.96 in1014.6 mb 0.00 in0.0 mm 0.00 in0.0 mm 0.00 in0.0 mm
11:17 AM 30.4°F-0.9°C 20.1°F-6.6°C 65% 6.0 mph NE9.7 kmh NE 15.0 mph24.1 kmh 29.96 in1014.6 mb 0.00 in0.0 mm 0.00 in0.0 mm 0.00 in0.0 mm
11:18 AM 30.4°F-0.9°C 20.1°F-6.6°C 65% 9.0 mph NE14.5 kmh NE 15.0 mph24.1 kmh 29.96 in1014.6 mb 0.00 in0.0 mm 0.00 in0.0 mm 0.00 in0.0 mm
11:19 AM 30.4°F-0.9°C 19.7°F-6.8°C 64% 11.0 mph NNE17.7 kmh NNE 15.0 mph24.1 kmh 29.96 in1014.6 mb 0.00 in0.0 mm 0.00 in0.0 mm 0.00 in0.0 mm
11:20 AM 30.4°F-0.9°C 19.7°F-6.8°C 64% 8.0 mph NE12.9 kmh NE 15.0 mph24.1 kmh 29.95 in1014.2 mb 0.00 in0.0 mm 0.00 in0.0 mm 0.00 in0.0 mm
11:21 AM 30.4°F-0.9°C 19.7°F-6.8°C 64% 8.0 mph N12.9 kmh N 15.0 mph24.1 kmh 29.96 in1014.6 mb 0.00 in0.0 mm 0.00 in0.0 mm 0.00 in0.0 mm
11:22 AM 30.3°F-0.9°C 19.6°F-6.9°C 64% 10.0 mph NNE16.1 kmh NNE 15.0 mph24.1 kmh 29.95 in1014.2 mb 0.00 in0.0 mm 0.00 in0.0 mm 0.00 in0.0 mm
11:23 AM 30.4°F-0.9°C 19.7°F-6.8°C 64% 4.0 mph NNE6.4 kmh NNE 15.0 mph24.1 kmh 29.96 in1014.6 mb 0.00 in0.0 mm 0.00 in0.0 mm 0.00 in0.0 mm
11:24 AM 30.4°F-0.9°C 20.1°F-6.6°C 65% 5.0 mph NNE8.0 kmh NNE 15.0 mph24.1 kmh 29.96 in1014.6 mb 0.00 in0.0 mm 0.00 in0.0 mm 0.00 in0.0 mm
11:25 AM 30.5°F-0.8°C 20.2°F-6.6°C 65% 4.0 mph NE6.4 kmh NE 13.0 mph20.9 kmh 29.96 in1014.6 mb 0.00 in0.0 mm 0.00 in0.0 mm 0.00 in0.0 mm
11:26 AM 30.5°F-0.8°C 19.8°F-6.8°C 64% 5.0 mph NNW8.0 kmh NNW 13.0 mph20.9 kmh 29.95 in1014.2 mb 0.00 in0.0 mm 0.00 in0.0 mm 0.00 in0.0 mm
11:27 AM 30.5°F-0.8°C 19.4°F-7.0°C 63% 10.0 mph 16.1 kmh 15.0 mph24.1 kmh 29.95 in1014.2 mb 0.00 in0.0 mm 0.00 in0.0 mm 0.00 in0.0 mm
11:28 AM 30.5°F-0.8°C 19.4°F-7.0°C 63% 7.0 mph NE11.3 kmh NE 15.0 mph24.1 kmh 29.95 in1014.2 mb 0.00 in0.0 mm 0.00 in0.0 mm 0.00 in0.0 mm
11:29 AM 30.5°F-0.8°C 19.8°F-6.8°C 64% 4.0 mph NNE6.4 kmh NNE 15.0 mph24.1 kmh 29.95 in1014.2 mb 0.00 in0.0 mm 0.00 in0.0 mm 0.00 in0.0 mm
11:30 AM 30.6°F-0.8°C 19.9°F-6.7°C 64% 5.0 mph NNE8.0 kmh NNE 15.0 mph24.1 kmh 29.95 in1014.2 mb 0.00 in0.0 mm 0.00 in0.0 mm 0.00 in0.0 mm
11:31 AM 30.6°F-0.8°C 19.9°F-6.7°C 64% 7.0 mph NE11.3 kmh NE 15.0 mph24.1 kmh 29.96 in1014.6 mb 0.00 in0.0 mm 0.00 in0.0 mm 0.00 in0.0 mm
11:32 AM 30.6°F-0.8°C 19.9°F-6.7°C 64% 5.0 mph NNE8.0 kmh NNE 15.0 mph24.1 kmh 29.95 in1014.2 mb 0.00 in0.0 mm 0.00 in0.0 mm 0.00 in0.0 mm
11:33 AM 30.6°F-0.8°C 19.9°F-6.7°C 64% 9.0 mph ENE14.5 kmh ENE 15.0 mph24.1 kmh 29.95 in1014.2 mb 0.00 in0.0 mm 0.00 in0.0 mm 0.00 in0.0 mm
11:34 AM 30.6°F-0.8°C 19.9°F-6.7°C 64% 5.0 mph ENE8.0 kmh ENE 15.0 mph24.1 kmh 29.95 in1014.2 mb 0.00 in0.0 mm 0.00 in0.0 mm 0.00 in0.0 mm
11:35 AM 30.6°F-0.8°C 19.5°F-6.9°C 63% 6.0 mph NNE9.7 kmh NNE 15.0 mph24.1 kmh 29.95 in1014.2 mb 0.00 in0.0 mm 0.00 in0.0 mm 0.00 in0.0 mm
11:36 AM 30.6°F-0.8°C 19.9°F-6.7°C 64% 8.0 mph NE12.9 kmh NE 15.0 mph24.1 kmh 29.95 in1014.2 mb 0.00 in0.0 mm 0.00 in0.0 mm 0.00 in0.0 mm
11:37 AM 30.5°F-0.8°C 19.4°F-7.0°C 63% 6.0 mph NE9.7 kmh NE 15.0 mph24.1 kmh 29.96 in1014.6 mb 0.00 in0.0 mm 0.00 in0.0 mm 0.00 in0.0 mm
11:38 AM 30.5°F-0.8°C 19.4°F-7.0°C 63% 6.0 mph NE9.7 kmh NE 15.0 mph24.1 kmh 29.95 in1014.2 mb 0.00 in0.0 mm 0.00 in0.0 mm 0.00 in0.0 mm
11:39 AM 30.5°F-0.8°C 19.4°F-7.0°C 63% 11.0 mph NNE17.7 kmh NNE 15.0 mph24.1 kmh 29.96 in1014.6 mb 0.00 in0.0 mm 0.00 in0.0 mm 0.00 in0.0 mm
11:40 AM 30.6°F-0.8°C 19.5°F-6.9°C 63% 8.0 mph NE12.9 kmh NE 15.0 mph24.1 kmh 29.95 in1014.2 mb 0.00 in0.0 mm 0.00 in0.0 mm 0.00 in0.0 mm
11:41 AM 30.6°F-0.8°C 19.5°F-6.9°C 63% 6.0 mph NNE9.7 kmh NNE 15.0 mph24.1 kmh 29.95 in1014.2 mb 0.00 in0.0 mm 0.00 in0.0 mm 0.00 in0.0 mm
11:42 AM 30.6°F-0.8°C 19.2°F-7.1°C 62% 4.0 mph NNE6.4 kmh NNE 15.0 mph24.1 kmh 29.95 in1014.2 mb 0.00 in0.0 mm 0.00 in0.0 mm 0.00 in0.0 mm
11:43 AM 30.6°F-0.8°C 19.5°F-6.9°C 63% 7.0 mph NNE11.3 kmh NNE 15.0 mph24.1 kmh 29.95 in1014.2 mb 0.00 in0.0 mm 0.00 in0.0 mm 0.00 in0.0 mm
11:45 AM 30.6°F-0.8°C 19.2°F-7.1°C 62% 10.0 mph ENE16.1 kmh ENE 15.0 mph24.1 kmh 29.95 in1014.2 mb 0.00 in0.0 mm 0.00 in0.0 mm 0.00 in0.0 mm
11:46 AM 30.6°F-0.8°C 18.8°F-7.3°C 61% 8.0 mph ENE12.9 kmh ENE 15.0 mph24.1 kmh 29.95 in1014.2 mb 0.00 in0.0 mm 0.00 in0.0 mm 0.00 in0.0 mm
11:47 AM 30.6°F-0.8°C 19.2°F-7.1°C 62% 10.0 mph NE16.1 kmh NE 15.0 mph24.1 kmh 29.95 in1014.2 mb 0.00 in0.0 mm 0.00 in0.0 mm 0.00 in0.0 mm
11:48 AM 30.6°F-0.8°C 18.8°F-7.3°C 61% 10.0 mph NE16.1 kmh NE 15.0 mph24.1 kmh 29.95 in1014.2 mb 0.00 in0.0 mm 0.00 in0.0 mm 0.00 in0.0 mm
11:49 AM 30.6°F-0.8°C 19.2°F-7.1°C 62% 8.0 mph ENE12.9 kmh ENE 15.0 mph24.1 kmh 29.95 in1014.2 mb 0.00 in0.0 mm 0.00 in0.0 mm 0.00 in0.0 mm
11:50 AM 30.6°F-0.8°C 19.2°F-7.1°C 62% 11.0 mph NE17.7 kmh NE 15.0 mph24.1 kmh 29.96 in1014.6 mb 0.00 in0.0 mm 0.00 in0.0 mm 0.00 in0.0 mm
11:51 AM 30.6°F-0.8°C 19.2°F-7.1°C 62% 6.0 mph NE9.7 kmh NE 15.0 mph24.1 kmh 29.95 in1014.2 mb 0.00 in0.0 mm 0.00 in0.0 mm 0.00 in0.0 mm
11:52 AM 30.6°F-0.8°C 19.2°F-7.1°C 62% 8.0 mph NE12.9 kmh NE 15.0 mph24.1 kmh 29.95 in1014.2 mb 0.00 in0.0 mm 0.00 in0.0 mm 0.00 in0.0 mm
11:53 AM 30.6°F-0.8°C 19.2°F-7.1°C 62% 7.0 mph NE11.3 kmh NE 15.0 mph24.1 kmh 29.95 in1014.2 mb 0.00 in0.0 mm 0.00 in0.0 mm 0.00 in0.0 mm
11:54 AM 30.6°F-0.8°C 19.2°F-7.1°C 62% 10.0 mph NE16.1 kmh NE 15.0 mph24.1 kmh 29.95 in1014.2 mb 0.00 in0.0 mm 0.00 in0.0 mm 0.00 in0.0 mm
11:55 AM 30.6°F-0.8°C 19.2°F-7.1°C 62% 4.0 mph NNE6.4 kmh NNE 15.0 mph24.1 kmh 29.95 in1014.2 mb 0.00 in0.0 mm 0.00 in0.0 mm 0.00 in0.0 mm
11:56 AM 30.6°F-0.8°C 19.2°F-7.1°C 62% 9.0 mph NE14.5 kmh NE 15.0 mph24.1 kmh 29.95 in1014.2 mb 0.00 in0.0 mm 0.00 in0.0 mm 0.00 in0.0 mm
11:57 AM 30.7°F-0.7°C 19.2°F-7.1°C 62% 4.0 mph NNE6.4 kmh NNE 13.0 mph20.9 kmh 29.95 in1014.2 mb 0.00 in0.0 mm 0.00 in0.0 mm 0.00 in0.0 mm
11:58 AM 30.7°F-0.7°C 19.6°F-6.9°C 63% 9.0 mph NE14.5 kmh NE 13.0 mph20.9 kmh 29.95 in1014.2 mb 0.00 in0.0 mm 0.00 in0.0 mm 0.00 in0.0 mm
11:59 AM 30.7°F-0.7°C 18.9°F-7.3°C 61% 7.0 mph NNE11.3 kmh NNE 13.0 mph20.9 kmh 29.95 in1014.2 mb 0.00 in0.0 mm 0.00 in0.0 mm 0.00 in0.0 mm
12:00 PM 30.7°F-0.7°C 18.9°F-7.3°C 61% 9.0 mph NE14.5 kmh NE 13.0 mph20.9 kmh 29.95 in1014.2 mb 0.00 in0.0 mm 0.00 in0.0 mm 0.00 in0.0 mm
12:01 PM 30.7°F-0.7°C 18.9°F-7.3°C 61% 4.0 mph NNE6.4 kmh NNE 13.0 mph20.9 kmh 29.95 in1014.2 mb 0.00 in0.0 mm 0.00 in0.0 mm 0.00 in0.0 mm
12:02 PM 30.7°F-0.7°C 18.9°F-7.3°C 61% 7.0 mph NE11.3 kmh NE 13.0 mph20.9 kmh 29.95 in1014.2 mb 0.00 in0.0 mm 0.00 in0.0 mm 0.00 in0.0 mm
12:03 PM 30.8°F-0.7°C 19.0°F-7.2°C 61% 5.0 mph NE8.0 kmh NE 13.0 mph20.9 kmh 29.95 in1014.2 mb 0.00 in0.0 mm 0.00 in0.0 mm 0.00 in0.0 mm
12:04 PM 30.8°F-0.7°C 19.0°F-7.2°C 61% 5.0 mph NNW8.0 kmh NNW 16.0 mph25.7 kmh 29.95 in1014.2 mb 0.00 in0.0 mm 0.00 in0.0 mm 0.00 in0.0 mm
12:05 PM 30.8°F-0.7°C 19.0°F-7.2°C 61% 9.0 mph NE14.5 kmh NE 16.0 mph25.7 kmh 29.95 in1014.2 mb 0.00 in0.0 mm 0.00 in0.0 mm 0.00 in0.0 mm
12:06 PM 30.8°F-0.7°C 19.0°F-7.2°C 61% 5.0 mph NE8.0 kmh NE 16.0 mph25.7 kmh 29.95 in1014.2 mb 0.00 in0.0 mm 0.00 in0.0 mm 0.00 in0.0 mm
12:07 PM 30.8°F-0.7°C 19.3°F-7.1°C 62% 4.0 mph NNE6.4 kmh NNE 16.0 mph25.7 kmh 29.95 in1014.2 mb 0.00 in0.0 mm 0.00 in0.0 mm 0.00 in0.0 mm
12:08 PM 30.8°F-0.7°C 19.3°F-7.1°C 62% 6.0 mph NNE9.7 kmh NNE 16.0 mph25.7 kmh 29.95 in1014.2 mb 0.00 in0.0 mm 0.00 in0.0 mm 0.00 in0.0 mm
12:09 PM 30.9°F-0.6°C 19.1°F-7.2°C 61% 9.0 mph N14.5 kmh N 16.0 mph25.7 kmh 29.95 in1014.2 mb 0.00 in0.0 mm 0.00 in0.0 mm 0.00 in0.0 mm
12:10 PM 30.9°F-0.6°C 19.1°F-7.2°C 61% 9.0 mph N14.5 kmh N 16.0 mph25.7 kmh 29.95 in1014.2 mb 0.00 in0.0 mm 0.00 in0.0 mm 0.00 in0.0 mm
12:11 PM 30.9°F-0.6°C 18.7°F-7.4°C 60% 4.0 mph NNE6.4 kmh NNE 16.0 mph25.7 kmh 29.95 in1014.2 mb 0.00 in0.0 mm 0.00 in0.0 mm 0.00 in0.0 mm
12:12 PM 30.9°F-0.6°C 19.1°F-7.2°C 61% 6.0 mph NE9.7 kmh NE 16.0 mph25.7 kmh 29.95 in1014.2 mb 0.00 in0.0 mm 0.00 in0.0 mm 0.00 in0.0 mm
12:13 PM 30.9°F-0.6°C 19.1°F-7.2°C 61% 6.0 mph 9.7 kmh 16.0 mph25.7 kmh 29.95 in1014.2 mb 0.00 in0.0 mm 0.00 in0.0 mm 0.00 in0.0 mm
12:14 PM 31.0°F-0.6°C 18.8°F-7.3°C 60% 8.0 mph NE12.9 kmh NE 16.0 mph25.7 kmh 29.95 in1014.2 mb 0.00 in0.0 mm 0.00 in0.0 mm 0.00 in0.0 mm
12:15 PM 31.0°F-0.6°C 19.1°F-7.2°C 61% 8.0 mph NE12.9 kmh NE 16.0 mph25.7 kmh 29.95 in1014.2 mb 0.00 in0.0 mm 0.00 in0.0 mm 0.00 in0.0 mm
12:16 PM 31.0°F-0.6°C 18.8°F-7.3°C 60% 5.0 mph NE8.0 kmh NE 16.0 mph25.7 kmh 29.95 in1014.2 mb 0.00 in0.0 mm 0.00 in0.0 mm 0.00 in0.0 mm
12:17 PM 30.9°F-0.6°C 19.1°F-7.2°C 61% 7.0 mph ENE11.3 kmh ENE 16.0 mph25.7 kmh 29.95 in1014.2 mb 0.00 in0.0 mm 0.00 in0.0 mm 0.00 in0.0 mm
12:18 PM 30.9°F-0.6°C 18.7°F-7.4°C 60% 5.0 mph NNE8.0 kmh NNE 16.0 mph25.7 kmh 29.95 in1014.2 mb 0.00 in0.0 mm 0.00 in0.0 mm 0.00 in0.0 mm
12:19 PM 30.9°F-0.6°C 19.1°F-7.2°C 61% 6.0 mph NE9.7 kmh NE 16.0 mph25.7 kmh 29.95 in1014.2 mb 0.00 in0.0 mm 0.00 in0.0 mm 0.00 in0.0 mm
12:20 PM 31.0°F-0.6°C 19.5°F-6.9°C 62% 7.0 mph N11.3 kmh N 16.0 mph25.7 kmh 29.95 in1014.2 mb 0.00 in0.0 mm 0.00 in0.0 mm 0.00 in0.0 mm
12:21 PM 31.0°F-0.6°C 18.8°F-7.3°C 60% 5.0 mph NE8.0 kmh NE 16.0 mph25.7 kmh 29.95 in1014.2 mb 0.00 in0.0 mm 0.00 in0.0 mm 0.00 in0.0 mm
12:22 PM 31.0°F-0.6°C 19.1°F-7.2°C 61% 5.0 mph NE8.0 kmh NE 16.0 mph25.7 kmh 29.95 in1014.2 mb 0.00 in0.0 mm 0.00 in0.0 mm 0.00 in0.0 mm
12:23 PM 31.0°F-0.6°C 18.8°F-7.3°C 60% 8.0 mph NNE12.9 kmh NNE 16.0 mph25.7 kmh 29.95 in1014.2 mb 0.00 in0.0 mm 0.00 in0.0 mm 0.00 in0.0 mm
12:24 PM 31.0°F-0.6°C 18.4°F-7.6°C 59% 8.0 mph NE12.9 kmh NE 13.0 mph20.9 kmh 29.95 in1014.2 mb 0.00 in0.0 mm 0.00 in0.0 mm 0.00 in0.0 mm
12:25 PM 31.0°F-0.6°C 18.8°F-7.3°C 60% 12.0 mph NE19.3 kmh NE 13.0 mph20.9 kmh 29.95 in1014.2 mb 0.00 in0.0 mm 0.00 in0.0 mm 0.00 in0.0 mm
12:26 PM 31.0°F-0.6°C 18.8°F-7.3°C 60% 10.0 mph ENE16.1 kmh ENE 15.0 mph24.1 kmh 29.95 in1014.2 mb 0.00 in0.0 mm 0.00 in0.0 mm 0.00 in0.0 mm
12:27 PM 31.0°F-0.6°C 18.8°F-7.3°C 60% 7.0 mph NE11.3 kmh NE 15.0 mph24.1 kmh 29.95 in1014.2 mb 0.00 in0.0 mm 0.00 in0.0 mm 0.00 in0.0 mm
12:28 PM 31.0°F-0.6°C 18.8°F-7.3°C 60% 5.0 mph NE8.0 kmh NE 15.0 mph24.1 kmh 29.95 in1014.2 mb 0.00 in0.0 mm 0.00 in0.0 mm 0.00 in0.0 mm
12:29 PM 31.0°F-0.6°C 19.1°F-7.2°C 61% 9.0 mph ENE14.5 kmh ENE 15.0 mph24.1 kmh 29.95 in1014.2 mb 0.00 in0.0 mm 0.00 in0.0 mm 0.00 in0.0 mm
12:30 PM 31.0°F-0.6°C 18.8°F-7.3°C 60% 5.0 mph NE8.0 kmh NE 15.0 mph24.1 kmh 29.95 in1014.2 mb 0.00 in0.0 mm 0.00 in0.0 mm 0.00 in0.0 mm
12:31 PM 31.0°F-0.6°C 19.1°F-7.2°C 61% 4.0 mph NNE6.4 kmh NNE 15.0 mph24.1 kmh 29.95 in1014.2 mb 0.00 in0.0 mm 0.00 in0.0 mm 0.00 in0.0 mm
12:32 PM 31.0°F-0.6°C 19.1°F-7.2°C 61% 4.0 mph NNE6.4 kmh NNE 15.0 mph24.1 kmh 29.95 in1014.2 mb 0.00 in0.0 mm 0.00 in0.0 mm 0.00 in0.0 mm
12:33 PM 31.1°F-0.5°C 19.2°F-7.1°C 61% 7.0 mph NNE11.3 kmh NNE 15.0 mph24.1 kmh 29.95 in1014.2 mb 0.00 in0.0 mm 0.00 in0.0 mm 0.00 in0.0 mm
12:34 PM 31.1°F-0.5°C 18.9°F-7.3°C 60% 2.0 mph NE3.2 kmh NE 15.0 mph24.1 kmh 29.95 in1014.2 mb 0.00 in0.0 mm 0.00 in0.0 mm 0.00 in0.0 mm
12:35 PM 31.2°F-0.4°C 19.0°F-7.2°C 60% 7.0 mph N11.3 kmh N 15.0 mph24.1 kmh 29.95 in1014.2 mb 0.00 in0.0 mm 0.00 in0.0 mm 0.00 in0.0 mm
12:36 PM 31.2°F-0.4°C 19.0°F-7.2°C 60% 9.0 mph NE14.5 kmh NE 15.0 mph24.1 kmh 29.95 in1014.2 mb 0.00 in0.0 mm 0.00 in0.0 mm 0.00 in0.0 mm
12:37 PM 31.3°F-0.4°C 18.7°F-7.4°C 59% 5.0 mph NE8.0 kmh NE 15.0 mph24.1 kmh 29.95 in1014.2 mb 0.00 in0.0 mm 0.00 in0.0 mm 0.00 in0.0 mm
12:38 PM 31.3°F-0.4°C 19.0°F-7.2°C 60% 3.0 mph NE4.8 kmh NE 15.0 mph24.1 kmh 29.95 in1014.2 mb 0.00 in0.0 mm 0.00 in0.0 mm 0.00 in0.0 mm
12:39 PM 31.3°F-0.4°C 19.0°F-7.2°C 60% 9.0 mph ENE14.5 kmh ENE 15.0 mph24.1 kmh 29.95 in1014.2 mb 0.00 in0.0 mm 0.00 in0.0 mm 0.00 in0.0 mm
12:40 PM 31.4°F-0.3°C 19.1°F-7.2°C 60% 9.0 mph ENE14.5 kmh ENE 15.0 mph24.1 kmh 29.95 in1014.2 mb 0.00 in0.0 mm 0.00 in0.0 mm 0.00 in0.0 mm
12:41 PM 31.4°F-0.3°C 18.8°F-7.3°C 59% 4.0 mph NNE6.4 kmh NNE 15.0 mph24.1 kmh 29.95 in1014.2 mb 0.00 in0.0 mm 0.00 in0.0 mm 0.00 in0.0 mm
12:42 PM 31.5°F-0.3°C 19.6°F-6.9°C 61% 4.0 mph N6.4 kmh N 15.0 mph24.1 kmh 29.95 in1014.2 mb 0.00 in0.0 mm 0.00 in0.0 mm 0.00 in0.0 mm
12:43 PM 31.6°F-0.2°C 19.3°F-7.1°C 60% 6.0 mph NNE9.7 kmh NNE 15.0 mph24.1 kmh 29.95 in1014.2 mb 0.00 in0.0 mm 0.00 in0.0 mm 0.00 in0.0 mm
12:44 PM 31.6°F-0.2°C 19.3°F-7.1°C 60% 8.0 mph ENE12.9 kmh ENE 15.0 mph24.1 kmh 29.95 in1014.2 mb 0.00 in0.0 mm 0.00 in0.0 mm 0.00 in0.0 mm
12:45 PM 31.7°F-0.2°C 19.0°F-7.2°C 59% 4.0 mph ENE6.4 kmh ENE 15.0 mph24.1 kmh 29.95 in1014.2 mb 0.00 in0.0 mm 0.00 in0.0 mm 0.00 in0.0 mm
12:46 PM 31.6°F-0.2°C 19.3°F-7.1°C 60% 8.0 mph ENE12.9 kmh ENE 12.0 mph19.3 kmh 29.95 in1014.2 mb 0.00 in0.0 mm 0.00 in0.0 mm 0.00 in0.0 mm
12:47 PM 31.6°F-0.2°C 18.9°F-7.3°C 59% 3.0 mph NE4.8 kmh NE 12.0 mph19.3 kmh 29.95 in1014.2 mb 0.00 in0.0 mm 0.00 in0.0 mm 0.00 in0.0 mm
12:48 PM 31.7°F-0.2°C 19.0°F-7.2°C 59% 2.0 mph NE3.2 kmh NE 12.0 mph19.3 kmh 29.95 in1014.2 mb 0.00 in0.0 mm 0.00 in0.0 mm 0.00 in0.0 mm
12:49 PM 31.7°F-0.2°C 19.0°F-7.2°C 59% 7.0 mph ENE11.3 kmh ENE 12.0 mph19.3 kmh 29.95 in1014.2 mb 0.00 in0.0 mm 0.00 in0.0 mm 0.00 in0.0 mm
12:50 PM 31.7°F-0.2°C 18.6°F-7.4°C 58% 7.0 mph NE11.3 kmh NE 13.0 mph20.9 kmh 29.95 in1014.2 mb 0.00 in0.0 mm 0.00 in0.0 mm 0.00 in0.0 mm
12:51 PM 31.8°F-0.1°C 18.7°F-7.4°C 58% 9.0 mph NE14.5 kmh NE 13.0 mph20.9 kmh 29.95 in1014.2 mb 0.00 in0.0 mm 0.00 in0.0 mm 0.00 in0.0 mm
12:52 PM 31.8°F-0.1°C 18.7°F-7.4°C 58% 7.0 mph N11.3 kmh N 13.0 mph20.9 kmh 29.95 in1014.2 mb 0.00 in0.0 mm 0.00 in0.0 mm 0.00 in0.0 mm
12:53 PM 31.8°F-0.1°C 18.3°F-7.6°C 57% 6.0 mph E9.7 kmh E 14.0 mph22.5 kmh 29.95 in1014.2 mb 0.00 in0.0 mm 0.00 in0.0 mm 0.00 in0.0 mm
12:54 PM 31.8°F-0.1°C 18.7°F-7.4°C 58% 10.0 mph ENE16.1 kmh ENE 14.0 mph22.5 kmh 29.94 in1013.9 mb 0.00 in0.0 mm 0.00 in0.0 mm 0.00 in0.0 mm
12:55 PM 31.8°F-0.1°C 18.7°F-7.4°C 58% 3.0 mph NNE4.8 kmh NNE 14.0 mph22.5 kmh 29.94 in1013.9 mb 0.00 in0.0 mm 0.00 in0.0 mm 0.00 in0.0 mm
12:56 PM 31.9°F-0.1°C 18.4°F-7.6°C 57% 4.0 mph NE6.4 kmh NE 14.0 mph22.5 kmh 29.95 in1014.2 mb 0.00 in0.0 mm 0.00 in0.0 mm 0.00 in0.0 mm
12:57 PM 31.9°F-0.1°C 18.4°F-7.6°C 57% 7.0 mph ENE11.3 kmh ENE 14.0 mph22.5 kmh 29.95 in1014.2 mb 0.00 in0.0 mm 0.00 in0.0 mm 0.00 in0.0 mm
12:58 PM 31.9°F-0.1°C 19.2°F-7.1°C 59% 5.0 mph NE8.0 kmh NE 14.0 mph22.5 kmh 29.95 in1014.2 mb 0.00 in0.0 mm 0.00 in0.0 mm 0.00 in0.0 mm
12:59 PM 31.9°F-0.1°C 19.2°F-7.1°C 59% 7.0 mph ENE11.3 kmh ENE 14.0 mph22.5 kmh 29.95 in1014.2 mb 0.00 in0.0 mm 0.00 in0.0 mm 0.00 in0.0 mm
01:00 PM 32.0°F0.0°C 18.9°F-7.3°C 58% 3.0 mph NE4.8 kmh NE 14.0 mph22.5 kmh 29.94 in1013.9 mb 0.00 in0.0 mm 0.00 in0.0 mm 0.00 in0.0 mm
01:01 PM 32.1°F0.1°C 19.0°F-7.2°C 58% 5.0 mph NE8.0 kmh NE 14.0 mph22.5 kmh 29.94 in1013.9 mb 0.00 in0.0 mm 0.00 in0.0 mm 0.00 in0.0 mm
01:02 PM 32.3°F0.2°C 18.8°F-7.3°C 57% 3.0 mph NNE4.8 kmh NNE 14.0 mph22.5 kmh 29.94 in1013.9 mb 0.00 in0.0 mm 0.00 in0.0 mm 0.00 in0.0 mm
01:03 PM 32.5°F0.3°C 19.8°F-6.8°C 59% 7.0 mph NW11.3 kmh NW 14.0 mph22.5 kmh 29.94 in1013.9 mb 0.00 in0.0 mm 0.00 in0.0 mm 0.00 in0.0 mm
01:04 PM 32.7°F0.4°C 19.6°F-6.9°C 58% 7.0 mph NE11.3 kmh NE 14.0 mph22.5 kmh 29.94 in1013.9 mb 0.00 in0.0 mm 0.00 in0.0 mm 0.00 in0.0 mm
01:05 PM 32.9°F0.5°C 19.4°F-7.0°C 57% 4.0 mph NE6.4 kmh NE 14.0 mph22.5 kmh 29.94 in1013.9 mb 0.00 in0.0 mm 0.00 in0.0 mm 0.00 in0.0 mm
01:06 PM 33.0°F0.6°C 19.9°F-6.7°C 58% 5.0 mph N8.0 kmh N 14.0 mph22.5 kmh 29.94 in1013.9 mb 0.00 in0.0 mm 0.00 in0.0 mm 0.00 in0.0 mm
01:07 PM 33.1°F0.6°C 19.5°F-6.9°C 57% 6.0 mph NE9.7 kmh NE 14.0 mph22.5 kmh 29.94 in1013.9 mb 0.00 in0.0 mm 0.00 in0.0 mm 0.00 in0.0 mm
01:08 PM 33.0°F0.6°C 19.0°F-7.2°C 56% 5.0 mph NE8.0 kmh NE 14.0 mph22.5 kmh 29.94 in1013.9 mb 0.00 in0.0 mm 0.00 in0.0 mm 0.00 in0.0 mm
01:09 PM 33.0°F0.6°C 19.5°F-6.9°C 57% 7.0 mph ENE11.3 kmh ENE 14.0 mph22.5 kmh 29.94 in1013.9 mb 0.00 in0.0 mm 0.00 in0.0 mm 0.00 in0.0 mm
01:10 PM 32.9°F0.5°C 18.9°F-7.3°C 56% 2.0 mph NE3.2 kmh NE 14.0 mph22.5 kmh 29.94 in1013.9 mb 0.00 in0.0 mm 0.00 in0.0 mm 0.00 in0.0 mm
01:11 PM 32.7°F0.4°C 18.8°F-7.3°C 56% 9.0 mph NE14.5 kmh NE 14.0 mph22.5 kmh 29.94 in1013.9 mb 0.00 in0.0 mm 0.00 in0.0 mm 0.00 in0.0 mm
01:12 PM 32.6°F0.3°C 19.1°F-7.2°C 57% 6.0 mph NE9.7 kmh NE 14.0 mph22.5 kmh 29.94 in1013.9 mb 0.00 in0.0 mm 0.00 in0.0 mm 0.00 in0.0 mm
01:13 PM 32.5°F0.3°C 18.6°F-7.4°C 56% 5.0 mph NE8.0 kmh NE 12.0 mph19.3 kmh 29.94 in1013.9 mb 0.00 in0.0 mm 0.00 in0.0 mm 0.00 in0.0 mm
01:14 PM 32.4°F0.2°C 18.5°F-7.5°C 56% 6.0 mph NE9.7 kmh NE 12.0 mph19.3 kmh 29.94 in1013.9 mb 0.00 in0.0 mm 0.00 in0.0 mm 0.00 in0.0 mm
01:15 PM 32.4°F0.2°C 18.9°F-7.3°C 57% 7.0 mph ENE11.3 kmh ENE 12.0 mph19.3 kmh 29.94 in1013.9 mb 0.00 in0.0 mm 0.00 in0.0 mm 0.00 in0.0 mm
01:16 PM 32.3°F0.2°C 18.8°F-7.3°C 57% 3.0 mph NNE4.8 kmh NNE 12.0 mph19.3 kmh 29.94 in1013.9 mb 0.00 in0.0 mm 0.00 in0.0 mm 0.00 in0.0 mm
01:17 PM 32.3°F0.2°C 18.4°F-7.6°C 56% 5.0 mph NE8.0 kmh NE 12.0 mph19.3 kmh 29.94 in1013.9 mb 0.00 in0.0 mm 0.00 in0.0 mm 0.00 in0.0 mm
01:18 PM 32.3°F0.2°C 18.8°F-7.3°C 57% 11.0 mph ENE17.7 kmh ENE 12.0 mph19.3 kmh 29.94 in1013.9 mb 0.00 in0.0 mm 0.00 in0.0 mm 0.00 in0.0 mm
01:19 PM 32.2°F0.1°C 18.3°F-7.6°C 56% 6.0 mph NE9.7 kmh NE 15.0 mph24.1 kmh 29.94 in1013.9 mb 0.00 in0.0 mm 0.00 in0.0 mm 0.00 in0.0 mm
01:20 PM 32.2°F0.1°C 18.3°F-7.6°C 56% 7.0 mph ENE11.3 kmh ENE 15.0 mph24.1 kmh 29.94 in1013.9 mb 0.00 in0.0 mm 0.00 in0.0 mm 0.00 in0.0 mm
01:21 PM 32.1°F0.1°C 18.6°F-7.4°C 57% 4.0 mph NE6.4 kmh NE 15.0 mph24.1 kmh 29.94 in1013.9 mb 0.00 in0.0 mm 0.00 in0.0 mm 0.00 in0.0 mm
01:22 PM 32.1°F0.1°C 18.6°F-7.4°C 57% 5.0 mph NE8.0 kmh NE 15.0 mph24.1 kmh 29.94 in1013.9 mb 0.00 in0.0 mm 0.00 in0.0 mm 0.00 in0.0 mm
01:23 PM 32.1°F0.1°C 18.2°F-7.7°C 56% 10.0 mph NE16.1 kmh NE 15.0 mph24.1 kmh 29.94 in1013.9 mb 0.00 in0.0 mm 0.00 in0.0 mm 0.00 in0.0 mm
01:24 PM 32.2°F0.1°C 18.3°F-7.6°C 56% 11.0 mph ENE17.7 kmh ENE 15.0 mph24.1 kmh 29.94 in1013.9 mb 0.00 in0.0 mm 0.00 in0.0 mm 0.00 in0.0 mm
01:25 PM 32.1°F0.1°C 18.2°F-7.7°C 56% 9.0 mph ENE14.5 kmh ENE 15.0 mph24.1 kmh 29.94 in1013.9 mb 0.00 in0.0 mm 0.00 in0.0 mm 0.00 in0.0 mm
01:26 PM 32.1°F0.1°C 18.2°F-7.7°C 56% 5.0 mph NE8.0 kmh NE 15.0 mph24.1 kmh 29.94 in1013.9 mb 0.00 in0.0 mm 0.00 in0.0 mm 0.00 in0.0 mm
01:27 PM 32.0°F0.0°C 18.5°F-7.5°C 57% 5.0 mph NE8.0 kmh NE 15.0 mph24.1 kmh 29.94 in1013.9 mb 0.00 in0.0 mm 0.00 in0.0 mm 0.00 in0.0 mm
01:28 PM 32.0°F0.0°C 18.5°F-7.5°C 57% 9.0 mph ENE14.5 kmh ENE 15.0 mph24.1 kmh 29.94 in1013.9 mb 0.00 in0.0 mm 0.00 in0.0 mm 0.00 in0.0 mm
01:29 PM 31.9°F-0.1°C 18.0°F-7.8°C 56% 6.0 mph NE9.7 kmh NE 16.0 mph25.7 kmh 29.94 in1013.9 mb 0.00 in0.0 mm 0.00 in0.0 mm 0.00 in0.0 mm
01:30 PM 31.9°F-0.1°C 18.0°F-7.8°C 56% 9.0 mph E14.5 kmh E 16.0 mph25.7 kmh 29.94 in1013.9 mb 0.00 in0.0 mm 0.00 in0.0 mm 0.00 in0.0 mm
01:31 PM 31.8°F-0.1°C 17.9°F-7.8°C 56% 6.0 mph NE9.7 kmh NE 16.0 mph25.7 kmh 29.94 in1013.9 mb 0.00 in0.0 mm 0.00 in0.0 mm 0.00 in0.0 mm
01:32 PM 31.8°F-0.1°C 17.9°F-7.8°C 56% 14.0 mph ENE22.5 kmh ENE 16.0 mph25.7 kmh 29.94 in1013.9 mb 0.00 in0.0 mm 0.00 in0.0 mm 0.00 in0.0 mm
01:33 PM 31.8°F-0.1°C 17.9°F-7.8°C 56% 5.0 mph NE8.0 kmh NE 16.0 mph25.7 kmh 29.94 in1013.9 mb 0.00 in0.0 mm 0.00 in0.0 mm 0.00 in0.0 mm
01:34 PM 31.8°F-0.1°C 17.9°F-7.8°C 56% 11.0 mph NE17.7 kmh NE 16.0 mph25.7 kmh 29.94 in1013.9 mb 0.00 in0.0 mm 0.00 in0.0 mm 0.00 in0.0 mm
01:35 PM 31.8°F-0.1°C 17.9°F-7.8°C 56% 12.0 mph NE19.3 kmh NE 16.0 mph25.7 kmh 29.94 in1013.9 mb 0.00 in0.0 mm 0.00 in0.0 mm 0.00 in0.0 mm
01:36 PM 31.7°F-0.2°C 17.8°F-7.9°C 56% 7.0 mph ENE11.3 kmh ENE 16.0 mph25.7 kmh 29.94 in1013.9 mb 0.00 in0.0 mm 0.00 in0.0 mm 0.00 in0.0 mm
01:37 PM 31.8°F-0.1°C 17.9°F-7.8°C 56% 8.0 mph NE12.9 kmh NE 16.0 mph25.7 kmh 29.94 in1013.9 mb 0.00 in0.0 mm 0.00 in0.0 mm 0.00 in0.0 mm
01:38 PM 31.8°F-0.1°C 17.9°F-7.8°C 56% 3.0 mph NE4.8 kmh NE 16.0 mph25.7 kmh 29.94 in1013.9 mb 0.00 in0.0 mm 0.00 in0.0 mm 0.00 in0.0 mm
01:39 PM 31.8°F-0.1°C 18.3°F-7.6°C 57% 4.0 mph NE6.4 kmh NE 16.0 mph25.7 kmh 29.94 in1013.9 mb 0.00 in0.0 mm 0.00 in0.0 mm 0.00 in0.0 mm
01:40 PM 31.8°F-0.1°C 17.9°F-7.8°C 56% 5.0 mph NE8.0 kmh NE 16.0 mph25.7 kmh 29.94 in1013.9 mb 0.00 in0.0 mm 0.00 in0.0 mm 0.00 in0.0 mm
01:41 PM 31.9°F-0.1°C 18.0°F-7.8°C 56% 9.0 mph NE14.5 kmh NE 16.0 mph25.7 kmh 29.94 in1013.9 mb 0.00 in0.0 mm 0.00 in0.0 mm 0.00 in0.0 mm
01:42 PM 32.0°F0.0°C 17.7°F-7.9°C 55% 14.0 mph NE22.5 kmh NE 16.0 mph25.7 kmh 29.94 in1013.9 mb 0.00 in0.0 mm 0.00 in0.0 mm 0.00 in0.0 mm
01:43 PM 32.0°F0.0°C 18.1°F-7.7°C 56% 7.0 mph NE11.3 kmh NE 16.0 mph25.7 kmh 29.94 in1013.9 mb 0.00 in0.0 mm 0.00 in0.0 mm 0.00 in0.0 mm
01:44 PM 32.1°F0.1°C 18.2°F-7.7°C 56% 10.0 mph NE16.1 kmh NE 16.0 mph25.7 kmh 29.94 in1013.9 mb 0.00 in0.0 mm 0.00 in0.0 mm 0.00 in0.0 mm
01:45 PM 32.1°F0.1°C 17.8°F-7.9°C 55% 10.0 mph NE16.1 kmh NE 16.0 mph25.7 kmh 29.94 in1013.9 mb 0.00 in0.0 mm 0.00 in0.0 mm 0.00 in0.0 mm
01:46 PM 32.1°F0.1°C 17.8°F-7.9°C 55% 10.0 mph NE16.1 kmh NE 16.0 mph25.7 kmh 29.94 in1013.9 mb 0.00 in0.0 mm 0.00 in0.0 mm 0.00 in0.0 mm
01:47 PM 32.1°F0.1°C 17.8°F-7.9°C 55% 8.0 mph ENE12.9 kmh ENE 16.0 mph25.7 kmh 29.94 in1013.9 mb 0.00 in0.0 mm 0.00 in0.0 mm 0.00 in0.0 mm
01:48 PM 32.1°F0.1°C 17.8°F-7.9°C 55% 9.0 mph ENE14.5 kmh ENE 16.0 mph25.7 kmh 29.94 in1013.9 mb 0.00 in0.0 mm 0.00 in0.0 mm 0.00 in0.0 mm
01:49 PM 32.1°F0.1°C 17.8°F-7.9°C 55% 8.0 mph NE12.9 kmh NE 16.0 mph25.7 kmh 29.94 in1013.9 mb 0.00 in0.0 mm 0.00 in0.0 mm 0.00 in0.0 mm
01:50 PM 32.1°F0.1°C 17.8°F-7.9°C 55% 7.0 mph NE11.3 kmh NE 16.0 mph25.7 kmh 29.94 in1013.9 mb 0.00 in0.0 mm 0.00 in0.0 mm 0.00 in0.0 mm
01:51 PM 32.2°F0.1°C 17.9°F-7.8°C 55% 8.0 mph N12.9 kmh N 16.0 mph25.7 kmh 29.94 in1013.9 mb 0.00 in0.0 mm 0.00 in0.0 mm 0.00 in0.0 mm
01:52 PM 32.2°F0.1°C 17.9°F-7.8°C 55% 6.0 mph NNE9.7 kmh NNE 16.0 mph25.7 kmh 29.94 in1013.9 mb 0.00 in0.0 mm 0.00 in0.0 mm 0.00 in0.0 mm
01:53 PM 32.2°F0.1°C 17.9°F-7.8°C 55% 4.0 mph NE6.4 kmh NE 16.0 mph25.7 kmh 29.94 in1013.9 mb 0.00 in0.0 mm 0.00 in0.0 mm 0.00 in0.0 mm
01:54 PM 32.3°F0.2°C 18.4°F-7.6°C 56% 7.0 mph NE11.3 kmh NE 16.0 mph25.7 kmh 29.94 in1013.9 mb 0.00 in0.0 mm 0.00 in0.0 mm 0.00 in0.0 mm
01:55 PM 32.3°F0.2°C 18.0°F-7.8°C 55% 5.0 mph ENE8.0 kmh ENE 16.0 mph25.7 kmh 29.94 in1013.9 mb 0.00 in0.0 mm 0.00 in0.0 mm 0.00 in0.0 mm
01:56 PM 32.3°F0.2°C 18.4°F-7.6°C 56% 3.0 mph NNE4.8 kmh NNE 16.0 mph25.7 kmh 29.94 in1013.9 mb 0.00 in0.0 mm 0.00 in0.0 mm 0.00 in0.0 mm
01:57 PM 32.3°F0.2°C 18.4°F-7.6°C 56% 4.0 mph NNE6.4 kmh NNE 16.0 mph25.7 kmh 29.94 in1013.9 mb 0.00 in0.0 mm 0.00 in0.0 mm 0.00 in0.0 mm
01:58 PM 32.3°F0.2°C 18.0°F-7.8°C 55% 6.0 mph N9.7 kmh N 16.0 mph25.7 kmh 29.94 in1013.9 mb 0.00 in0.0 mm 0.00 in0.0 mm 0.00 in0.0 mm
01:59 PM 32.3°F0.2°C 18.0°F-7.8°C 55% 1.0 mph NE1.6 kmh NE 11.0 mph17.7 kmh 29.94 in1013.9 mb 0.00 in0.0 mm 0.00 in0.0 mm 0.00 in0.0 mm
02:00 PM 32.2°F0.1°C 18.3°F-7.6°C 56% 7.0 mph ENE11.3 kmh ENE 11.0 mph17.7 kmh 29.94 in1013.9 mb 0.00 in0.0 mm 0.00 in0.0 mm 0.00 in0.0 mm
02:01 PM 32.3°F0.2°C 18.4°F-7.6°C 56% 7.0 mph ENE11.3 kmh ENE 11.0 mph17.7 kmh 29.94 in1013.9 mb 0.00 in0.0 mm 0.00 in0.0 mm 0.00 in0.0 mm
02:02 PM 32.2°F0.1°C 17.9°F-7.8°C 55% 7.0 mph NE11.3 kmh NE 13.0 mph20.9 kmh 29.94 in1013.9 mb 0.00 in0.0 mm 0.00 in0.0 mm 0.00 in0.0 mm
02:03 PM 32.1°F0.1°C 17.8°F-7.9°C 55% 6.0 mph NE9.7 kmh NE 13.0 mph20.9 kmh 29.94 in1013.9 mb 0.00 in0.0 mm 0.00 in0.0 mm 0.00 in0.0 mm
02:04 PM 32.1°F0.1°C 17.8°F-7.9°C 55% 3.0 mph NE4.8 kmh NE 13.0 mph20.9 kmh 29.94 in1013.9 mb 0.00 in0.0 mm 0.00 in0.0 mm 0.00 in0.0 mm
02:05 PM 32.1°F0.1°C 17.8°F-7.9°C 55% 4.0 mph N6.4 kmh N 13.0 mph20.9 kmh 29.94 in1013.9 mb 0.00 in0.0 mm 0.00 in0.0 mm 0.00 in0.0 mm
02:06 PM 32.1°F0.1°C 18.2°F-7.7°C 56% 4.0 mph NE6.4 kmh NE 13.0 mph20.9 kmh 29.94 in1013.9 mb 0.00 in0.0 mm 0.00 in0.0 mm 0.00 in0.0 mm
02:07 PM 32.1°F0.1°C 18.2°F-7.7°C 56% 7.0 mph NE11.3 kmh NE 13.0 mph20.9 kmh 29.94 in1013.9 mb 0.00 in0.0 mm 0.00 in0.0 mm 0.00 in0.0 mm
02:08 PM 32.2°F0.1°C 17.9°F-7.8°C 55% 6.0 mph NNE9.7 kmh NNE 13.0 mph20.9 kmh 29.94 in1013.9 mb 0.00 in0.0 mm 0.00 in0.0 mm 0.00 in0.0 mm
02:09 PM 32.2°F0.1°C 18.3°F-7.6°C 56% 7.0 mph ENE11.3 kmh ENE 13.0 mph20.9 kmh 29.94 in1013.9 mb 0.00 in0.0 mm 0.00 in0.0 mm 0.00 in0.0 mm
02:10 PM 32.2°F0.1°C 18.3°F-7.6°C 56% 5.0 mph NNE8.0 kmh NNE 13.0 mph20.9 kmh 29.94 in1013.9 mb 0.00 in0.0 mm 0.00 in0.0 mm 0.00 in0.0 mm
02:11 PM 32.2°F0.1°C 18.3°F-7.6°C 56% 5.0 mph N8.0 kmh N 13.0 mph20.9 kmh 29.94 in1013.9 mb 0.00 in0.0 mm 0.00 in0.0 mm 0.00 in0.0 mm
02:12 PM 32.3°F0.2°C 18.4°F-7.6°C 56% 8.0 mph NNE12.9 kmh NNE 13.0 mph20.9 kmh 29.94 in1013.9 mb 0.00 in0.0 mm 0.00 in0.0 mm 0.00 in0.0 mm
02:13 PM 32.3°F0.2°C 18.0°F-7.8°C 55% 9.0 mph NE14.5 kmh NE 13.0 mph20.9 kmh 29.94 in1013.9 mb 0.00 in0.0 mm 0.00 in0.0 mm 0.00 in0.0 mm
02:14 PM 32.3°F0.2°C 18.0°F-7.8°C 55% 5.0 mph NE8.0 kmh NE 13.0 mph20.9 kmh 29.94 in1013.9 mb 0.00 in0.0 mm 0.00 in0.0 mm 0.00 in0.0 mm
02:15 PM 32.2°F0.1°C 17.9°F-7.8°C 55% 5.0 mph ENE8.0 kmh ENE 13.0 mph20.9 kmh 29.94 in1013.9 mb 0.00 in0.0 mm 0.00 in0.0 mm 0.00 in0.0 mm
02:16 PM 32.2°F0.1°C 18.7°F-7.4°C 57% 4.0 mph NNE6.4 kmh NNE 13.0 mph20.9 kmh 29.94 in1013.9 mb 0.00 in0.0 mm 0.00 in0.0 mm 0.00 in0.0 mm
02:17 PM 32.1°F0.1°C 18.2°F-7.7°C 56% 4.0 mph NE6.4 kmh NE 13.0 mph20.9 kmh 29.94 in1013.9 mb 0.00 in0.0 mm 0.00 in0.0 mm 0.00 in0.0 mm
02:18 PM 32.1°F0.1°C 18.2°F-7.7°C 56% 4.0 mph ENE6.4 kmh ENE 13.0 mph20.9 kmh 29.94 in1013.9 mb 0.00 in0.0 mm 0.00 in0.0 mm 0.00 in0.0 mm
02:19 PM 32.1°F0.1°C 18.2°F-7.7°C 56% 3.0 mph NE4.8 kmh NE 13.0 mph20.9 kmh 29.94 in1013.9 mb 0.00 in0.0 mm 0.00 in0.0 mm 0.00 in0.0 mm
02:20 PM 32.1°F0.1°C 18.6°F-7.4°C 57% 3.0 mph NE4.8 kmh NE 13.0 mph20.9 kmh 29.94 in1013.9 mb 0.00 in0.0 mm 0.00 in0.0 mm 0.00 in0.0 mm
02:21 PM 32.3°F0.2°C 18.8°F-7.3°C 57% 4.0 mph N6.4 kmh N 13.0 mph20.9 kmh 29.94 in1013.9 mb 0.00 in0.0 mm 0.00 in0.0 mm 0.00 in0.0 mm
02:22 PM 32.4°F0.2°C 18.1°F-7.7°C 55% 1.0 mph NE1.6 kmh NE 11.0 mph17.7 kmh 29.94 in1013.9 mb 0.00 in0.0 mm 0.00 in0.0 mm 0.00 in0.0 mm
02:23 PM 32.4°F0.2°C 18.5°F-7.5°C 56% 5.0 mph NE8.0 kmh NE 11.0 mph17.7 kmh 29.94 in1013.9 mb 0.00 in0.0 mm 0.00 in0.0 mm 0.00 in0.0 mm
02:24 PM 32.4°F0.2°C 18.1°F-7.7°C 55% 8.0 mph NNE12.9 kmh NNE 11.0 mph17.7 kmh 29.94 in1013.9 mb 0.00 in0.0 mm 0.00 in0.0 mm 0.00 in0.0 mm
02:25 PM 32.3°F0.2°C 18.0°F-7.8°C 55% 10.0 mph N16.1 kmh N 13.0 mph20.9 kmh 29.94 in1013.9 mb 0.00 in0.0 mm 0.00 in0.0 mm 0.00 in0.0 mm
02:26 PM 32.3°F0.2°C 17.5°F-8.1°C 54% 9.0 mph N14.5 kmh N 14.0 mph22.5 kmh 29.94 in1013.9 mb 0.00 in0.0 mm 0.00 in0.0 mm 0.00 in0.0 mm
02:27 PM 32.3°F0.2°C 17.5°F-8.1°C 54% 13.0 mph NE20.9 kmh NE 16.0 mph25.7 kmh 29.94 in1013.9 mb 0.00 in0.0 mm 0.00 in0.0 mm 0.00 in0.0 mm
02:28 PM 32.3°F0.2°C 18.0°F-7.8°C 55% 12.0 mph NNE19.3 kmh NNE 16.0 mph25.7 kmh 29.94 in1013.9 mb 0.00 in0.0 mm 0.00 in0.0 mm 0.00 in0.0 mm
02:29 PM 32.3°F0.2°C 17.5°F-8.1°C 54% 9.0 mph ENE14.5 kmh ENE 16.0 mph25.7 kmh 29.94 in1013.9 mb 0.00 in0.0 mm 0.00 in0.0 mm 0.00 in0.0 mm
02:30 PM 32.3°F0.2°C 18.0°F-7.8°C 55% 10.0 mph N16.1 kmh N 16.0 mph25.7 kmh 29.94 in1013.9 mb 0.00 in0.0 mm 0.00 in0.0 mm 0.00 in0.0 mm
02:31 PM 32.3°F0.2°C 17.5°F-8.1°C 54% 3.0 mph NE4.8 kmh NE 16.0 mph25.7 kmh 29.94 in1013.9 mb 0.00 in0.0 mm 0.00 in0.0 mm 0.00 in0.0 mm
02:32 PM 32.3°F0.2°C 18.0°F-7.8°C 55% 3.0 mph NNE4.8 kmh NNE 16.0 mph25.7 kmh 29.94 in1013.9 mb 0.00 in0.0 mm 0.00 in0.0 mm 0.00 in0.0 mm
02:33 PM 32.3°F0.2°C 18.0°F-7.8°C 55% 5.0 mph NE8.0 kmh NE 16.0 mph25.7 kmh 29.94 in1013.9 mb 0.00 in0.0 mm 0.00 in0.0 mm 0.00 in0.0 mm
02:34 PM 32.4°F0.2°C 18.5°F-7.5°C 56% 4.0 mph NE6.4 kmh NE 16.0 mph25.7 kmh 29.94 in1013.9 mb 0.00 in0.0 mm 0.00 in0.0 mm 0.00 in0.0 mm
02:35 PM 32.4°F0.2°C 18.1°F-7.7°C 55% 5.0 mph N8.0 kmh N 16.0 mph25.7 kmh 29.94 in1013.9 mb 0.00 in0.0 mm 0.00 in0.0 mm 0.00 in0.0 mm
02:36 PM 32.4°F0.2°C 18.1°F-7.7°C 55% 6.0 mph N9.7 kmh N 16.0 mph25.7 kmh 29.94 in1013.9 mb 0.00 in0.0 mm 0.00 in0.0 mm 0.00 in0.0 mm
02:37 PM 32.5°F0.3°C 18.2°F-7.7°C 55% 8.0 mph NE12.9 kmh NE 16.0 mph25.7 kmh 29.95 in1014.2 mb 0.00 in0.0 mm 0.00 in0.0 mm 0.00 in0.0 mm
02:38 PM 32.5°F0.3°C 18.2°F-7.7°C 55% 7.0 mph NE11.3 kmh NE 16.0 mph25.7 kmh 29.95 in1014.2 mb 0.00 in0.0 mm 0.00 in0.0 mm 0.00 in0.0 mm
02:39 PM 32.5°F0.3°C 17.7°F-7.9°C 54% 10.0 mph NE16.1 kmh NE 16.0 mph25.7 kmh 29.94 in1013.9 mb 0.00 in0.0 mm 0.00 in0.0 mm 0.00 in0.0 mm
02:40 PM 32.6°F0.3°C 17.8°F-7.9°C 54% 5.0 mph N8.0 kmh N 16.0 mph25.7 kmh 29.94 in1013.9 mb 0.00 in0.0 mm 0.00 in0.0 mm 0.00 in0.0 mm
02:41 PM 32.7°F0.4°C 18.3°F-7.6°C 55% 7.0 mph ENE11.3 kmh ENE 16.0 mph25.7 kmh 29.94 in1013.9 mb 0.00 in0.0 mm 0.00 in0.0 mm 0.00 in0.0 mm
02:42 PM 32.8°F0.4°C 18.4°F-7.6°C 55% 6.0 mph NE9.7 kmh NE 16.0 mph25.7 kmh 29.94 in1013.9 mb 0.00 in0.0 mm 0.00 in0.0 mm 0.00 in0.0 mm
02:43 PM 32.8°F0.4°C 18.0°F-7.8°C 54% 7.0 mph ENE11.3 kmh ENE 16.0 mph25.7 kmh 29.95 in1014.2 mb 0.00 in0.0 mm 0.00 in0.0 mm 0.00 in0.0 mm
02:44 PM 32.7°F0.4°C 17.9°F-7.8°C 54% 9.0 mph NE14.5 kmh NE 16.0 mph25.7 kmh 29.95 in1014.2 mb 0.00 in0.0 mm 0.00 in0.0 mm 0.00 in0.0 mm
02:45 PM 32.7°F0.4°C 17.9°F-7.8°C 54% 7.0 mph NE11.3 kmh NE 16.0 mph25.7 kmh 29.95 in1014.2 mb 0.00 in0.0 mm 0.00 in0.0 mm 0.00 in0.0 mm
02:46 PM 32.6°F0.3°C 17.8°F-7.9°C 54% 6.0 mph 9.7 kmh 16.0 mph25.7 kmh 29.95 in1014.2 mb 0.00 in0.0 mm 0.00 in0.0 mm 0.00 in0.0 mm
02:47 PM 32.6°F0.3°C 18.2°F-7.7°C 55% 4.0 mph NE6.4 kmh NE 10.0 mph16.1 kmh 29.95 in1014.2 mb 0.00 in0.0 mm 0.00 in0.0 mm 0.00 in0.0 mm
02:48 PM 32.6°F0.3°C 18.2°F-7.7°C 55% 4.0 mph 6.4 kmh 10.0 mph16.1 kmh 29.95 in1014.2 mb 0.00 in0.0 mm 0.00 in0.0 mm 0.00 in0.0 mm
02:49 PM 32.5°F0.3°C 17.7°F-7.9°C 54% 5.0 mph NE8.0 kmh NE 10.0 mph16.1 kmh 29.95 in1014.2 mb 0.00 in0.0 mm 0.00 in0.0 mm 0.00 in0.0 mm
02:50 PM 32.4°F0.2°C 17.6°F-8.0°C 54% 5.0 mph NNE8.0 kmh NNE 10.0 mph16.1 kmh 29.95 in1014.2 mb 0.00 in0.0 mm 0.00 in0.0 mm 0.00 in0.0 mm
02:51 PM 32.4°F0.2°C 18.5°F-7.5°C 56% 5.0 mph NE8.0 kmh NE 10.0 mph16.1 kmh 29.95 in1014.2 mb 0.00 in0.0 mm 0.00 in0.0 mm 0.00 in0.0 mm
02:52 PM 32.4°F0.2°C 18.5°F-7.5°C 56% 5.0 mph NE8.0 kmh NE 10.0 mph16.1 kmh 29.95 in1014.2 mb 0.00 in0.0 mm 0.00 in0.0 mm 0.00 in0.0 mm
02:53 PM 32.3°F0.2°C 18.0°F-7.8°C 55% 4.0 mph NE6.4 kmh NE 10.0 mph16.1 kmh 29.95 in1014.2 mb 0.00 in0.0 mm 0.00 in0.0 mm 0.00 in0.0 mm
02:54 PM 32.3°F0.2°C 18.0°F-7.8°C 55% 3.0 mph NE4.8 kmh NE 10.0 mph16.1 kmh 29.95 in1014.2 mb 0.00 in0.0 mm 0.00 in0.0 mm 0.00 in0.0 mm
02:55 PM 32.3°F0.2°C 18.0°F-7.8°C 55% 6.0 mph NE9.7 kmh NE 10.0 mph16.1 kmh 29.95 in1014.2 mb 0.00 in0.0 mm 0.00 in0.0 mm 0.00 in0.0 mm
02:56 PM 32.3°F0.2°C 17.5°F-8.1°C 54% 1.0 mph NE1.6 kmh NE 10.0 mph16.1 kmh 29.95 in1014.2 mb 0.00 in0.0 mm 0.00 in0.0 mm 0.00 in0.0 mm
02:57 PM 32.2°F0.1°C 17.4°F-8.1°C 54% 7.0 mph NE11.3 kmh NE 10.0 mph16.1 kmh 29.95 in1014.2 mb 0.00 in0.0 mm 0.00 in0.0 mm 0.00 in0.0 mm
02:58 PM 32.2°F0.1°C 17.9°F-7.8°C 55% 3.0 mph NE4.8 kmh NE 10.0 mph16.1 kmh 29.95 in1014.2 mb 0.00 in0.0 mm 0.00 in0.0 mm 0.00 in0.0 mm
02:59 PM 32.2°F0.1°C 17.9°F-7.8°C 55% 5.0 mph NE8.0 kmh NE 10.0 mph16.1 kmh 29.95 in1014.2 mb 0.00 in0.0 mm 0.00 in0.0 mm 0.00 in0.0 mm
03:00 PM 32.1°F0.1°C 17.4°F-8.1°C 54% 5.0 mph NE8.0 kmh NE 10.0 mph16.1 kmh 29.95 in1014.2 mb 0.00 in0.0 mm 0.00 in0.0 mm 0.00 in0.0 mm
03:01 PM 32.1°F0.1°C 17.4°F-8.1°C 54% 5.0 mph ENE8.0 kmh ENE 10.0 mph16.1 kmh 29.95 in1014.2 mb 0.00 in0.0 mm 0.00 in0.0 mm 0.00 in0.0 mm
03:02 PM 32.1°F0.1°C 17.8°F-7.9°C 55% 4.0 mph NE6.4 kmh NE 10.0 mph16.1 kmh 29.95 in1014.2 mb 0.00 in0.0 mm 0.00 in0.0 mm 0.00 in0.0 mm
03:03 PM 32.0°F0.0°C 18.1°F-7.7°C 56% 5.0 mph NE8.0 kmh NE 10.0 mph16.1 kmh 29.95 in1014.2 mb 0.00 in0.0 mm 0.00 in0.0 mm 0.00 in0.0 mm
03:04 PM 32.0°F0.0°C 17.7°F-7.9°C 55% 6.0 mph NE9.7 kmh NE 10.0 mph16.1 kmh 29.95 in1014.2 mb 0.00 in0.0 mm 0.00 in0.0 mm 0.00 in0.0 mm
03:05 PM 32.0°F0.0°C 17.7°F-7.9°C 55% 4.0 mph NE6.4 kmh NE 10.0 mph16.1 kmh 29.95 in1014.2 mb 0.00 in0.0 mm 0.00 in0.0 mm 0.00 in0.0 mm
03:06 PM 32.0°F0.0°C 17.7°F-7.9°C 55% 7.0 mph NE11.3 kmh NE 10.0 mph16.1 kmh 29.95 in1014.2 mb 0.00 in0.0 mm 0.00 in0.0 mm 0.00 in0.0 mm
03:07 PM 32.0°F0.0°C 17.7°F-7.9°C 55% 6.0 mph NE9.7 kmh NE 14.0 mph22.5 kmh 29.95 in1014.2 mb 0.00 in0.0 mm 0.00 in0.0 mm 0.00 in0.0 mm
03:08 PM 32.0°F0.0°C 17.7°F-7.9°C 55% 6.0 mph NE9.7 kmh NE 14.0 mph22.5 kmh 29.95 in1014.2 mb 0.00 in0.0 mm 0.00 in0.0 mm 0.00 in0.0 mm
03:09 PM 32.0°F0.0°C 17.7°F-7.9°C 55% 6.0 mph NE9.7 kmh NE 14.0 mph22.5 kmh 29.95 in1014.2 mb 0.00 in0.0 mm 0.00 in0.0 mm 0.00 in0.0 mm
03:10 PM 31.9°F-0.1°C 17.6°F-8.0°C 55% 7.0 mph NNE11.3 kmh NNE 14.0 mph22.5 kmh 29.95 in1014.2 mb 0.00 in0.0 mm 0.00 in0.0 mm 0.00 in0.0 mm
03:11 PM 31.9°F-0.1°C 17.6°F-8.0°C 55% 7.0 mph N11.3 kmh N 14.0 mph22.5 kmh 29.95 in1014.2 mb 0.00 in0.0 mm 0.00 in0.0 mm 0.00 in0.0 mm
03:12 PM 31.9°F-0.1°C 17.6°F-8.0°C 55% 7.0 mph NNE11.3 kmh NNE 14.0 mph22.5 kmh 29.95 in1014.2 mb 0.00 in0.0 mm 0.00 in0.0 mm 0.00 in0.0 mm
03:13 PM 31.9°F-0.1°C 17.2°F-8.2°C 54% 8.0 mph NE12.9 kmh NE 14.0 mph22.5 kmh 29.95 in1014.2 mb 0.00 in0.0 mm 0.00 in0.0 mm 0.00 in0.0 mm
03:14 PM 31.9°F-0.1°C 17.2°F-8.2°C 54% 5.0 mph NE8.0 kmh NE 14.0 mph22.5 kmh 29.95 in1014.2 mb 0.00 in0.0 mm 0.00 in0.0 mm 0.00 in0.0 mm
03:15 PM 31.9°F-0.1°C 17.6°F-8.0°C 55% 4.0 mph NE6.4 kmh NE 14.0 mph22.5 kmh 29.95 in1014.2 mb 0.00 in0.0 mm 0.00 in0.0 mm 0.00 in0.0 mm
03:16 PM 31.8°F-0.1°C 17.5°F-8.1°C 55% 7.0 mph ENE11.3 kmh ENE 14.0 mph22.5 kmh 29.95 in1014.2 mb 0.00 in0.0 mm 0.00 in0.0 mm 0.00 in0.0 mm
03:17 PM 31.8°F-0.1°C 17.5°F-8.1°C 55% 9.0 mph ENE14.5 kmh ENE 14.0 mph22.5 kmh 29.95 in1014.2 mb 0.00 in0.0 mm 0.00 in0.0 mm 0.00 in0.0 mm
03:18 PM 31.7°F-0.2°C 17.0°F-8.3°C 54% 6.0 mph NE9.7 kmh NE 14.0 mph22.5 kmh 29.95 in1014.2 mb 0.00 in0.0 mm 0.00 in0.0 mm 0.00 in0.0 mm
03:19 PM 31.7°F-0.2°C 17.4°F-8.1°C 55% 8.0 mph NE12.9 kmh NE 14.0 mph22.5 kmh 29.95 in1014.2 mb 0.00 in0.0 mm 0.00 in0.0 mm 0.00 in0.0 mm
03:20 PM 31.7°F-0.2°C 17.4°F-8.1°C 55% 5.0 mph NE8.0 kmh NE 14.0 mph22.5 kmh 29.95 in1014.2 mb 0.00 in0.0 mm 0.00 in0.0 mm 0.00 in0.0 mm
03:21 PM 31.7°F-0.2°C 17.4°F-8.1°C 55% 7.0 mph NE11.3 kmh NE 14.0 mph22.5 kmh 29.95 in1014.2 mb 0.00 in0.0 mm 0.00 in0.0 mm 0.00 in0.0 mm
03:22 PM 31.7°F-0.2°C 17.4°F-8.1°C 55% 7.0 mph N11.3 kmh N 14.0 mph22.5 kmh 29.95 in1014.2 mb 0.00 in0.0 mm 0.00 in0.0 mm 0.00 in0.0 mm
03:23 PM 31.7°F-0.2°C 17.4°F-8.1°C 55% 5.0 mph NE8.0 kmh NE 14.0 mph22.5 kmh 29.95 in1014.2 mb 0.00 in0.0 mm 0.00 in0.0 mm 0.00 in0.0 mm
03:24 PM 31.7°F-0.2°C 17.4°F-8.1°C 55% 2.0 mph NE3.2 kmh NE 14.0 mph22.5 kmh 29.95 in1014.2 mb 0.00 in0.0 mm 0.00 in0.0 mm 0.00 in0.0 mm
03:25 PM 31.7°F-0.2°C 17.4°F-8.1°C 55% 5.0 mph N8.0 kmh N 14.0 mph22.5 kmh 29.95 in1014.2 mb 0.00 in0.0 mm 0.00 in0.0 mm 0.00 in0.0 mm
03:26 PM 31.7°F-0.2°C 17.8°F-7.9°C 56% 3.0 mph NE4.8 kmh NE 14.0 mph22.5 kmh 29.95 in1014.2 mb 0.00 in0.0 mm 0.00 in0.0 mm 0.00 in0.0 mm
03:27 PM 31.7°F-0.2°C 17.8°F-7.9°C 56% 8.0 mph ENE12.9 kmh ENE 12.0 mph19.3 kmh 29.95 in1014.2 mb 0.00 in0.0 mm 0.00 in0.0 mm 0.00 in0.0 mm
03:28 PM 31.7°F-0.2°C 17.8°F-7.9°C 56% 10.0 mph NE16.1 kmh NE 12.0 mph19.3 kmh 29.95 in1014.2 mb 0.00 in0.0 mm 0.00 in0.0 mm 0.00 in0.0 mm
03:29 PM 31.7°F-0.2°C 17.4°F-8.1°C 55% 9.0 mph NNE14.5 kmh NNE 12.0 mph19.3 kmh 29.95 in1014.2 mb 0.00 in0.0 mm 0.00 in0.0 mm 0.00 in0.0 mm
03:30 PM 31.7°F-0.2°C 17.4°F-8.1°C 55% 7.0 mph NNE11.3 kmh NNE 12.0 mph19.3 kmh 29.95 in1014.2 mb 0.00 in0.0 mm 0.00 in0.0 mm 0.00 in0.0 mm
03:31 PM 31.7°F-0.2°C 17.4°F-8.1°C 55% 7.0 mph NE11.3 kmh NE 12.0 mph19.3 kmh 29.95 in1014.2 mb 0.00 in0.0 mm 0.00 in0.0 mm 0.00 in0.0 mm
03:32 PM 31.7°F-0.2°C 17.4°F-8.1°C 55% 5.0 mph ENE8.0 kmh ENE 12.0 mph19.3 kmh 29.95 in1014.2 mb 0.00 in0.0 mm 0.00 in0.0 mm 0.00 in0.0 mm
03:33 PM 31.7°F-0.2°C 17.4°F-8.1°C 55% 4.0 mph NE6.4 kmh NE 12.0 mph19.3 kmh 29.95 in1014.2 mb 0.00 in0.0 mm 0.00 in0.0 mm 0.00 in0.0 mm
03:34 PM 31.7°F-0.2°C 17.4°F-8.1°C 55% 4.0 mph NE6.4 kmh NE 12.0 mph19.3 kmh 29.95 in1014.2 mb 0.00 in0.0 mm 0.00 in0.0 mm 0.00 in0.0 mm
03:35 PM 31.6°F-0.2°C 17.3°F-8.2°C 55% 8.0 mph ENE12.9 kmh ENE 12.0 mph19.3 kmh 29.95 in1014.2 mb 0.00 in0.0 mm 0.00 in0.0 mm 0.00 in0.0 mm
03:36 PM 31.6°F-0.2°C 17.3°F-8.2°C 55% 5.0 mph NE8.0 kmh NE 12.0 mph19.3 kmh 29.95 in1014.2 mb 0.00 in0.0 mm 0.00 in0.0 mm 0.00 in0.0 mm
03:37 PM 31.6°F-0.2°C 17.3°F-8.2°C 55% 5.0 mph ENE8.0 kmh ENE 12.0 mph19.3 kmh 29.95 in1014.2 mb 0.00 in0.0 mm 0.00 in0.0 mm 0.00 in0.0 mm
03:38 PM 31.5°F-0.3°C 18.0°F-7.8°C 57% 5.0 mph NE8.0 kmh NE 12.0 mph19.3 kmh 29.95 in1014.2 mb 0.00 in0.0 mm 0.00 in0.0 mm 0.00 in0.0 mm
03:39 PM 31.5°F-0.3°C 17.6°F-8.0°C 56% 3.0 mph NNE4.8 kmh NNE 12.0 mph19.3 kmh 29.95 in1014.2 mb 0.00 in0.0 mm 0.00 in0.0 mm 0.00 in0.0 mm
03:40 PM 31.4°F-0.3°C 17.5°F-8.1°C 56% 3.0 mph N4.8 kmh N 12.0 mph19.3 kmh 29.95 in1014.2 mb 0.00 in0.0 mm 0.00 in0.0 mm 0.00 in0.0 mm
03:41 PM 31.4°F-0.3°C 17.5°F-8.1°C 56% 6.0 mph NNE9.7 kmh NNE 12.0 mph19.3 kmh 29.95 in1014.2 mb 0.00 in0.0 mm 0.00 in0.0 mm 0.00 in0.0 mm
03:42 PM 31.4°F-0.3°C 17.5°F-8.1°C 56% 3.0 mph NNE4.8 kmh NNE 12.0 mph19.3 kmh 29.95 in1014.2 mb 0.00 in0.0 mm 0.00 in0.0 mm 0.00 in0.0 mm
03:43 PM 31.4°F-0.3°C 17.5°F-8.1°C 56% 10.0 mph NNE16.1 kmh NNE 12.0 mph19.3 kmh 29.95 in1014.2 mb 0.00 in0.0 mm 0.00 in0.0 mm 0.00 in0.0 mm
03:44 PM 31.4°F-0.3°C 17.1°F-8.3°C 55% 6.0 mph N9.7 kmh N 12.0 mph19.3 kmh 29.95 in1014.2 mb 0.00 in0.0 mm 0.00 in0.0 mm 0.00 in0.0 mm
03:45 PM 31.4°F-0.3°C 17.5°F-8.1°C 56% 5.0 mph N8.0 kmh N 12.0 mph19.3 kmh 29.95 in1014.2 mb 0.00 in0.0 mm 0.00 in0.0 mm 0.00 in0.0 mm
03:46 PM 31.3°F-0.4°C 17.9°F-7.8°C 57% 5.0 mph N8.0 kmh N 12.0 mph19.3 kmh 29.95 in1014.2 mb 0.00 in0.0 mm 0.00 in0.0 mm 0.00 in0.0 mm
03:47 PM 31.4°F-0.3°C 17.9°F-7.8°C 57% 4.0 mph N6.4 kmh N 10.0 mph16.1 kmh 29.95 in1014.2 mb 0.00 in0.0 mm 0.00 in0.0 mm 0.00 in0.0 mm
03:48 PM 31.4°F-0.3°C 17.9°F-7.8°C 57% 5.0 mph NNE8.0 kmh NNE 10.0 mph16.1 kmh 29.95 in1014.2 mb 0.00 in0.0 mm 0.00 in0.0 mm 0.00 in0.0 mm
03:49 PM 31.4°F-0.3°C 17.9°F-7.8°C 57% 6.0 mph NNE9.7 kmh NNE 10.0 mph16.1 kmh 29.95 in1014.2 mb 0.00 in0.0 mm 0.00 in0.0 mm 0.00 in0.0 mm
03:50 PM 31.4°F-0.3°C 17.9°F-7.8°C 57% 4.0 mph NE6.4 kmh NE 10.0 mph16.1 kmh 29.95 in1014.2 mb 0.00 in0.0 mm 0.00 in0.0 mm 0.00 in0.0 mm
03:51 PM 31.4°F-0.3°C 17.9°F-7.8°C 57% 2.0 mph NE3.2 kmh NE 10.0 mph16.1 kmh 29.95 in1014.2 mb 0.00 in0.0 mm 0.00 in0.0 mm 0.00 in0.0 mm
03:52 PM 31.4°F-0.3°C 17.9°F-7.8°C 57% 2.0 mph NNE3.2 kmh NNE 10.0 mph16.1 kmh 29.95 in1014.2 mb 0.00 in0.0 mm 0.00 in0.0 mm 0.00 in0.0 mm
03:53 PM 31.4°F-0.3°C 17.5°F-8.1°C 56% 4.0 mph NNE6.4 kmh NNE 10.0 mph16.1 kmh 29.95 in1014.2 mb 0.00 in0.0 mm 0.00 in0.0 mm 0.00 in0.0 mm
03:54 PM 31.4°F-0.3°C 17.5°F-8.1°C 56% 2.0 mph NNE3.2 kmh NNE 10.0 mph16.1 kmh 29.95 in1014.2 mb 0.00 in0.0 mm 0.00 in0.0 mm 0.00 in0.0 mm
03:55 PM 31.4°F-0.3°C 17.5°F-8.1°C 56% 2.0 mph NE3.2 kmh NE 10.0 mph16.1 kmh 29.95 in1014.2 mb 0.00 in0.0 mm 0.00 in0.0 mm 0.00 in0.0 mm
03:56 PM 31.4°F-0.3°C 17.9°F-7.8°C 57% 1.0 mph NE1.6 kmh NE 10.0 mph16.1 kmh 29.95 in1014.2 mb 0.00 in0.0 mm 0.00 in0.0 mm 0.00 in0.0 mm
03:57 PM 31.4°F-0.3°C 17.9°F-7.8°C 57% 3.0 mph NE4.8 kmh NE 8.0 mph12.9 kmh 29.95 in1014.2 mb 0.00 in0.0 mm 0.00 in0.0 mm 0.00 in0.0 mm
03:58 PM 31.4°F-0.3°C 17.5°F-8.1°C 56% 6.0 mph N9.7 kmh N 8.0 mph12.9 kmh 29.95 in1014.2 mb 0.00 in0.0 mm 0.00 in0.0 mm 0.00 in0.0 mm
03:59 PM 31.4°F-0.3°C 17.5°F-8.1°C 56% 4.0 mph NNE6.4 kmh NNE 8.0 mph12.9 kmh 29.95 in1014.2 mb 0.00 in0.0 mm 0.00 in0.0 mm 0.00 in0.0 mm
04:00 PM 31.4°F-0.3°C 17.5°F-8.1°C 56% 9.0 mph NNE14.5 kmh NNE 13.0 mph20.9 kmh 29.95 in1014.2 mb 0.00 in0.0 mm 0.00 in0.0 mm 0.00 in0.0 mm
04:01 PM 31.4°F-0.3°C 17.1°F-8.3°C 55% 8.0 mph NE12.9 kmh NE 13.0 mph20.9 kmh 29.95 in1014.2 mb 0.00 in0.0 mm 0.00 in0.0 mm 0.00 in0.0 mm
04:02 PM 31.4°F-0.3°C 17.1°F-8.3°C 55% 6.0 mph NNE9.7 kmh NNE 13.0 mph20.9 kmh 29.95 in1014.2 mb 0.00 in0.0 mm 0.00 in0.0 mm 0.00 in0.0 mm
04:03 PM 31.4°F-0.3°C 17.1°F-8.3°C 55% 5.0 mph NNE8.0 kmh NNE 13.0 mph20.9 kmh 29.95 in1014.2 mb 0.00 in0.0 mm 0.00 in0.0 mm 0.00 in0.0 mm
04:04 PM 31.4°F-0.3°C 17.1°F-8.3°C 55% 4.0 mph N6.4 kmh N 13.0 mph20.9 kmh 29.95 in1014.2 mb 0.00 in0.0 mm 0.00 in0.0 mm 0.00 in0.0 mm
04:05 PM 31.4°F-0.3°C 17.1°F-8.3°C 55% 2.0 mph N3.2 kmh N 13.0 mph20.9 kmh 29.95 in1014.2 mb 0.00 in0.0 mm 0.00 in0.0 mm 0.00 in0.0 mm
04:06 PM 31.4°F-0.3°C 17.5°F-8.1°C 56% 4.0 mph NNE6.4 kmh NNE 13.0 mph20.9 kmh 29.95 in1014.2 mb 0.00 in0.0 mm 0.00 in0.0 mm 0.00 in0.0 mm
04:07 PM 31.3°F-0.4°C 17.4°F-8.1°C 56% 1.0 mph NNE1.6 kmh NNE 13.0 mph20.9 kmh 29.95 in1014.2 mb 0.00 in0.0 mm 0.00 in0.0 mm 0.00 in0.0 mm
04:08 PM 31.3°F-0.4°C 17.4°F-8.1°C 56% 2.0 mph NNE3.2 kmh NNE 13.0 mph20.9 kmh 29.95 in1014.2 mb 0.00 in0.0 mm 0.00 in0.0 mm 0.00 in0.0 mm
04:09 PM 31.2°F-0.4°C 17.4°F-8.1°C 56% 3.0 mph NNE4.8 kmh NNE 13.0 mph20.9 kmh 29.95 in1014.2 mb 0.00 in0.0 mm 0.00 in0.0 mm 0.00 in0.0 mm
04:10 PM 31.2°F-0.4°C 17.4°F-8.1°C 56% 1.0 mph NNE1.6 kmh NNE 13.0 mph20.9 kmh 29.95 in1014.2 mb 0.00 in0.0 mm 0.00 in0.0 mm 0.00 in0.0 mm
04:11 PM 31.2°F-0.4°C 17.4°F-8.1°C 56% 2.0 mph NNE3.2 kmh NNE 13.0 mph20.9 kmh 29.95 in1014.2 mb 0.00 in0.0 mm 0.00 in0.0 mm 0.00 in0.0 mm
04:12 PM 31.2°F-0.4°C 17.4°F-8.1°C 56% 4.0 mph NE6.4 kmh NE 13.0 mph20.9 kmh 29.95 in1014.2 mb 0.00 in0.0 mm 0.00 in0.0 mm 0.00 in0.0 mm
04:13 PM 31.2°F-0.4°C 17.4°F-8.1°C 56% 9.0 mph N14.5 kmh N 13.0 mph20.9 kmh 29.95 in1014.2 mb 0.00 in0.0 mm 0.00 in0.0 mm 0.00 in0.0 mm
04:14 PM 31.2°F-0.4°C 17.4°F-8.1°C 56% 4.0 mph 6.4 kmh 13.0 mph20.9 kmh 29.95 in1014.2 mb 0.00 in0.0 mm 0.00 in0.0 mm 0.00 in0.0 mm
04:15 PM 31.2°F-0.4°C 17.4°F-8.1°C 56% 2.0 mph 3.2 kmh 13.0 mph20.9 kmh 29.95 in1014.2 mb 0.00 in0.0 mm 0.00 in0.0 mm 0.00 in0.0 mm
04:16 PM 31.2°F-0.4°C 17.4°F-8.1°C 56% 2.0 mph 3.2 kmh 13.0 mph20.9 kmh 29.95 in1014.2 mb 0.00 in0.0 mm 0.00 in0.0 mm 0.00 in0.0 mm
04:17 PM 31.2°F-0.4°C 17.8°F-7.9°C 57% Calm Calm 13.0 mph20.9 kmh 29.95 in1014.2 mb 0.00 in0.0 mm 0.00 in0.0 mm 0.00 in0.0 mm
04:18 PM 31.2°F-0.4°C 17.8°F-7.9°C 57% 2.0 mph 3.2 kmh 13.0 mph20.9 kmh 29.95 in1014.2 mb 0.00 in0.0 mm 0.00 in0.0 mm 0.00 in0.0 mm
04:19 PM 31.2°F-0.4°C 17.8°F-7.9°C 57% 3.0 mph N4.8 kmh N 13.0 mph20.9 kmh 29.95 in1014.2 mb 0.00 in0.0 mm 0.00 in0.0 mm 0.00 in0.0 mm
04:20 PM 31.1°F-0.5°C 17.3°F-8.2°C 56% 8.0 mph NE12.9 kmh NE 9.0 mph14.5 kmh 29.95 in1014.2 mb 0.00 in0.0 mm 0.00 in0.0 mm 0.00 in0.0 mm
04:21 PM 31.1°F-0.5°C 16.8°F-8.4°C 55% 1.0 mph NE1.6 kmh NE 9.0 mph14.5 kmh 29.96 in1014.6 mb 0.00 in0.0 mm 0.00 in0.0 mm 0.00 in0.0 mm
04:22 PM 31.1°F-0.5°C 17.3°F-8.2°C 56% 3.0 mph NE4.8 kmh NE 9.0 mph14.5 kmh 29.96 in1014.6 mb 0.00 in0.0 mm 0.00 in0.0 mm 0.00 in0.0 mm
04:23 PM 31.1°F-0.5°C 17.7°F-7.9°C 57% 7.0 mph NE11.3 kmh NE 10.0 mph16.1 kmh 29.96 in1014.6 mb 0.00 in0.0 mm 0.00 in0.0 mm 0.00 in0.0 mm
04:24 PM 31.1°F-0.5°C 17.3°F-8.2°C 56% 6.0 mph N9.7 kmh N 10.0 mph16.1 kmh 29.96 in1014.6 mb 0.00 in0.0 mm 0.00 in0.0 mm 0.00 in0.0 mm
04:25 PM 31.2°F-0.4°C 17.4°F-8.1°C 56% 4.0 mph NE6.4 kmh NE 10.0 mph16.1 kmh 29.96 in1014.6 mb 0.00 in0.0 mm 0.00 in0.0 mm 0.00 in0.0 mm
04:26 PM 31.1°F-0.5°C 17.3°F-8.2°C 56% 3.0 mph NNE4.8 kmh NNE 10.0 mph16.1 kmh 29.96 in1014.6 mb 0.00 in0.0 mm 0.00 in0.0 mm 0.00 in0.0 mm
04:27 PM 31.2°F-0.4°C 17.4°F-8.1°C 56% 6.0 mph NNE9.7 kmh NNE 11.0 mph17.7 kmh 29.96 in1014.6 mb 0.00 in0.0 mm 0.00 in0.0 mm 0.00 in0.0 mm
04:28 PM 31.2°F-0.4°C 16.9°F-8.4°C 55% 2.0 mph NE3.2 kmh NE 11.0 mph17.7 kmh 29.96 in1014.6 mb 0.00 in0.0 mm 0.00 in0.0 mm 0.00 in0.0 mm
04:29 PM 31.1°F-0.5°C 16.8°F-8.4°C 55% 2.0 mph NNE3.2 kmh NNE 11.0 mph17.7 kmh 29.96 in1014.6 mb 0.00 in0.0 mm 0.00 in0.0 mm 0.00 in0.0 mm
04:30 PM 31.1°F-0.5°C 17.3°F-8.2°C 56% 2.0 mph NNE3.2 kmh NNE 11.0 mph17.7 kmh 29.96 in1014.6 mb 0.00 in0.0 mm 0.00 in0.0 mm 0.00 in0.0 mm
04:31 PM 31.1°F-0.5°C 17.3°F-8.2°C 56% 7.0 mph NNE11.3 kmh NNE 11.0 mph17.7 kmh 29.96 in1014.6 mb 0.00 in0.0 mm 0.00 in0.0 mm 0.00 in0.0 mm
04:32 PM 31.1°F-0.5°C 16.8°F-8.4°C 55% 4.0 mph NNE6.4 kmh NNE 11.0 mph17.7 kmh 29.96 in1014.6 mb 0.00 in0.0 mm 0.00 in0.0 mm 0.00 in0.0 mm
04:33 PM 31.1°F-0.5°C 17.3°F-8.2°C 56% 2.0 mph NNE3.2 kmh NNE 11.0 mph17.7 kmh 29.96 in1014.6 mb 0.00 in0.0 mm 0.00 in0.0 mm 0.00 in0.0 mm
04:34 PM 31.1°F-0.5°C 17.7°F-7.9°C 57% 3.0 mph NNE4.8 kmh NNE 11.0 mph17.7 kmh 29.96 in1014.6 mb 0.00 in0.0 mm 0.00 in0.0 mm 0.00 in0.0 mm
04:35 PM 31.0°F-0.6°C 17.6°F-8.0°C 57% 3.0 mph NNE4.8 kmh NNE 11.0 mph17.7 kmh 29.96 in1014.6 mb 0.00 in0.0 mm 0.00 in0.0 mm 0.00 in0.0 mm
04:36 PM 31.0°F-0.6°C 17.2°F-8.2°C 56% Calm Calm 11.0 mph17.7 kmh 29.96 in1014.6 mb 0.00 in0.0 mm 0.00 in0.0 mm 0.00 in0.0 mm
04:37 PM 31.0°F-0.6°C 17.2°F-8.2°C 56% 3.0 mph NE4.8 kmh NE 11.0 mph17.7 kmh 29.96 in1014.6 mb 0.00 in0.0 mm 0.00 in0.0 mm 0.00 in0.0 mm
04:38 PM 30.9°F-0.6°C 17.1°F-8.3°C 56% 2.0 mph NE3.2 kmh NE 11.0 mph17.7 kmh 29.96 in1014.6 mb 0.00 in0.0 mm 0.00 in0.0 mm 0.00 in0.0 mm
04:39 PM 30.9°F-0.6°C 17.5°F-8.1°C 57% 5.0 mph N8.0 kmh N 11.0 mph17.7 kmh 29.96 in1014.6 mb 0.00 in0.0 mm 0.00 in0.0 mm 0.00 in0.0 mm
04:40 PM 30.9°F-0.6°C 17.1°F-8.3°C 56% 3.0 mph N4.8 kmh N 11.0 mph17.7 kmh 29.96 in1014.6 mb 0.00 in0.0 mm 0.00 in0.0 mm 0.00 in0.0 mm
04:41 PM 30.9°F-0.6°C 17.1°F-8.3°C 56% 2.0 mph N3.2 kmh N 11.0 mph17.7 kmh 29.96 in1014.6 mb 0.00 in0.0 mm 0.00 in0.0 mm 0.00 in0.0 mm
04:42 PM 30.8°F-0.7°C 17.4°F-8.1°C 57% 3.0 mph N4.8 kmh N 11.0 mph17.7 kmh 29.96 in1014.6 mb 0.00 in0.0 mm 0.00 in0.0 mm 0.00 in0.0 mm
04:43 PM 30.8°F-0.7°C 17.0°F-8.3°C 56% 3.0 mph N4.8 kmh N 11.0 mph17.7 kmh 29.96 in1014.6 mb 0.00 in0.0 mm 0.00 in0.0 mm 0.00 in0.0 mm
04:44 PM 30.8°F-0.7°C 17.0°F-8.3°C 56% 3.0 mph N4.8 kmh N 11.0 mph17.7 kmh 29.96 in1014.6 mb 0.00 in0.0 mm 0.00 in0.0 mm 0.00 in0.0 mm
04:45 PM 30.8°F-0.7°C 17.0°F-8.3°C 56% 2.0 mph N3.2 kmh N 11.0 mph17.7 kmh 29.96 in1014.6 mb 0.00 in0.0 mm 0.00 in0.0 mm 0.00 in0.0 mm
04:46 PM 30.7°F-0.7°C 17.3°F-8.2°C 57% 2.0 mph N3.2 kmh N 11.0 mph17.7 kmh 29.96 in1014.6 mb 0.00 in0.0 mm 0.00 in0.0 mm 0.00 in0.0 mm
04:47 PM 30.7°F-0.7°C 17.3°F-8.2°C 57% 2.0 mph N3.2 kmh N 6.0 mph9.7 kmh 29.96 in1014.6 mb 0.00 in0.0 mm 0.00 in0.0 mm 0.00 in0.0 mm
04:48 PM 30.6°F-0.8°C 17.2°F-8.2°C 57% 5.0 mph N8.0 kmh N 6.0 mph9.7 kmh 29.96 in1014.6 mb 0.00 in0.0 mm 0.00 in0.0 mm 0.00 in0.0 mm
04:49 PM 30.6°F-0.8°C 17.2°F-8.2°C 57% 2.0 mph N3.2 kmh N 6.0 mph9.7 kmh 29.97 in1014.9 mb 0.00 in0.0 mm 0.00 in0.0 mm 0.00 in0.0 mm
04:50 PM 30.6°F-0.8°C 17.2°F-8.2°C 57% 1.0 mph NNE1.6 kmh NNE 6.0 mph9.7 kmh 29.97 in1014.9 mb 0.00 in0.0 mm 0.00 in0.0 mm 0.00 in0.0 mm
04:51 PM 30.5°F-0.8°C 17.1°F-8.3°C 57% 2.0 mph NNE3.2 kmh NNE 6.0 mph9.7 kmh 29.97 in1014.9 mb 0.00 in0.0 mm 0.00 in0.0 mm 0.00 in0.0 mm
04:52 PM 30.5°F-0.8°C 17.1°F-8.3°C 57% 4.0 mph NNE6.4 kmh NNE 6.0 mph9.7 kmh 29.97 in1014.9 mb 0.00 in0.0 mm 0.00 in0.0 mm 0.00 in0.0 mm
04:53 PM 30.5°F-0.8°C 17.1°F-8.3°C 57% 4.0 mph NNE6.4 kmh NNE 6.0 mph9.7 kmh 29.97 in1014.9 mb 0.00 in0.0 mm 0.00 in0.0 mm 0.00 in0.0 mm
04:54 PM 30.4°F-0.9°C 17.0°F-8.3°C 57% 1.0 mph NNE1.6 kmh NNE 6.0 mph9.7 kmh 29.97 in1014.9 mb 0.00 in0.0 mm 0.00 in0.0 mm 0.00 in0.0 mm
04:55 PM 30.5°F-0.8°C 17.1°F-8.3°C 57% 3.0 mph NNE4.8 kmh NNE 6.0 mph9.7 kmh 29.97 in1014.9 mb 0.00 in0.0 mm 0.00 in0.0 mm 0.00 in0.0 mm
04:56 PM 30.4°F-0.9°C 17.0°F-8.3°C 57% 1.0 mph NNE1.6 kmh NNE 6.0 mph9.7 kmh 29.97 in1014.9 mb 0.00 in0.0 mm 0.00 in0.0 mm 0.00 in0.0 mm
04:57 PM 30.4°F-0.9°C 17.4°F-8.1°C 58% Calm Calm 6.0 mph9.7 kmh 29.97 in1014.9 mb 0.00 in0.0 mm 0.00 in0.0 mm 0.00 in0.0 mm
04:58 PM 30.3°F-0.9°C 17.3°F-8.2°C 58% 3.0 mph NNE4.8 kmh NNE 6.0 mph9.7 kmh 29.97 in1014.9 mb 0.00 in0.0 mm 0.00 in0.0 mm 0.00 in0.0 mm
04:59 PM 30.3°F-0.9°C 17.3°F-8.2°C 58% 2.0 mph NNE3.2 kmh NNE 6.0 mph9.7 kmh 29.97 in1014.9 mb 0.00 in0.0 mm 0.00 in0.0 mm 0.00 in0.0 mm
05:00 PM 30.2°F-1.0°C 17.6°F-8.0°C 59% 3.0 mph NNE4.8 kmh NNE 6.0 mph9.7 kmh 29.97 in1014.9 mb 0.00 in0.0 mm 0.00 in0.0 mm 0.00 in0.0 mm
05:01 PM 30.2°F-1.0°C 17.2°F-8.2°C 58% 3.0 mph NNE4.8 kmh NNE 6.0 mph9.7 kmh 29.97 in1014.9 mb 0.00 in0.0 mm 0.00 in0.0 mm 0.00 in0.0 mm
05:02 PM 30.2°F-1.0°C 17.2°F-8.2°C 58% 3.0 mph NNE4.8 kmh NNE 6.0 mph9.7 kmh 29.97 in1014.9 mb 0.00 in0.0 mm 0.00 in0.0 mm 0.00 in0.0 mm
05:03 PM 30.2°F-1.0°C 16.8°F-8.4°C 57% 3.0 mph NNE4.8 kmh NNE 6.0 mph9.7 kmh 29.97 in1014.9 mb 0.00 in0.0 mm 0.00 in0.0 mm 0.00 in0.0 mm
05:04 PM 30.3°F-0.9°C 16.9°F-8.4°C 57% 2.0 mph NNE3.2 kmh NNE 6.0 mph9.7 kmh 29.97 in1014.9 mb 0.00 in0.0 mm 0.00 in0.0 mm 0.00 in0.0 mm
05:05 PM 30.3°F-0.9°C 16.9°F-8.4°C 57% 2.0 mph NNE3.2 kmh NNE 6.0 mph9.7 kmh 29.97 in1014.9 mb 0.00 in0.0 mm 0.00 in0.0 mm 0.00 in0.0 mm
05:06 PM 30.3°F-0.9°C 17.3°F-8.2°C 58% 3.0 mph NNE4.8 kmh NNE 6.0 mph9.7 kmh 29.97 in1014.9 mb 0.00 in0.0 mm 0.00 in0.0 mm 0.00 in0.0 mm
05:07 PM 30.3°F-0.9°C 17.3°F-8.2°C 58% 1.0 mph NNE1.6 kmh NNE 6.0 mph9.7 kmh 29.97 in1014.9 mb 0.00 in0.0 mm 0.00 in0.0 mm 0.00 in0.0 mm
05:08 PM 30.2°F-1.0°C 17.2°F-8.2°C 58% 2.0 mph NNE3.2 kmh NNE 6.0 mph9.7 kmh 29.97 in1014.9 mb 0.00 in0.0 mm 0.00 in0.0 mm 0.00 in0.0 mm
05:09 PM 30.2°F-1.0°C 17.2°F-8.2°C 58% 2.0 mph NNE3.2 kmh NNE 6.0 mph9.7 kmh 29.97 in1014.9 mb 0.00 in0.0 mm 0.00 in0.0 mm 0.00 in0.0 mm
05:10 PM 30.2°F-1.0°C 17.2°F-8.2°C 58% Calm Calm 6.0 mph9.7 kmh 29.97 in1014.9 mb 0.00 in0.0 mm 0.00 in0.0 mm 0.00 in0.0 mm
05:11 PM 30.2°F-1.0°C 17.2°F-8.2°C 58% 3.0 mph NNE4.8 kmh NNE 6.0 mph9.7 kmh 29.97 in1014.9 mb 0.00 in0.0 mm 0.00 in0.0 mm 0.00 in0.0 mm
05:12 PM 30.1°F-1.1°C 17.1°F-8.3°C 58% 2.0 mph NNE3.2 kmh NNE 6.0 mph9.7 kmh 29.97 in1014.9 mb 0.00 in0.0 mm 0.00 in0.0 mm 0.00 in0.0 mm
05:13 PM 30.1°F-1.1°C 17.1°F-8.3°C 58% 1.0 mph NNE1.6 kmh NNE 6.0 mph9.7 kmh 29.97 in1014.9 mb 0.00 in0.0 mm 0.00 in0.0 mm 0.00 in0.0 mm
05:14 PM 30.1°F-1.1°C 17.1°F-8.3°C 58% 3.0 mph NNE4.8 kmh NNE 6.0 mph9.7 kmh 29.97 in1014.9 mb 0.00 in0.0 mm 0.00 in0.0 mm 0.00 in0.0 mm
05:15 PM 30.1°F-1.1°C 17.1°F-8.3°C 58% 3.0 mph NNE4.8 kmh NNE 6.0 mph9.7 kmh 29.97 in1014.9 mb 0.00 in0.0 mm 0.00 in0.0 mm 0.00 in0.0 mm
05:16 PM 30.1°F-1.1°C 17.1°F-8.3°C 58% 4.0 mph NNE6.4 kmh NNE 6.0 mph9.7 kmh 29.97 in1014.9 mb 0.00 in0.0 mm 0.00 in0.0 mm 0.00 in0.0 mm
05:17 PM 30.1°F-1.1°C 17.1°F-8.3°C 58% 3.0 mph NNE4.8 kmh NNE 6.0 mph9.7 kmh 29.97 in1014.9 mb 0.00 in0.0 mm 0.00 in0.0 mm 0.00 in0.0 mm
05:18 PM 30.1°F-1.1°C 17.1°F-8.3°C 58% 1.0 mph NNE1.6 kmh NNE 6.0 mph9.7 kmh 29.97 in1014.9 mb 0.00 in0.0 mm 0.00 in0.0 mm 0.00 in0.0 mm
05:19 PM 30.1°F-1.1°C 17.5°F-8.1°C 59% 1.0 mph NNE1.6 kmh NNE 6.0 mph9.7 kmh 29.97 in1014.9 mb 0.00 in0.0 mm 0.00 in0.0 mm 0.00 in0.0 mm
05:20 PM 30.1°F-1.1°C 17.1°F-8.3°C 58% 2.0 mph NNE3.2 kmh NNE 6.0 mph9.7 kmh 29.97 in1014.9 mb 0.00 in0.0 mm 0.00 in0.0 mm 0.00 in0.0 mm
05:21 PM 30.1°F-1.1°C 17.1°F-8.3°C 58% 1.0 mph NNE1.6 kmh NNE 6.0 mph9.7 kmh 29.97 in1014.9 mb 0.00 in0.0 mm 0.00 in0.0 mm 0.00 in0.0 mm
05:22 PM 30.1°F-1.1°C 17.1°F-8.3°C 58% 3.0 mph NNE4.8 kmh NNE 6.0 mph9.7 kmh 29.97 in1014.9 mb 0.00 in0.0 mm 0.00 in0.0 mm 0.00 in0.0 mm
05:23 PM 30.1°F-1.1°C 17.1°F-8.3°C 58% 3.0 mph NNE4.8 kmh NNE 6.0 mph9.7 kmh 29.97 in1014.9 mb 0.00 in0.0 mm 0.00 in0.0 mm 0.00 in0.0 mm
05:24 PM 30.1°F-1.1°C 17.1°F-8.3°C 58% 2.0 mph NNE3.2 kmh NNE 6.0 mph9.7 kmh 29.97 in1014.9 mb 0.00 in0.0 mm 0.00 in0.0 mm 0.00 in0.0 mm
05:25 PM 30.1°F-1.1°C 17.5°F-8.1°C 59% 1.0 mph NNE1.6 kmh NNE 6.0 mph9.7 kmh 29.97 in1014.9 mb 0.00 in0.0 mm 0.00 in0.0 mm 0.00 in0.0 mm
05:26 PM 30.0°F-1.1°C 17.0°F-8.3°C 58% 2.0 mph NNE3.2 kmh NNE 6.0 mph9.7 kmh 29.97 in1014.9 mb 0.00 in0.0 mm 0.00 in0.0 mm 0.00 in0.0 mm
05:27 PM 30.0°F-1.1°C 17.4°F-8.1°C 59% 2.0 mph NNE3.2 kmh NNE 6.0 mph9.7 kmh 29.97 in1014.9 mb 0.00 in0.0 mm 0.00 in0.0 mm 0.00 in0.0 mm
05:28 PM 30.0°F-1.1°C 17.4°F-8.1°C 59% 1.0 mph NNE1.6 kmh NNE 6.0 mph9.7 kmh 29.97 in1014.9 mb 0.00 in0.0 mm 0.00 in0.0 mm 0.00 in0.0 mm
05:29 PM 30.0°F-1.1°C 17.0°F-8.3°C 58% 2.0 mph NNE3.2 kmh NNE 6.0 mph9.7 kmh 29.97 in1014.9 mb 0.00 in0.0 mm 0.00 in0.0 mm 0.00 in0.0 mm
05:30 PM 30.0°F-1.1°C 17.0°F-8.3°C 58% Calm Calm 6.0 mph9.7 kmh 29.97 in1014.9 mb 0.00 in0.0 mm 0.00 in0.0 mm 0.00 in0.0 mm
05:31 PM 29.9°F-1.2°C 17.3°F-8.2°C 59% 3.0 mph NNE4.8 kmh NNE 6.0 mph9.7 kmh 29.97 in1014.9 mb 0.00 in0.0 mm 0.00 in0.0 mm 0.00 in0.0 mm
05:32 PM 29.9°F-1.2°C 17.3°F-8.2°C 59% 1.0 mph NNE1.6 kmh NNE 6.0 mph9.7 kmh 29.97 in1014.9 mb 0.00 in0.0 mm 0.00 in0.0 mm 0.00 in0.0 mm
05:33 PM 29.8°F-1.2°C 17.2°F-8.2°C 59% Calm Calm 6.0 mph9.7 kmh 29.98 in1015.2 mb 0.00 in0.0 mm 0.00 in0.0 mm 0.00 in0.0 mm
05:34 PM 29.8°F-1.2°C 17.2°F-8.2°C 59% 2.0 mph NNE3.2 kmh NNE 6.0 mph9.7 kmh 29.97 in1014.9 mb 0.00 in0.0 mm 0.00 in0.0 mm 0.00 in0.0 mm
05:35 PM 29.7°F-1.3°C 17.1°F-8.3°C 59% 1.0 mph NNE1.6 kmh NNE 6.0 mph9.7 kmh 29.97 in1014.9 mb 0.00 in0.0 mm 0.00 in0.0 mm 0.00 in0.0 mm
05:36 PM 29.7°F-1.3°C 17.1°F-8.3°C 59% 1.0 mph NNE1.6 kmh NNE 6.0 mph9.7 kmh 29.97 in1014.9 mb 0.00 in0.0 mm 0.00 in0.0 mm 0.00 in0.0 mm
05:37 PM 29.7°F-1.3°C 17.1°F-8.3°C 59% 3.0 mph NNE4.8 kmh NNE 5.0 mph8.0 kmh 29.97 in1014.9 mb 0.00 in0.0 mm 0.00 in0.0 mm 0.00 in0.0 mm
05:38 PM 29.6°F-1.3°C 17.1°F-8.3°C 59% 2.0 mph NNE3.2 kmh NNE 5.0 mph8.0 kmh 29.98 in1015.2 mb 0.00 in0.0 mm 0.00 in0.0 mm 0.00 in0.0 mm
05:39 PM 29.6°F-1.3°C 17.1°F-8.3°C 59% 1.0 mph NNE1.6 kmh NNE 5.0 mph8.0 kmh 29.98 in1015.2 mb 0.00 in0.0 mm 0.00 in0.0 mm 0.00 in0.0 mm
05:40 PM 29.6°F-1.3°C 17.1°F-8.3°C 59% Calm Calm 5.0 mph8.0 kmh 29.98 in1015.2 mb 0.00 in0.0 mm 0.00 in0.0 mm 0.00 in0.0 mm
05:41 PM 29.5°F-1.4°C 17.0°F-8.3°C 59% 1.0 mph NNE1.6 kmh NNE 5.0 mph8.0 kmh 29.98 in1015.2 mb 0.00 in0.0 mm 0.00 in0.0 mm 0.00 in0.0 mm
05:42 PM 29.5°F-1.4°C 17.0°F-8.3°C 59% 2.0 mph NNE3.2 kmh NNE 5.0 mph8.0 kmh 29.98 in1015.2 mb 0.00 in0.0 mm 0.00 in0.0 mm 0.00 in0.0 mm
05:43 PM 29.5°F-1.4°C 17.0°F-8.3°C 59% 1.0 mph NNE1.6 kmh NNE 5.0 mph8.0 kmh 29.98 in1015.2 mb 0.00 in0.0 mm 0.00 in0.0 mm 0.00 in0.0 mm
05:44 PM 29.5°F-1.4°C 17.0°F-8.3°C 59% 2.0 mph NNE3.2 kmh NNE 5.0 mph8.0 kmh 29.98 in1015.2 mb 0.00 in0.0 mm 0.00 in0.0 mm 0.00 in0.0 mm
05:45 PM 29.4°F-1.4°C 17.3°F-8.2°C 60% Calm Calm 5.0 mph8.0 kmh 29.98 in1015.2 mb 0.00 in0.0 mm 0.00 in0.0 mm 0.00 in0.0 mm
05:46 PM 29.4°F-1.4°C 17.3°F-8.2°C 60% 2.0 mph NNE3.2 kmh NNE 5.0 mph8.0 kmh 29.98 in1015.2 mb 0.00 in0.0 mm 0.00 in0.0 mm 0.00 in0.0 mm
05:47 PM 29.4°F-1.4°C 17.3°F-8.2°C 60% 1.0 mph NNE1.6 kmh NNE 3.0 mph4.8 kmh 29.98 in1015.2 mb 0.00 in0.0 mm 0.00 in0.0 mm 0.00 in0.0 mm
05:48 PM 29.3°F-1.5°C 17.2°F-8.2°C 60% 1.0 mph NNE1.6 kmh NNE 3.0 mph4.8 kmh 29.98 in1015.2 mb 0.00 in0.0 mm 0.00 in0.0 mm 0.00 in0.0 mm
05:49 PM 29.3°F-1.5°C 17.2°F-8.2°C 60% 1.0 mph NNE1.6 kmh NNE 3.0 mph4.8 kmh 29.98 in1015.2 mb 0.00 in0.0 mm 0.00 in0.0 mm 0.00 in0.0 mm
05:50 PM 29.3°F-1.5°C 17.2°F-8.2°C 60% 2.0 mph NNE3.2 kmh NNE 3.0 mph4.8 kmh 29.98 in1015.2 mb 0.00 in0.0 mm 0.00 in0.0 mm 0.00 in0.0 mm
05:51 PM 29.2°F-1.6°C 17.1°F-8.3°C 60% 1.0 mph NNE1.6 kmh NNE 3.0 mph4.8 kmh 29.98 in1015.2 mb 0.00 in0.0 mm 0.00 in0.0 mm 0.00 in0.0 mm
05:52 PM 29.2°F-1.6°C 17.1°F-8.3°C 60% 2.0 mph NNE3.2 kmh NNE 3.0 mph4.8 kmh 29.98 in1015.2 mb 0.00 in0.0 mm 0.00 in0.0 mm 0.00 in0.0 mm
05:53 PM 29.1°F-1.6°C 17.0°F-8.3°C 60% Calm Calm 3.0 mph4.8 kmh 29.98 in1015.2 mb 0.00 in0.0 mm 0.00 in0.0 mm 0.00 in0.0 mm
05:54 PM 29.1°F-1.6°C 17.0°F-8.3°C 60% 1.0 mph NNE1.6 kmh NNE 3.0 mph4.8 kmh 29.98 in1015.2 mb 0.00 in0.0 mm 0.00 in0.0 mm 0.00 in0.0 mm
05:55 PM 29.0°F-1.7°C 16.9°F-8.4°C 60% 1.0 mph NNE1.6 kmh NNE 3.0 mph4.8 kmh 29.98 in1015.2 mb 0.00 in0.0 mm 0.00 in0.0 mm 0.00 in0.0 mm
05:56 PM 29.0°F-1.7°C 16.9°F-8.4°C 60% 1.0 mph NNE1.6 kmh NNE 4.0 mph6.4 kmh 29.98 in1015.2 mb 0.00 in0.0 mm 0.00 in0.0 mm 0.00 in0.0 mm
05:57 PM 29.0°F-1.7°C 16.9°F-8.4°C 60% Calm Calm 4.0 mph6.4 kmh 29.98 in1015.2 mb 0.00 in0.0 mm 0.00 in0.0 mm 0.00 in0.0 mm
05:58 PM 29.0°F-1.7°C 16.9°F-8.4°C 60% Calm Calm 4.0 mph6.4 kmh 29.98 in1015.2 mb 0.00 in0.0 mm 0.00 in0.0 mm 0.00 in0.0 mm
05:59 PM 28.9°F-1.7°C 16.8°F-8.4°C 60% Calm Calm 4.0 mph6.4 kmh 29.98 in1015.2 mb 0.00 in0.0 mm 0.00 in0.0 mm 0.00 in0.0 mm
06:00 PM 28.9°F-1.7°C 16.8°F-8.4°C 60% Calm Calm -- 29.98 in1015.2 mb 0.00 in0.0 mm 0.00 in0.0 mm 0.00 in0.0 mm
06:01 PM 28.8°F-1.8°C 17.1°F-8.3°C 61% Calm Calm 1.0 mph1.6 kmh 29.98 in1015.2 mb 0.00 in0.0 mm 0.00 in0.0 mm 0.00 in0.0 mm
06:02 PM 28.8°F-1.8°C 17.1°F-8.3°C 61% Calm Calm 1.0 mph1.6 kmh 29.98 in1015.2 mb 0.00 in0.0 mm 0.00 in0.0 mm 0.00 in0.0 mm
06:03 PM 28.7°F-1.8°C 17.0°F-8.3°C 61% Calm Calm 1.0 mph1.6 kmh 29.98 in1015.2 mb 0.00 in0.0 mm 0.00 in0.0 mm 0.00 in0.0 mm
06:04 PM 28.7°F-1.8°C 17.0°F-8.3°C 61% 1.0 mph NNE1.6 kmh NNE 1.0 mph1.6 kmh 29.98 in1015.2 mb 0.00 in0.0 mm 0.00 in0.0 mm 0.00 in0.0 mm
06:05 PM 28.6°F-1.9°C 16.9°F-8.4°C 61% 1.0 mph NNE1.6 kmh NNE 2.0 mph3.2 kmh 29.98 in1015.2 mb 0.00 in0.0 mm 0.00 in0.0 mm 0.00 in0.0 mm
06:06 PM 28.5°F-1.9°C 16.8°F-8.4°C 61% 2.0 mph NNE3.2 kmh NNE 3.0 mph4.8 kmh 29.98 in1015.2 mb 0.00 in0.0 mm 0.00 in0.0 mm 0.00 in0.0 mm
06:07 PM 28.5°F-1.9°C 16.8°F-8.4°C 61% 3.0 mph NNE4.8 kmh NNE 4.0 mph6.4 kmh 29.98 in1015.2 mb 0.00 in0.0 mm 0.00 in0.0 mm 0.00 in0.0 mm
06:08 PM 28.6°F-1.9°C 16.9°F-8.4°C 61% 2.0 mph NNE3.2 kmh NNE 4.0 mph6.4 kmh 29.98 in1015.2 mb 0.00 in0.0 mm 0.00 in0.0 mm 0.00 in0.0 mm
06:09 PM 28.6°F-1.9°C 16.9°F-8.4°C 61% 3.0 mph NNE4.8 kmh NNE 4.0 mph6.4 kmh 29.98 in1015.2 mb 0.00 in0.0 mm 0.00 in0.0 mm 0.00 in0.0 mm
06:10 PM 28.7°F-1.8°C 17.0°F-8.3°C 61% 1.0 mph NNE1.6 kmh NNE 4.0 mph6.4 kmh 29.98 in1015.2 mb 0.00 in0.0 mm 0.00 in0.0 mm 0.00 in0.0 mm
06:11 PM 28.6°F-1.9°C 16.9°F-8.4°C 61% Calm Calm 4.0 mph6.4 kmh 29.98 in1015.2 mb 0.00 in0.0 mm 0.00 in0.0 mm 0.00 in0.0 mm
06:12 PM 28.6°F-1.9°C 16.9°F-8.4°C 61% 1.0 mph NNE1.6 kmh NNE 4.0 mph6.4 kmh 29.98 in1015.2 mb 0.00 in0.0 mm 0.00 in0.0 mm 0.00 in0.0 mm
06:14 PM 28.6°F-1.9°C 16.9°F-8.4°C 61% Calm Calm 4.0 mph6.4 kmh 29.98 in1015.2 mb 0.00 in0.0 mm 0.00 in0.0 mm 0.00 in0.0 mm
06:17 PM 28.5°F-1.9°C 17.2°F-8.2°C 62% 1.0 mph NNE1.6 kmh NNE 2.0 mph3.2 kmh 29.98 in1015.2 mb 0.00 in0.0 mm 0.00 in0.0 mm 0.00 in0.0 mm
06:18 PM 28.6°F-1.9°C 17.3°F-8.2°C 62% Calm Calm 2.0 mph3.2 kmh 29.98 in1015.2 mb 0.00 in0.0 mm 0.00 in0.0 mm 0.00 in0.0 mm
06:19 PM 28.6°F-1.9°C 17.3°F-8.2°C 62% Calm Calm 2.0 mph3.2 kmh 29.98 in1015.2 mb 0.00 in0.0 mm 0.00 in0.0 mm 0.00 in0.0 mm
06:20 PM 28.6°F-1.9°C 17.3°F-8.2°C 62% Calm Calm 2.0 mph3.2 kmh 29.98 in1015.2 mb 0.00 in0.0 mm 0.00 in0.0 mm 0.00 in0.0 mm
06:21 PM 28.6°F-1.9°C 17.3°F-8.2°C 62% Calm Calm 2.0 mph3.2 kmh 29.98 in1015.2 mb 0.00 in0.0 mm 0.00 in0.0 mm 0.00 in0.0 mm
06:22 PM 28.6°F-1.9°C 17.6°F-8.0°C 63% 2.0 mph NNE3.2 kmh NNE 2.0 mph3.2 kmh 29.98 in1015.2 mb 0.00 in0.0 mm 0.00 in0.0 mm 0.00 in0.0 mm
06:23 PM 28.6°F-1.9°C 17.3°F-8.2°C 62% 2.0 mph NNE3.2 kmh NNE 3.0 mph4.8 kmh 29.98 in1015.2 mb 0.00 in0.0 mm 0.00 in0.0 mm 0.00 in0.0 mm
06:24 PM 28.6°F-1.9°C 17.3°F-8.2°C 62% 2.0 mph NNE3.2 kmh NNE 4.0 mph6.4 kmh 29.98 in1015.2 mb 0.00 in0.0 mm 0.00 in0.0 mm 0.00 in0.0 mm
06:25 PM 28.6°F-1.9°C 17.3°F-8.2°C 62% 2.0 mph NNE3.2 kmh NNE 4.0 mph6.4 kmh 29.98 in1015.2 mb 0.00 in0.0 mm 0.00 in0.0 mm 0.00 in0.0 mm
06:26 PM 28.7°F-1.8°C 17.4°F-8.1°C 62% 1.0 mph NNE1.6 kmh NNE 4.0 mph6.4 kmh 29.98 in1015.2 mb 0.00 in0.0 mm 0.00 in0.0 mm 0.00 in0.0 mm
06:27 PM 28.7°F-1.8°C 17.4°F-8.1°C 62% Calm Calm 4.0 mph6.4 kmh 29.98 in1015.2 mb 0.00 in0.0 mm 0.00 in0.0 mm 0.00 in0.0 mm
06:28 PM 28.8°F-1.8°C 17.4°F-8.1°C 62% 2.0 mph NNE3.2 kmh NNE 4.0 mph6.4 kmh 29.98 in1015.2 mb 0.00 in0.0 mm 0.00 in0.0 mm 0.00 in0.0 mm
06:29 PM 28.8°F-1.8°C 17.4°F-8.1°C 62% 2.0 mph NNE3.2 kmh NNE 4.0 mph6.4 kmh 29.98 in1015.2 mb 0.00 in0.0 mm 0.00 in0.0 mm 0.00 in0.0 mm
06:30 PM 28.8°F-1.8°C 17.4°F-8.1°C 62% 1.0 mph NNE1.6 kmh NNE 4.0 mph6.4 kmh 29.98 in1015.2 mb 0.00 in0.0 mm 0.00 in0.0 mm 0.00 in0.0 mm
06:31 PM 28.8°F-1.8°C 17.1°F-8.3°C 61% 2.0 mph NNE3.2 kmh NNE 4.0 mph6.4 kmh 29.98 in1015.2 mb 0.00 in0.0 mm 0.00 in0.0 mm 0.00 in0.0 mm
06:32 PM 28.8°F-1.8°C 17.1°F-8.3°C 61% 1.0 mph NNE1.6 kmh NNE 4.0 mph6.4 kmh 29.98 in1015.2 mb 0.00 in0.0 mm 0.00 in0.0 mm 0.00 in0.0 mm
06:33 PM 28.8°F-1.8°C 17.1°F-8.3°C 61% 2.0 mph NNE3.2 kmh NNE 4.0 mph6.4 kmh 29.98 in1015.2 mb 0.00 in0.0 mm 0.00 in0.0 mm 0.00 in0.0 mm
06:34 PM 28.8°F-1.8°C 17.1°F-8.3°C 61% Calm Calm 4.0 mph6.4 kmh 29.98 in1015.2 mb 0.00 in0.0 mm 0.00 in0.0 mm 0.00 in0.0 mm
06:35 PM 28.8°F-1.8°C 17.1°F-8.3°C 61% Calm Calm 4.0 mph6.4 kmh 29.98 in1015.2 mb 0.00 in0.0 mm 0.00 in0.0 mm 0.00 in0.0 mm
06:36 PM 28.8°F-1.8°C 17.4°F-8.1°C 62% Calm Calm 4.0 mph6.4 kmh 29.98 in1015.2 mb 0.00 in0.0 mm 0.00 in0.0 mm 0.00 in0.0 mm
06:37 PM 28.7°F-1.8°C 17.4°F-8.1°C 62% 1.0 mph NNE1.6 kmh NNE 4.0 mph6.4 kmh 29.98 in1015.2 mb 0.00 in0.0 mm 0.00 in0.0 mm 0.00 in0.0 mm
06:38 PM 28.7°F-1.8°C 17.4°F-8.1°C 62% 1.0 mph NNE1.6 kmh NNE 4.0 mph6.4 kmh 29.98 in1015.2 mb 0.00 in0.0 mm 0.00 in0.0 mm 0.00 in0.0 mm
06:39 PM 28.8°F-1.8°C 17.1°F-8.3°C 61% 1.0 mph NNE1.6 kmh NNE 4.0 mph6.4 kmh 29.98 in1015.2 mb 0.00 in0.0 mm 0.00 in0.0 mm 0.00 in0.0 mm
06:40 PM 28.8°F-1.8°C 17.1°F-8.3°C 61% 1.0 mph NNE1.6 kmh NNE 4.0 mph6.4 kmh 29.98 in1015.2 mb 0.00 in0.0 mm 0.00 in0.0 mm 0.00 in0.0 mm
06:41 PM 28.8°F-1.8°C 17.4°F-8.1°C 62% 1.0 mph NNE1.6 kmh NNE 4.0 mph6.4 kmh 29.98 in1015.2 mb 0.00 in0.0 mm 0.00 in0.0 mm 0.00 in0.0 mm
06:42 PM 28.8°F-1.8°C 17.4°F-8.1°C 62% 1.0 mph NNE1.6 kmh NNE 4.0 mph6.4 kmh 29.98 in1015.2 mb 0.00 in0.0 mm 0.00 in0.0 mm 0.00 in0.0 mm
06:43 PM 28.7°F-1.8°C 17.0°F-8.3°C 61% 2.0 mph NNE3.2 kmh NNE 4.0 mph6.4 kmh 29.98 in1015.2 mb 0.00 in0.0 mm 0.00 in0.0 mm 0.00 in0.0 mm
06:44 PM 28.7°F-1.8°C 17.4°F-8.1°C 62% 1.0 mph NNE1.6 kmh NNE 4.0 mph6.4 kmh 29.98 in1015.2 mb 0.00 in0.0 mm 0.00 in0.0 mm 0.00 in0.0 mm
06:45 PM 28.7°F-1.8°C 17.4°F-8.1°C 62% 2.0 mph NNE3.2 kmh NNE 4.0 mph6.4 kmh 29.98 in1015.2 mb 0.00 in0.0 mm 0.00 in0.0 mm 0.00 in0.0 mm
06:46 PM 28.7°F-1.8°C 17.4°F-8.1°C 62% Calm Calm 4.0 mph6.4 kmh 29.98 in1015.2 mb 0.00 in0.0 mm 0.00 in0.0 mm 0.00 in0.0 mm
06:47 PM 28.7°F-1.8°C 17.4°F-8.1°C 62% 1.0 mph NNE1.6 kmh NNE 4.0 mph6.4 kmh 29.98 in1015.2 mb 0.00 in0.0 mm 0.00 in0.0 mm 0.00 in0.0 mm
06:48 PM 28.7°F-1.8°C 17.4°F-8.1°C 62% 2.0 mph NNE3.2 kmh NNE 4.0 mph6.4 kmh 29.98 in1015.2 mb 0.00 in0.0 mm 0.00 in0.0 mm 0.00 in0.0 mm
06:49 PM 28.6°F-1.9°C 17.3°F-8.2°C 62% 1.0 mph NNE1.6 kmh NNE 4.0 mph6.4 kmh 29.98 in1015.2 mb 0.00 in0.0 mm 0.00 in0.0 mm 0.00 in0.0 mm
06:50 PM 28.6°F-1.9°C 17.3°F-8.2°C 62% 3.0 mph NNE4.8 kmh NNE 4.0 mph6.4 kmh 29.98 in1015.2 mb 0.00 in0.0 mm 0.00 in0.0 mm 0.00 in0.0 mm
06:51 PM 28.6°F-1.9°C 17.3°F-8.2°C 62% Calm Calm 4.0 mph6.4 kmh 29.98 in1015.2 mb 0.00 in0.0 mm 0.00 in0.0 mm 0.00 in0.0 mm
06:52 PM 28.5°F-1.9°C 17.2°F-8.2°C 62% 1.0 mph NNE1.6 kmh NNE 4.0 mph6.4 kmh 29.98 in1015.2 mb 0.00 in0.0 mm 0.00 in0.0 mm 0.00 in0.0 mm
06:53 PM 28.6°F-1.9°C 17.3°F-8.2°C 62% 2.0 mph NNE3.2 kmh NNE 4.0 mph6.4 kmh 29.98 in1015.2 mb 0.00 in0.0 mm 0.00 in0.0 mm 0.00 in0.0 mm
06:54 PM 28.6°F-1.9°C 17.3°F-8.2°C 62% 1.0 mph NNE1.6 kmh NNE 4.0 mph6.4 kmh 29.98 in1015.2 mb 0.00 in0.0 mm 0.00 in0.0 mm 0.00 in0.0 mm
06:55 PM 28.6°F-1.9°C 17.3°F-8.2°C 62% 2.0 mph NNE3.2 kmh NNE 4.0 mph6.4 kmh 29.98 in1015.2 mb 0.00 in0.0 mm 0.00 in0.0 mm 0.00 in0.0 mm
06:56 PM 28.7°F-1.8°C 17.4°F-8.1°C 62% 2.0 mph NNE3.2 kmh NNE 4.0 mph6.4 kmh 29.98 in1015.2 mb 0.00 in0.0 mm 0.00 in0.0 mm 0.00 in0.0 mm
06:57 PM 28.7°F-1.8°C 17.0°F-8.3°C 61% 1.0 mph NNE1.6 kmh NNE 4.0 mph6.4 kmh 29.98 in1015.2 mb 0.00 in0.0 mm 0.00 in0.0 mm 0.00 in0.0 mm
06:58 PM 28.7°F-1.8°C 17.4°F-8.1°C 62% 2.0 mph NNE3.2 kmh NNE 4.0 mph6.4 kmh 29.98 in1015.2 mb 0.00 in0.0 mm 0.00 in0.0 mm 0.00 in0.0 mm
06:59 PM 28.7°F-1.8°C 17.4°F-8.1°C 62% 1.0 mph NNE1.6 kmh NNE 4.0 mph6.4 kmh 29.98 in1015.2 mb 0.00 in0.0 mm 0.00 in0.0 mm 0.00 in0.0 mm
07:00 PM 28.7°F-1.8°C 17.4°F-8.1°C 62% 1.0 mph NNE1.6 kmh NNE 4.0 mph6.4 kmh 29.98 in1015.2 mb 0.00 in0.0 mm 0.00 in0.0 mm 0.00 in0.0 mm
07:01 PM 28.7°F-1.8°C 17.4°F-8.1°C 62% Calm Calm 4.0 mph6.4 kmh 29.98 in1015.2 mb 0.00 in0.0 mm 0.00 in0.0 mm 0.00 in0.0 mm
07:02 PM 28.7°F-1.8°C 17.4°F-8.1°C 62% Calm Calm 4.0 mph6.4 kmh 29.98 in1015.2 mb 0.00 in0.0 mm 0.00 in0.0 mm 0.00 in0.0 mm
07:03 PM 28.7°F-1.8°C 17.4°F-8.1°C 62% 2.0 mph NNE3.2 kmh NNE 4.0 mph6.4 kmh 29.98 in1015.2 mb 0.00 in0.0 mm 0.00 in0.0 mm 0.00 in0.0 mm
07:04 PM 28.6°F-1.9°C 16.9°F-8.4°C 61% 1.0 mph NNE1.6 kmh NNE 4.0 mph6.4 kmh 29.98 in1015.2 mb 0.00 in0.0 mm 0.00 in0.0 mm 0.00 in0.0 mm
07:05 PM 28.7°F-1.8°C 17.4°F-8.1°C 62% Calm Calm 4.0 mph6.4 kmh 29.98 in1015.2 mb 0.00 in0.0 mm 0.00 in0.0 mm 0.00 in0.0 mm
07:06 PM 28.6°F-1.9°C 17.3°F-8.2°C 62% 2.0 mph NNE3.2 kmh NNE 4.0 mph6.4 kmh 29.98 in1015.2 mb 0.00 in0.0 mm 0.00 in0.0 mm 0.00 in0.0 mm
07:07 PM 28.6°F-1.9°C 16.9°F-8.4°C 61% 1.0 mph NNE1.6 kmh NNE 4.0 mph6.4 kmh 29.98 in1015.2 mb 0.00 in0.0 mm 0.00 in0.0 mm 0.00 in0.0 mm
07:08 PM 28.6°F-1.9°C 16.9°F-8.4°C 61% 1.0 mph NNE1.6 kmh NNE 4.0 mph6.4 kmh 29.98 in1015.2 mb 0.00 in0.0 mm 0.00 in0.0 mm 0.00 in0.0 mm
07:09 PM 28.6°F-1.9°C 16.9°F-8.4°C 61% 5.0 mph NNE8.0 kmh NNE 5.0 mph8.0 kmh 29.98 in1015.2 mb 0.00 in0.0 mm 0.00 in0.0 mm 0.00 in0.0 mm
07:10 PM 28.7°F-1.8°C 17.0°F-8.3°C 61% 2.0 mph NNE3.2 kmh NNE 5.0 mph8.0 kmh 29.98 in1015.2 mb 0.00 in0.0 mm 0.00 in0.0 mm 0.00 in0.0 mm
07:11 PM 28.7°F-1.8°C 17.0°F-8.3°C 61% Calm Calm 5.0 mph8.0 kmh 29.98 in1015.2 mb 0.00 in0.0 mm 0.00 in0.0 mm 0.00 in0.0 mm
07:12 PM 28.6°F-1.9°C 16.9°F-8.4°C 61% 2.0 mph NNE3.2 kmh NNE 5.0 mph8.0 kmh 29.98 in1015.2 mb 0.00 in0.0 mm 0.00 in0.0 mm 0.00 in0.0 mm
07:13 PM 28.6°F-1.9°C 16.9°F-8.4°C 61% 1.0 mph NNE1.6 kmh NNE 5.0 mph8.0 kmh 29.98 in1015.2 mb 0.00 in0.0 mm 0.00 in0.0 mm 0.00 in0.0 mm
07:14 PM 28.6°F-1.9°C 16.9°F-8.4°C 61% 1.0 mph NNE1.6 kmh NNE 5.0 mph8.0 kmh 29.98 in1015.2 mb 0.00 in0.0 mm 0.00 in0.0 mm 0.00 in0.0 mm
07:15 PM 28.5°F-1.9°C 16.8°F-8.4°C 61% 2.0 mph NNE3.2 kmh NNE 5.0 mph8.0 kmh 29.98 in1015.2 mb 0.00 in0.0 mm 0.00 in0.0 mm 0.00 in0.0 mm
07:16 PM 28.5°F-1.9°C 16.8°F-8.4°C 61% 2.0 mph NNE3.2 kmh NNE 5.0 mph8.0 kmh 29.98 in1015.2 mb 0.00 in0.0 mm 0.00 in0.0 mm 0.00 in0.0 mm
07:17 PM 28.5°F-1.9°C 16.8°F-8.4°C 61% 2.0 mph NNE3.2 kmh NNE 5.0 mph8.0 kmh 29.98 in1015.2 mb 0.00 in0.0 mm 0.00 in0.0 mm 0.00 in0.0 mm
07:18 PM 28.4°F-2.0°C 16.7°F-8.5°C 61% 3.0 mph NNE4.8 kmh NNE 5.0 mph8.0 kmh 29.98 in1015.2 mb 0.00 in0.0 mm 0.00 in0.0 mm 0.00 in0.0 mm
07:19 PM 28.4°F-2.0°C 16.7°F-8.5°C 61% 4.0 mph NNE6.4 kmh NNE 5.0 mph8.0 kmh 29.98 in1015.2 mb 0.00 in0.0 mm 0.00 in0.0 mm 0.00 in0.0 mm
07:20 PM 28.4°F-2.0°C 16.7°F-8.5°C 61% 5.0 mph NNE8.0 kmh NNE 5.0 mph8.0 kmh 29.98 in1015.2 mb 0.00 in0.0 mm 0.00 in0.0 mm 0.00 in0.0 mm
07:21 PM 28.4°F-2.0°C 16.7°F-8.5°C 61% 5.0 mph NNE8.0 kmh NNE 5.0 mph8.0 kmh 29.98 in1015.2 mb 0.00 in0.0 mm 0.00 in0.0 mm 0.00 in0.0 mm
07:22 PM 28.4°F-2.0°C 16.7°F-8.5°C 61% 3.0 mph N4.8 kmh N 6.0 mph9.7 kmh 29.98 in1015.2 mb 0.00 in0.0 mm 0.00 in0.0 mm 0.00 in0.0 mm
07:23 PM 28.5°F-1.9°C 16.8°F-8.4°C 61% 3.0 mph N4.8 kmh N 6.0 mph9.7 kmh 29.98 in1015.2 mb 0.00 in0.0 mm 0.00 in0.0 mm 0.00 in0.0 mm
07:24 PM 28.5°F-1.9°C 16.8°F-8.4°C 61% 3.0 mph N4.8 kmh N 6.0 mph9.7 kmh 29.98 in1015.2 mb 0.00 in0.0 mm 0.00 in0.0 mm 0.00 in0.0 mm
07:25 PM 28.5°F-1.9°C 16.8°F-8.4°C 61% 4.0 mph N6.4 kmh N 6.0 mph9.7 kmh 29.98 in1015.2 mb 0.00 in0.0 mm 0.00 in0.0 mm 0.00 in0.0 mm
07:27 PM 28.6°F-1.9°C 16.9°F-8.4°C 61% 3.0 mph N4.8 kmh N 6.0 mph9.7 kmh 29.99 in1015.6 mb 0.00 in0.0 mm 0.00 in0.0 mm 0.00 in0.0 mm
07:28 PM 28.7°F-1.8°C 17.0°F-8.3°C 61% 3.0 mph N4.8 kmh N 6.0 mph9.7 kmh 29.98 in1015.2 mb 0.00 in0.0 mm 0.00 in0.0 mm 0.00 in0.0 mm
07:29 PM 28.7°F-1.8°C 17.0°F-8.3°C 61% 3.0 mph N4.8 kmh N 6.0 mph9.7 kmh 29.98 in1015.2 mb 0.00 in0.0 mm 0.00 in0.0 mm 0.00 in0.0 mm
07:30 PM 28.8°F-1.8°C 17.1°F-8.3°C 61% 2.0 mph N3.2 kmh N 6.0 mph9.7 kmh 29.98 in1015.2 mb 0.00 in0.0 mm 0.00 in0.0 mm 0.00 in0.0 mm
07:31 PM 28.8°F-1.8°C 17.1°F-8.3°C 61% 2.0 mph N3.2 kmh N 6.0 mph9.7 kmh 29.98 in1015.2 mb 0.00 in0.0 mm 0.00 in0.0 mm 0.00 in0.0 mm
07:32 PM 28.9°F-1.7°C 17.2°F-8.2°C 61% 4.0 mph N6.4 kmh N 6.0 mph9.7 kmh 29.98 in1015.2 mb 0.00 in0.0 mm 0.00 in0.0 mm 0.00 in0.0 mm
07:33 PM 28.9°F-1.7°C 17.2°F-8.2°C 61% 7.0 mph N11.3 kmh N 7.0 mph11.3 kmh 29.98 in1015.2 mb 0.00 in0.0 mm 0.00 in0.0 mm 0.00 in0.0 mm
07:34 PM 28.9°F-1.7°C 17.2°F-8.2°C 61% 3.0 mph N4.8 kmh N 7.0 mph11.3 kmh 29.98 in1015.2 mb 0.00 in0.0 mm 0.00 in0.0 mm 0.00 in0.0 mm
07:35 PM 28.9°F-1.7°C 17.2°F-8.2°C 61% 4.0 mph N6.4 kmh N 7.0 mph11.3 kmh 29.98 in1015.2 mb 0.00 in0.0 mm 0.00 in0.0 mm 0.00 in0.0 mm
07:36 PM 28.9°F-1.7°C 17.2°F-8.2°C 61% 4.0 mph N6.4 kmh N 7.0 mph11.3 kmh 29.98 in1015.2 mb 0.00 in0.0 mm 0.00 in0.0 mm 0.00 in0.0 mm
07:37 PM 28.9°F-1.7°C 17.2°F-8.2°C 61% 5.0 mph N8.0 kmh N 7.0 mph11.3 kmh 29.98 in1015.2 mb 0.00 in0.0 mm 0.00 in0.0 mm 0.00 in0.0 mm
07:38 PM 29.0°F-1.7°C 17.3°F-8.2°C 61% 3.0 mph 4.8 kmh 7.0 mph11.3 kmh 29.98 in1015.2 mb 0.00 in0.0 mm 0.00 in0.0 mm 0.00 in0.0 mm
07:39 PM 29.0°F-1.7°C 17.3°F-8.2°C 61% 4.0 mph N6.4 kmh N 7.0 mph11.3 kmh 29.98 in1015.2 mb 0.00 in0.0 mm 0.00 in0.0 mm 0.00 in0.0 mm
07:40 PM 29.0°F-1.7°C 17.3°F-8.2°C 61% 7.0 mph N11.3 kmh N 8.0 mph12.9 kmh 29.98 in1015.2 mb 0.00 in0.0 mm 0.00 in0.0 mm 0.00 in0.0 mm
07:41 PM 29.0°F-1.7°C 17.3°F-8.2°C 61% 2.0 mph N3.2 kmh N 8.0 mph12.9 kmh 29.98 in1015.2 mb 0.00 in0.0 mm 0.00 in0.0 mm 0.00 in0.0 mm
07:42 PM 29.0°F-1.7°C 17.3°F